<?xml version="1.0" encoding="UTF-8" standalone="no" ?>
<gpx xmlns="http://www.topografix.com/GPX/1/1" xmlns:xsi="http://www.w3.org/2001/XMLSchema-instance" xsi:schemaLocation="http://www.topografix.com/GPX/1/1 http://www.topografix.com/GPX/1/1/gpx.xsd" version="1.1" creator="VisuGPX - https://www.visugpx.com">
  <metadata>
    <name>Dextre avec Ténébra, Iggy et Walk </name>
    <desc><![CDATA[Allez aux Étang du Roi sans détour...est-ce possible ?? !
Pour Dipti, nouveaux chemins et nouveau compagnon, très sociale, même pas peur de la chienne qui court partout !]]></desc>
  </metadata>
  <trk>
    <name><![CDATA[Untitled]]></name>
    <trkseg>
      <trkpt lat="48.70349" lon="1.75377">
        <ele>180.80000305176</ele>
        <time>2014-06-21T09:37:40.000Z</time>
      </trkpt>
      <trkpt lat="48.70345" lon="1.7537">
        <ele>180.80000305176</ele>
        <time>2014-06-21T09:37:45.000Z</time>
      </trkpt>
      <trkpt lat="48.70339" lon="1.75365">
        <ele>180.60000610352</ele>
        <time>2014-06-21T09:37:51.000Z</time>
      </trkpt>
      <trkpt lat="48.70335" lon="1.75363">
        <ele>180.60000610352</ele>
        <time>2014-06-21T09:37:56.000Z</time>
      </trkpt>
      <trkpt lat="48.70331" lon="1.75355">
        <ele>180.39999389648</ele>
        <time>2014-06-21T09:38:02.000Z</time>
      </trkpt>
      <trkpt lat="48.70331" lon="1.75362">
        <ele>180.39999389648</ele>
        <time>2014-06-21T09:38:16.000Z</time>
      </trkpt>
      <trkpt lat="48.70328" lon="1.75357">
        <ele>180.39999389648</ele>
        <time>2014-06-21T09:38:20.000Z</time>
      </trkpt>
      <trkpt lat="48.70323" lon="1.75355">
        <ele>180.19999694824</ele>
        <time>2014-06-21T09:38:25.000Z</time>
      </trkpt>
      <trkpt lat="48.70322" lon="1.75355">
        <ele>180.19999694824</ele>
        <time>2014-06-21T09:38:26.000Z</time>
      </trkpt>
      <trkpt lat="48.70316" lon="1.75346">
        <ele>180</ele>
        <time>2014-06-21T09:38:32.000Z</time>
      </trkpt>
      <trkpt lat="48.70309" lon="1.75334">
        <ele>180</ele>
        <time>2014-06-21T09:38:39.000Z</time>
      </trkpt>
      <trkpt lat="48.70304" lon="1.75322">
        <ele>179.80000305176</ele>
        <time>2014-06-21T09:38:46.000Z</time>
      </trkpt>
      <trkpt lat="48.70304" lon="1.75322">
        <ele>179.80000305176</ele>
        <time>2014-06-21T09:38:47.000Z</time>
      </trkpt>
      <trkpt lat="48.70302" lon="1.75321">
        <ele>179.80000305176</ele>
        <time>2014-06-21T09:38:53.000Z</time>
      </trkpt>
      <trkpt lat="48.70302" lon="1.75321">
        <ele>179.80000305176</ele>
        <time>2014-06-21T09:38:54.000Z</time>
      </trkpt>
      <trkpt lat="48.70304" lon="1.75325">
        <ele>179.80000305176</ele>
        <time>2014-06-21T09:39:51.000Z</time>
      </trkpt>
      <trkpt lat="48.70307" lon="1.75325">
        <ele>179.80000305176</ele>
        <time>2014-06-21T09:39:56.000Z</time>
      </trkpt>
      <trkpt lat="48.70298" lon="1.75317">
        <ele>179.80000305176</ele>
        <time>2014-06-21T09:40:36.000Z</time>
      </trkpt>
      <trkpt lat="48.70297" lon="1.75319">
        <ele>179.60000610352</ele>
        <time>2014-06-21T09:40:41.000Z</time>
      </trkpt>
      <trkpt lat="48.70304" lon="1.75315">
        <ele>179.80000305176</ele>
        <time>2014-06-21T09:40:53.000Z</time>
      </trkpt>
      <trkpt lat="48.70306" lon="1.75313">
        <ele>180</ele>
        <time>2014-06-21T09:40:56.000Z</time>
      </trkpt>
      <trkpt lat="48.70301" lon="1.75308">
        <ele>179.80000305176</ele>
        <time>2014-06-21T09:41:03.000Z</time>
      </trkpt>
      <trkpt lat="48.70296" lon="1.75302">
        <ele>179.80000305176</ele>
        <time>2014-06-21T09:41:07.000Z</time>
      </trkpt>
      <trkpt lat="48.70289" lon="1.75297">
        <ele>179.80000305176</ele>
        <time>2014-06-21T09:41:15.000Z</time>
      </trkpt>
      <trkpt lat="48.70282" lon="1.75292">
        <ele>179.60000610352</ele>
        <time>2014-06-21T09:41:22.000Z</time>
      </trkpt>
      <trkpt lat="48.70274" lon="1.75285">
        <ele>179.60000610352</ele>
        <time>2014-06-21T09:41:28.000Z</time>
      </trkpt>
      <trkpt lat="48.70263" lon="1.75276">
        <ele>179.19999694824</ele>
        <time>2014-06-21T09:41:38.000Z</time>
      </trkpt>
      <trkpt lat="48.70256" lon="1.75271">
        <ele>179</ele>
        <time>2014-06-21T09:41:46.000Z</time>
      </trkpt>
      <trkpt lat="48.70247" lon="1.75264">
        <ele>178.60000610352</ele>
        <time>2014-06-21T09:41:55.000Z</time>
      </trkpt>
      <trkpt lat="48.7024" lon="1.75256">
        <ele>178.39999389648</ele>
        <time>2014-06-21T09:42:01.000Z</time>
      </trkpt>
      <trkpt lat="48.70233" lon="1.75252">
        <ele>178</ele>
        <time>2014-06-21T09:42:08.000Z</time>
      </trkpt>
      <trkpt lat="48.70227" lon="1.75247">
        <ele>177.80000305176</ele>
        <time>2014-06-21T09:42:13.000Z</time>
      </trkpt>
      <trkpt lat="48.70219" lon="1.75243">
        <ele>177.39999389648</ele>
        <time>2014-06-21T09:42:20.000Z</time>
      </trkpt>
      <trkpt lat="48.7021" lon="1.75243">
        <ele>177</ele>
        <time>2014-06-21T09:42:28.000Z</time>
      </trkpt>
      <trkpt lat="48.702" lon="1.75246">
        <ele>176.60000610352</ele>
        <time>2014-06-21T09:42:36.000Z</time>
      </trkpt>
      <trkpt lat="48.70194" lon="1.75249">
        <ele>176.19999694824</ele>
        <time>2014-06-21T09:42:41.000Z</time>
      </trkpt>
      <trkpt lat="48.70184" lon="1.75253">
        <ele>176</ele>
        <time>2014-06-21T09:42:49.000Z</time>
      </trkpt>
      <trkpt lat="48.70171" lon="1.75258">
        <ele>175.80000305176</ele>
        <time>2014-06-21T09:42:59.000Z</time>
      </trkpt>
      <trkpt lat="48.70163" lon="1.75258">
        <ele>175.80000305176</ele>
        <time>2014-06-21T09:43:07.000Z</time>
      </trkpt>
      <trkpt lat="48.70157" lon="1.75266">
        <ele>175.60000610352</ele>
        <time>2014-06-21T09:43:15.000Z</time>
      </trkpt>
      <trkpt lat="48.70153" lon="1.75268">
        <ele>175.60000610352</ele>
        <time>2014-06-21T09:43:18.000Z</time>
      </trkpt>
      <trkpt lat="48.70147" lon="1.75273">
        <ele>175.60000610352</ele>
        <time>2014-06-21T09:43:24.000Z</time>
      </trkpt>
      <trkpt lat="48.70139" lon="1.75276">
        <ele>175.39999389648</ele>
        <time>2014-06-21T09:43:31.000Z</time>
      </trkpt>
      <trkpt lat="48.7013" lon="1.7528">
        <ele>175</ele>
        <time>2014-06-21T09:43:38.000Z</time>
      </trkpt>
      <trkpt lat="48.70119" lon="1.75285">
        <ele>174.39999389648</ele>
        <time>2014-06-21T09:43:47.000Z</time>
      </trkpt>
      <trkpt lat="48.70112" lon="1.75288">
        <ele>174</ele>
        <time>2014-06-21T09:43:54.000Z</time>
      </trkpt>
      <trkpt lat="48.70103" lon="1.75292">
        <ele>173.60000610352</ele>
        <time>2014-06-21T09:44:02.000Z</time>
      </trkpt>
      <trkpt lat="48.70096" lon="1.75294">
        <ele>173.60000610352</ele>
        <time>2014-06-21T09:44:08.000Z</time>
      </trkpt>
      <trkpt lat="48.70087" lon="1.75298">
        <ele>173.39999389648</ele>
        <time>2014-06-21T09:44:14.000Z</time>
      </trkpt>
      <trkpt lat="48.70078" lon="1.75303">
        <ele>173.19999694824</ele>
        <time>2014-06-21T09:44:22.000Z</time>
      </trkpt>
      <trkpt lat="48.7007" lon="1.75306">
        <ele>173</ele>
        <time>2014-06-21T09:44:28.000Z</time>
      </trkpt>
      <trkpt lat="48.70059" lon="1.75311">
        <ele>172.80000305176</ele>
        <time>2014-06-21T09:44:35.000Z</time>
      </trkpt>
      <trkpt lat="48.70049" lon="1.75315">
        <ele>172.39999389648</ele>
        <time>2014-06-21T09:44:42.000Z</time>
      </trkpt>
      <trkpt lat="48.70042" lon="1.7532">
        <ele>172.19999694824</ele>
        <time>2014-06-21T09:44:49.000Z</time>
      </trkpt>
      <trkpt lat="48.7003" lon="1.75325">
        <ele>171.80000305176</ele>
        <time>2014-06-21T09:44:57.000Z</time>
      </trkpt>
      <trkpt lat="48.70021" lon="1.75329">
        <ele>171.60000610352</ele>
        <time>2014-06-21T09:45:05.000Z</time>
      </trkpt>
      <trkpt lat="48.70015" lon="1.75332">
        <ele>171.60000610352</ele>
        <time>2014-06-21T09:45:11.000Z</time>
      </trkpt>
      <trkpt lat="48.70003" lon="1.75338">
        <ele>171.39999389648</ele>
        <time>2014-06-21T09:45:19.000Z</time>
      </trkpt>
      <trkpt lat="48.69994" lon="1.75343">
        <ele>171.19999694824</ele>
        <time>2014-06-21T09:45:26.000Z</time>
      </trkpt>
      <trkpt lat="48.69987" lon="1.75347">
        <ele>171.19999694824</ele>
        <time>2014-06-21T09:45:35.000Z</time>
      </trkpt>
      <trkpt lat="48.69981" lon="1.75351">
        <ele>171</ele>
        <time>2014-06-21T09:45:40.000Z</time>
      </trkpt>
      <trkpt lat="48.6997" lon="1.75355">
        <ele>171</ele>
        <time>2014-06-21T09:45:48.000Z</time>
      </trkpt>
      <trkpt lat="48.69963" lon="1.75359">
        <ele>171.39999389648</ele>
        <time>2014-06-21T09:45:55.000Z</time>
      </trkpt>
      <trkpt lat="48.69955" lon="1.75366">
        <ele>171.60000610352</ele>
        <time>2014-06-21T09:46:01.000Z</time>
      </trkpt>
      <trkpt lat="48.69946" lon="1.75371">
        <ele>172</ele>
        <time>2014-06-21T09:46:08.000Z</time>
      </trkpt>
      <trkpt lat="48.69938" lon="1.75373">
        <ele>172.39999389648</ele>
        <time>2014-06-21T09:46:15.000Z</time>
      </trkpt>
      <trkpt lat="48.69928" lon="1.75377">
        <ele>172.19999694824</ele>
        <time>2014-06-21T09:46:23.000Z</time>
      </trkpt>
      <trkpt lat="48.69919" lon="1.7538">
        <ele>172</ele>
        <time>2014-06-21T09:46:30.000Z</time>
      </trkpt>
      <trkpt lat="48.6991" lon="1.75384">
        <ele>171.80000305176</ele>
        <time>2014-06-21T09:46:36.000Z</time>
      </trkpt>
      <trkpt lat="48.69901" lon="1.75388">
        <ele>171.60000610352</ele>
        <time>2014-06-21T09:46:44.000Z</time>
      </trkpt>
      <trkpt lat="48.69893" lon="1.75392">
        <ele>171.19999694824</ele>
        <time>2014-06-21T09:46:51.000Z</time>
      </trkpt>
      <trkpt lat="48.69884" lon="1.75392">
        <ele>171</ele>
        <time>2014-06-21T09:46:58.000Z</time>
      </trkpt>
      <trkpt lat="48.69877" lon="1.75395">
        <ele>170.80000305176</ele>
        <time>2014-06-21T09:47:04.000Z</time>
      </trkpt>
      <trkpt lat="48.69866" lon="1.75402">
        <ele>170.39999389648</ele>
        <time>2014-06-21T09:47:12.000Z</time>
      </trkpt>
      <trkpt lat="48.69858" lon="1.75407">
        <ele>170</ele>
        <time>2014-06-21T09:47:19.000Z</time>
      </trkpt>
      <trkpt lat="48.69851" lon="1.7541">
        <ele>169.80000305176</ele>
        <time>2014-06-21T09:47:25.000Z</time>
      </trkpt>
      <trkpt lat="48.69843" lon="1.75414">
        <ele>169.19999694824</ele>
        <time>2014-06-21T09:47:32.000Z</time>
      </trkpt>
      <trkpt lat="48.69833" lon="1.75419">
        <ele>168.80000305176</ele>
        <time>2014-06-21T09:47:40.000Z</time>
      </trkpt>
      <trkpt lat="48.69823" lon="1.75424">
        <ele>168.19999694824</ele>
        <time>2014-06-21T09:47:48.000Z</time>
      </trkpt>
      <trkpt lat="48.69819" lon="1.75425">
        <ele>168</ele>
        <time>2014-06-21T09:47:52.000Z</time>
      </trkpt>
      <trkpt lat="48.6981" lon="1.75431">
        <ele>167.39999389648</ele>
        <time>2014-06-21T09:48:00.000Z</time>
      </trkpt>
      <trkpt lat="48.69802" lon="1.75436">
        <ele>167</ele>
        <time>2014-06-21T09:48:06.000Z</time>
      </trkpt>
      <trkpt lat="48.6979" lon="1.75441">
        <ele>166.19999694824</ele>
        <time>2014-06-21T09:48:14.000Z</time>
      </trkpt>
      <trkpt lat="48.69784" lon="1.7544">
        <ele>166</ele>
        <time>2014-06-21T09:48:18.000Z</time>
      </trkpt>
      <trkpt lat="48.69774" lon="1.75445">
        <ele>165.19999694824</ele>
        <time>2014-06-21T09:48:26.000Z</time>
      </trkpt>
      <trkpt lat="48.69765" lon="1.7545">
        <ele>164.60000610352</ele>
        <time>2014-06-21T09:48:34.000Z</time>
      </trkpt>
      <trkpt lat="48.69759" lon="1.75453">
        <ele>164.19999694824</ele>
        <time>2014-06-21T09:48:38.000Z</time>
      </trkpt>
      <trkpt lat="48.69754" lon="1.75458">
        <ele>163.60000610352</ele>
        <time>2014-06-21T09:48:43.000Z</time>
      </trkpt>
      <trkpt lat="48.69749" lon="1.75461">
        <ele>163.19999694824</ele>
        <time>2014-06-21T09:48:47.000Z</time>
      </trkpt>
      <trkpt lat="48.69738" lon="1.75467">
        <ele>162.39999389648</ele>
        <time>2014-06-21T09:48:56.000Z</time>
      </trkpt>
      <trkpt lat="48.69727" lon="1.75473">
        <ele>161.60000610352</ele>
        <time>2014-06-21T09:49:04.000Z</time>
      </trkpt>
      <trkpt lat="48.69717" lon="1.75479">
        <ele>160.80000305176</ele>
        <time>2014-06-21T09:49:13.000Z</time>
      </trkpt>
      <trkpt lat="48.69708" lon="1.75482">
        <ele>160.19999694824</ele>
        <time>2014-06-21T09:49:20.000Z</time>
      </trkpt>
      <trkpt lat="48.69699" lon="1.75487">
        <ele>159.60000610352</ele>
        <time>2014-06-21T09:49:28.000Z</time>
      </trkpt>
      <trkpt lat="48.69691" lon="1.75491">
        <ele>159</ele>
        <time>2014-06-21T09:49:35.000Z</time>
      </trkpt>
      <trkpt lat="48.69676" lon="1.75497">
        <ele>158.39999389648</ele>
        <time>2014-06-21T09:49:47.000Z</time>
      </trkpt>
      <trkpt lat="48.69664" lon="1.75503">
        <ele>157.80000305176</ele>
        <time>2014-06-21T09:49:57.000Z</time>
      </trkpt>
      <trkpt lat="48.69654" lon="1.75506">
        <ele>157.39999389648</ele>
        <time>2014-06-21T09:50:05.000Z</time>
      </trkpt>
      <trkpt lat="48.69644" lon="1.75511">
        <ele>156.80000305176</ele>
        <time>2014-06-21T09:50:13.000Z</time>
      </trkpt>
      <trkpt lat="48.69632" lon="1.75515">
        <ele>156.39999389648</ele>
        <time>2014-06-21T09:50:23.000Z</time>
      </trkpt>
      <trkpt lat="48.69623" lon="1.75519">
        <ele>156.19999694824</ele>
        <time>2014-06-21T09:50:30.000Z</time>
      </trkpt>
      <trkpt lat="48.69615" lon="1.75522">
        <ele>156.19999694824</ele>
        <time>2014-06-21T09:50:37.000Z</time>
      </trkpt>
      <trkpt lat="48.69604" lon="1.75528">
        <ele>156</ele>
        <time>2014-06-21T09:50:45.000Z</time>
      </trkpt>
      <trkpt lat="48.69594" lon="1.75534">
        <ele>155.80000305176</ele>
        <time>2014-06-21T09:50:54.000Z</time>
      </trkpt>
      <trkpt lat="48.69585" lon="1.75541">
        <ele>155.60000610352</ele>
        <time>2014-06-21T09:51:02.000Z</time>
      </trkpt>
      <trkpt lat="48.69575" lon="1.75544">
        <ele>155.39999389648</ele>
        <time>2014-06-21T09:51:10.000Z</time>
      </trkpt>
      <trkpt lat="48.69566" lon="1.75546">
        <ele>155.39999389648</ele>
        <time>2014-06-21T09:51:17.000Z</time>
      </trkpt>
      <trkpt lat="48.69561" lon="1.75549">
        <ele>155.39999389648</ele>
        <time>2014-06-21T09:51:22.000Z</time>
      </trkpt>
      <trkpt lat="48.69557" lon="1.7555">
        <ele>155.60000610352</ele>
        <time>2014-06-21T09:51:25.000Z</time>
      </trkpt>
      <trkpt lat="48.69551" lon="1.75553">
        <ele>155.60000610352</ele>
        <time>2014-06-21T09:51:30.000Z</time>
      </trkpt>
      <trkpt lat="48.69543" lon="1.75555">
        <ele>155.60000610352</ele>
        <time>2014-06-21T09:51:36.000Z</time>
      </trkpt>
      <trkpt lat="48.69536" lon="1.7556">
        <ele>155.80000305176</ele>
        <time>2014-06-21T09:51:42.000Z</time>
      </trkpt>
      <trkpt lat="48.69526" lon="1.75564">
        <ele>155.80000305176</ele>
        <time>2014-06-21T09:51:50.000Z</time>
      </trkpt>
      <trkpt lat="48.69515" lon="1.7557">
        <ele>156.19999694824</ele>
        <time>2014-06-21T09:51:59.000Z</time>
      </trkpt>
      <trkpt lat="48.69503" lon="1.75577">
        <ele>156.80000305176</ele>
        <time>2014-06-21T09:52:09.000Z</time>
      </trkpt>
      <trkpt lat="48.69493" lon="1.75581">
        <ele>157.39999389648</ele>
        <time>2014-06-21T09:52:17.000Z</time>
      </trkpt>
      <trkpt lat="48.6949" lon="1.75582">
        <ele>157.60000610352</ele>
        <time>2014-06-21T09:52:19.000Z</time>
      </trkpt>
      <trkpt lat="48.6948" lon="1.75588">
        <ele>158.19999694824</ele>
        <time>2014-06-21T09:52:28.000Z</time>
      </trkpt>
      <trkpt lat="48.69471" lon="1.75593">
        <ele>158.80000305176</ele>
        <time>2014-06-21T09:52:36.000Z</time>
      </trkpt>
      <trkpt lat="48.69465" lon="1.75594">
        <ele>159</ele>
        <time>2014-06-21T09:52:41.000Z</time>
      </trkpt>
      <trkpt lat="48.69456" lon="1.75597">
        <ele>159.60000610352</ele>
        <time>2014-06-21T09:52:49.000Z</time>
      </trkpt>
      <trkpt lat="48.69451" lon="1.75599">
        <ele>159.80000305176</ele>
        <time>2014-06-21T09:52:54.000Z</time>
      </trkpt>
      <trkpt lat="48.69442" lon="1.75603">
        <ele>160.39999389648</ele>
        <time>2014-06-21T09:53:02.000Z</time>
      </trkpt>
      <trkpt lat="48.69436" lon="1.75602">
        <ele>160.60000610352</ele>
        <time>2014-06-21T09:53:07.000Z</time>
      </trkpt>
      <trkpt lat="48.69429" lon="1.75604">
        <ele>160.80000305176</ele>
        <time>2014-06-21T09:53:12.000Z</time>
      </trkpt>
      <trkpt lat="48.69417" lon="1.75604">
        <ele>161</ele>
        <time>2014-06-21T09:53:21.000Z</time>
      </trkpt>
      <trkpt lat="48.69407" lon="1.75605">
        <ele>161.39999389648</ele>
        <time>2014-06-21T09:53:29.000Z</time>
      </trkpt>
      <trkpt lat="48.694" lon="1.75603">
        <ele>161.39999389648</ele>
        <time>2014-06-21T09:53:35.000Z</time>
      </trkpt>
      <trkpt lat="48.69391" lon="1.756">
        <ele>161.60000610352</ele>
        <time>2014-06-21T09:53:42.000Z</time>
      </trkpt>
      <trkpt lat="48.69384" lon="1.75599">
        <ele>161.60000610352</ele>
        <time>2014-06-21T09:53:48.000Z</time>
      </trkpt>
      <trkpt lat="48.69374" lon="1.75596">
        <ele>161.60000610352</ele>
        <time>2014-06-21T09:53:56.000Z</time>
      </trkpt>
      <trkpt lat="48.69371" lon="1.75596">
        <ele>161.60000610352</ele>
        <time>2014-06-21T09:53:58.000Z</time>
      </trkpt>
      <trkpt lat="48.69365" lon="1.75597">
        <ele>161.60000610352</ele>
        <time>2014-06-21T09:54:04.000Z</time>
      </trkpt>
      <trkpt lat="48.69355" lon="1.75595">
        <ele>161.60000610352</ele>
        <time>2014-06-21T09:54:11.000Z</time>
      </trkpt>
      <trkpt lat="48.69347" lon="1.75592">
        <ele>161.19999694824</ele>
        <time>2014-06-21T09:54:18.000Z</time>
      </trkpt>
      <trkpt lat="48.69339" lon="1.75589">
        <ele>161</ele>
        <time>2014-06-21T09:54:24.000Z</time>
      </trkpt>
      <trkpt lat="48.69334" lon="1.75588">
        <ele>160.80000305176</ele>
        <time>2014-06-21T09:54:28.000Z</time>
      </trkpt>
      <trkpt lat="48.69333" lon="1.75584">
        <ele>160.60000610352</ele>
        <time>2014-06-21T09:54:31.000Z</time>
      </trkpt>
      <trkpt lat="48.69336" lon="1.75573">
        <ele>160.39999389648</ele>
        <time>2014-06-21T09:54:38.000Z</time>
      </trkpt>
      <trkpt lat="48.69339" lon="1.75564">
        <ele>160.39999389648</ele>
        <time>2014-06-21T09:54:43.000Z</time>
      </trkpt>
      <trkpt lat="48.6934" lon="1.75552">
        <ele>160.60000610352</ele>
        <time>2014-06-21T09:54:48.000Z</time>
      </trkpt>
      <trkpt lat="48.69343" lon="1.75536">
        <ele>160.60000610352</ele>
        <time>2014-06-21T09:54:55.000Z</time>
      </trkpt>
      <trkpt lat="48.69344" lon="1.75534">
        <ele>160.60000610352</ele>
        <time>2014-06-21T09:54:56.000Z</time>
      </trkpt>
      <trkpt lat="48.69349" lon="1.75517">
        <ele>160.80000305176</ele>
        <time>2014-06-21T09:55:05.000Z</time>
      </trkpt>
      <trkpt lat="48.69352" lon="1.75502">
        <ele>161</ele>
        <time>2014-06-21T09:55:09.000Z</time>
      </trkpt>
      <trkpt lat="48.69356" lon="1.7548">
        <ele>160.80000305176</ele>
        <time>2014-06-21T09:55:14.000Z</time>
      </trkpt>
      <trkpt lat="48.69361" lon="1.75453">
        <ele>160.80000305176</ele>
        <time>2014-06-21T09:55:19.000Z</time>
      </trkpt>
      <trkpt lat="48.69362" lon="1.75429">
        <ele>160.60000610352</ele>
        <time>2014-06-21T09:55:23.000Z</time>
      </trkpt>
      <trkpt lat="48.69366" lon="1.75394">
        <ele>160.39999389648</ele>
        <time>2014-06-21T09:55:29.000Z</time>
      </trkpt>
      <trkpt lat="48.69366" lon="1.75387">
        <ele>160.39999389648</ele>
        <time>2014-06-21T09:55:30.000Z</time>
      </trkpt>
      <trkpt lat="48.69375" lon="1.75363">
        <ele>160.39999389648</ele>
        <time>2014-06-21T09:55:36.000Z</time>
      </trkpt>
      <trkpt lat="48.6938" lon="1.75338">
        <ele>160.39999389648</ele>
        <time>2014-06-21T09:55:41.000Z</time>
      </trkpt>
      <trkpt lat="48.69389" lon="1.75305">
        <ele>160</ele>
        <time>2014-06-21T09:55:49.000Z</time>
      </trkpt>
      <trkpt lat="48.69397" lon="1.75272">
        <ele>160.39999389648</ele>
        <time>2014-06-21T09:55:56.000Z</time>
      </trkpt>
      <trkpt lat="48.69404" lon="1.75241">
        <ele>161.80000305176</ele>
        <time>2014-06-21T09:56:03.000Z</time>
      </trkpt>
      <trkpt lat="48.69411" lon="1.75202">
        <ele>162.19999694824</ele>
        <time>2014-06-21T09:56:11.000Z</time>
      </trkpt>
      <trkpt lat="48.69416" lon="1.75172">
        <ele>164</ele>
        <time>2014-06-21T09:56:17.000Z</time>
      </trkpt>
      <trkpt lat="48.69421" lon="1.75147">
        <ele>165</ele>
        <time>2014-06-21T09:56:22.000Z</time>
      </trkpt>
      <trkpt lat="48.69426" lon="1.7512">
        <ele>166</ele>
        <time>2014-06-21T09:56:28.000Z</time>
      </trkpt>
      <trkpt lat="48.69429" lon="1.75108">
        <ele>166.39999389648</ele>
        <time>2014-06-21T09:56:33.000Z</time>
      </trkpt>
      <trkpt lat="48.6943" lon="1.75094">
        <ele>167</ele>
        <time>2014-06-21T09:56:39.000Z</time>
      </trkpt>
      <trkpt lat="48.69435" lon="1.75081">
        <ele>167.60000610352</ele>
        <time>2014-06-21T09:56:46.000Z</time>
      </trkpt>
      <trkpt lat="48.69443" lon="1.75068">
        <ele>167.80000305176</ele>
        <time>2014-06-21T09:56:54.000Z</time>
      </trkpt>
      <trkpt lat="48.69453" lon="1.75056">
        <ele>167.60000610352</ele>
        <time>2014-06-21T09:57:03.000Z</time>
      </trkpt>
      <trkpt lat="48.6946" lon="1.75051">
        <ele>167.39999389648</ele>
        <time>2014-06-21T09:57:09.000Z</time>
      </trkpt>
      <trkpt lat="48.6947" lon="1.75047">
        <ele>167.19999694824</ele>
        <time>2014-06-21T09:57:15.000Z</time>
      </trkpt>
      <trkpt lat="48.69479" lon="1.75045">
        <ele>167</ele>
        <time>2014-06-21T09:57:21.000Z</time>
      </trkpt>
      <trkpt lat="48.69487" lon="1.75041">
        <ele>166.80000305176</ele>
        <time>2014-06-21T09:57:27.000Z</time>
      </trkpt>
      <trkpt lat="48.69496" lon="1.75037">
        <ele>166.80000305176</ele>
        <time>2014-06-21T09:57:33.000Z</time>
      </trkpt>
      <trkpt lat="48.69507" lon="1.75028">
        <ele>167</ele>
        <time>2014-06-21T09:57:40.000Z</time>
      </trkpt>
      <trkpt lat="48.69519" lon="1.75024">
        <ele>167.19999694824</ele>
        <time>2014-06-21T09:57:47.000Z</time>
      </trkpt>
      <trkpt lat="48.69532" lon="1.75018">
        <ele>166.19999694824</ele>
        <time>2014-06-21T09:57:55.000Z</time>
      </trkpt>
      <trkpt lat="48.69545" lon="1.7501">
        <ele>165.19999694824</ele>
        <time>2014-06-21T09:58:03.000Z</time>
      </trkpt>
      <trkpt lat="48.69559" lon="1.75006">
        <ele>163.80000305176</ele>
        <time>2014-06-21T09:58:11.000Z</time>
      </trkpt>
      <trkpt lat="48.69572" lon="1.74997">
        <ele>162.39999389648</ele>
        <time>2014-06-21T09:58:20.000Z</time>
      </trkpt>
      <trkpt lat="48.69583" lon="1.74992">
        <ele>161.19999694824</ele>
        <time>2014-06-21T09:58:27.000Z</time>
      </trkpt>
      <trkpt lat="48.69595" lon="1.74988">
        <ele>159.80000305176</ele>
        <time>2014-06-21T09:58:34.000Z</time>
      </trkpt>
      <trkpt lat="48.69609" lon="1.74982">
        <ele>159.19999694824</ele>
        <time>2014-06-21T09:58:42.000Z</time>
      </trkpt>
      <trkpt lat="48.6962" lon="1.74975">
        <ele>159.39999389648</ele>
        <time>2014-06-21T09:58:49.000Z</time>
      </trkpt>
      <trkpt lat="48.69633" lon="1.7497">
        <ele>159.80000305176</ele>
        <time>2014-06-21T09:58:57.000Z</time>
      </trkpt>
      <trkpt lat="48.69647" lon="1.74964">
        <ele>160.19999694824</ele>
        <time>2014-06-21T09:59:06.000Z</time>
      </trkpt>
      <trkpt lat="48.69656" lon="1.74959">
        <ele>160.60000610352</ele>
        <time>2014-06-21T09:59:13.000Z</time>
      </trkpt>
      <trkpt lat="48.69662" lon="1.74955">
        <ele>160.80000305176</ele>
        <time>2014-06-21T09:59:17.000Z</time>
      </trkpt>
      <trkpt lat="48.69672" lon="1.74951">
        <ele>161.19999694824</ele>
        <time>2014-06-21T09:59:24.000Z</time>
      </trkpt>
      <trkpt lat="48.69681" lon="1.74946">
        <ele>161.80000305176</ele>
        <time>2014-06-21T09:59:30.000Z</time>
      </trkpt>
      <trkpt lat="48.69688" lon="1.74943">
        <ele>162</ele>
        <time>2014-06-21T09:59:35.000Z</time>
      </trkpt>
      <trkpt lat="48.69696" lon="1.74939">
        <ele>162.39999389648</ele>
        <time>2014-06-21T09:59:41.000Z</time>
      </trkpt>
      <trkpt lat="48.69705" lon="1.74934">
        <ele>162.80000305176</ele>
        <time>2014-06-21T09:59:48.000Z</time>
      </trkpt>
      <trkpt lat="48.6972" lon="1.74928">
        <ele>163.60000610352</ele>
        <time>2014-06-21T09:59:57.000Z</time>
      </trkpt>
      <trkpt lat="48.69722" lon="1.74926">
        <ele>163.80000305176</ele>
        <time>2014-06-21T09:59:59.000Z</time>
      </trkpt>
      <trkpt lat="48.69728" lon="1.74925">
        <ele>164</ele>
        <time>2014-06-21T10:00:03.000Z</time>
      </trkpt>
      <trkpt lat="48.69742" lon="1.74917">
        <ele>164.60000610352</ele>
        <time>2014-06-21T10:00:12.000Z</time>
      </trkpt>
      <trkpt lat="48.69754" lon="1.74911">
        <ele>165.19999694824</ele>
        <time>2014-06-21T10:00:20.000Z</time>
      </trkpt>
      <trkpt lat="48.69766" lon="1.74906">
        <ele>165.80000305176</ele>
        <time>2014-06-21T10:00:27.000Z</time>
      </trkpt>
      <trkpt lat="48.69785" lon="1.74898">
        <ele>166</ele>
        <time>2014-06-21T10:00:34.000Z</time>
      </trkpt>
      <trkpt lat="48.69794" lon="1.74894">
        <ele>166.19999694824</ele>
        <time>2014-06-21T10:00:40.000Z</time>
      </trkpt>
      <trkpt lat="48.69808" lon="1.74885">
        <ele>166.19999694824</ele>
        <time>2014-06-21T10:00:50.000Z</time>
      </trkpt>
      <trkpt lat="48.6982" lon="1.74877">
        <ele>166.19999694824</ele>
        <time>2014-06-21T10:00:59.000Z</time>
      </trkpt>
      <trkpt lat="48.69831" lon="1.74873">
        <ele>166.80000305176</ele>
        <time>2014-06-21T10:01:06.000Z</time>
      </trkpt>
      <trkpt lat="48.69842" lon="1.74868">
        <ele>167.80000305176</ele>
        <time>2014-06-21T10:01:12.000Z</time>
      </trkpt>
      <trkpt lat="48.69852" lon="1.74864">
        <ele>168.80000305176</ele>
        <time>2014-06-21T10:01:19.000Z</time>
      </trkpt>
      <trkpt lat="48.69862" lon="1.7486">
        <ele>169.60000610352</ele>
        <time>2014-06-21T10:01:26.000Z</time>
      </trkpt>
      <trkpt lat="48.69873" lon="1.74854">
        <ele>170.60000610352</ele>
        <time>2014-06-21T10:01:33.000Z</time>
      </trkpt>
      <trkpt lat="48.69879" lon="1.74852">
        <ele>171</ele>
        <time>2014-06-21T10:01:38.000Z</time>
      </trkpt>
      <trkpt lat="48.69886" lon="1.74851">
        <ele>171.39999389648</ele>
        <time>2014-06-21T10:01:43.000Z</time>
      </trkpt>
      <trkpt lat="48.69899" lon="1.74842">
        <ele>171</ele>
        <time>2014-06-21T10:01:52.000Z</time>
      </trkpt>
      <trkpt lat="48.69908" lon="1.74837">
        <ele>170.80000305176</ele>
        <time>2014-06-21T10:01:58.000Z</time>
      </trkpt>
      <trkpt lat="48.69913" lon="1.74835">
        <ele>170.60000610352</ele>
        <time>2014-06-21T10:02:02.000Z</time>
      </trkpt>
      <trkpt lat="48.69923" lon="1.74832">
        <ele>170.39999389648</ele>
        <time>2014-06-21T10:02:08.000Z</time>
      </trkpt>
      <trkpt lat="48.69936" lon="1.74826">
        <ele>170.19999694824</ele>
        <time>2014-06-21T10:02:16.000Z</time>
      </trkpt>
      <trkpt lat="48.69946" lon="1.74823">
        <ele>170.19999694824</ele>
        <time>2014-06-21T10:02:22.000Z</time>
      </trkpt>
      <trkpt lat="48.69956" lon="1.74818">
        <ele>170.39999389648</ele>
        <time>2014-06-21T10:02:29.000Z</time>
      </trkpt>
      <trkpt lat="48.69965" lon="1.74816">
        <ele>170.39999389648</ele>
        <time>2014-06-21T10:02:34.000Z</time>
      </trkpt>
      <trkpt lat="48.69981" lon="1.74808">
        <ele>170.80000305176</ele>
        <time>2014-06-21T10:02:44.000Z</time>
      </trkpt>
      <trkpt lat="48.69995" lon="1.74802">
        <ele>171.19999694824</ele>
        <time>2014-06-21T10:02:53.000Z</time>
      </trkpt>
      <trkpt lat="48.70009" lon="1.74793">
        <ele>170.60000610352</ele>
        <time>2014-06-21T10:03:02.000Z</time>
      </trkpt>
      <trkpt lat="48.7002" lon="1.74786">
        <ele>169.80000305176</ele>
        <time>2014-06-21T10:03:10.000Z</time>
      </trkpt>
      <trkpt lat="48.70035" lon="1.74779">
        <ele>170</ele>
        <time>2014-06-21T10:03:20.000Z</time>
      </trkpt>
      <trkpt lat="48.70046" lon="1.74774">
        <ele>170.19999694824</ele>
        <time>2014-06-21T10:03:27.000Z</time>
      </trkpt>
      <trkpt lat="48.70054" lon="1.74772">
        <ele>170.39999389648</ele>
        <time>2014-06-21T10:03:33.000Z</time>
      </trkpt>
      <trkpt lat="48.70062" lon="1.74768">
        <ele>171</ele>
        <time>2014-06-21T10:03:39.000Z</time>
      </trkpt>
      <trkpt lat="48.7007" lon="1.74767">
        <ele>171.60000610352</ele>
        <time>2014-06-21T10:03:44.000Z</time>
      </trkpt>
      <trkpt lat="48.70081" lon="1.74762">
        <ele>172.39999389648</ele>
        <time>2014-06-21T10:03:51.000Z</time>
      </trkpt>
      <trkpt lat="48.70094" lon="1.74755">
        <ele>173.39999389648</ele>
        <time>2014-06-21T10:04:00.000Z</time>
      </trkpt>
      <trkpt lat="48.70102" lon="1.74749">
        <ele>173.80000305176</ele>
        <time>2014-06-21T10:04:06.000Z</time>
      </trkpt>
      <trkpt lat="48.70113" lon="1.74744">
        <ele>174.19999694824</ele>
        <time>2014-06-21T10:04:13.000Z</time>
      </trkpt>
      <trkpt lat="48.70114" lon="1.74743">
        <ele>174.39999389648</ele>
        <time>2014-06-21T10:04:14.000Z</time>
      </trkpt>
      <trkpt lat="48.70118" lon="1.74741">
        <ele>174.39999389648</ele>
        <time>2014-06-21T10:04:19.000Z</time>
      </trkpt>
      <trkpt lat="48.70127" lon="1.74738">
        <ele>174.80000305176</ele>
        <time>2014-06-21T10:04:27.000Z</time>
      </trkpt>
      <trkpt lat="48.7013" lon="1.74736">
        <ele>175</ele>
        <time>2014-06-21T10:04:29.000Z</time>
      </trkpt>
      <trkpt lat="48.70144" lon="1.74731">
        <ele>175.39999389648</ele>
        <time>2014-06-21T10:04:38.000Z</time>
      </trkpt>
      <trkpt lat="48.70153" lon="1.74728">
        <ele>175.60000610352</ele>
        <time>2014-06-21T10:04:44.000Z</time>
      </trkpt>
      <trkpt lat="48.70158" lon="1.74725">
        <ele>175.80000305176</ele>
        <time>2014-06-21T10:04:49.000Z</time>
      </trkpt>
      <trkpt lat="48.70166" lon="1.74721">
        <ele>176</ele>
        <time>2014-06-21T10:04:54.000Z</time>
      </trkpt>
      <trkpt lat="48.70179" lon="1.7471">
        <ele>175.80000305176</ele>
        <time>2014-06-21T10:05:02.000Z</time>
      </trkpt>
      <trkpt lat="48.70184" lon="1.74708">
        <ele>175.60000610352</ele>
        <time>2014-06-21T10:05:07.000Z</time>
      </trkpt>
      <trkpt lat="48.7019" lon="1.74704">
        <ele>175.19999694824</ele>
        <time>2014-06-21T10:05:12.000Z</time>
      </trkpt>
      <trkpt lat="48.702" lon="1.74704">
        <ele>174.39999389648</ele>
        <time>2014-06-21T10:05:18.000Z</time>
      </trkpt>
      <trkpt lat="48.7021" lon="1.74699">
        <ele>173.39999389648</ele>
        <time>2014-06-21T10:05:23.000Z</time>
      </trkpt>
      <trkpt lat="48.70222" lon="1.74693">
        <ele>172.39999389648</ele>
        <time>2014-06-21T10:05:30.000Z</time>
      </trkpt>
      <trkpt lat="48.70231" lon="1.74688">
        <ele>171.60000610352</ele>
        <time>2014-06-21T10:05:36.000Z</time>
      </trkpt>
      <trkpt lat="48.70242" lon="1.74685">
        <ele>170.80000305176</ele>
        <time>2014-06-21T10:05:42.000Z</time>
      </trkpt>
      <trkpt lat="48.70248" lon="1.74681">
        <ele>170.19999694824</ele>
        <time>2014-06-21T10:05:48.000Z</time>
      </trkpt>
      <trkpt lat="48.70257" lon="1.74677">
        <ele>169.60000610352</ele>
        <time>2014-06-21T10:05:55.000Z</time>
      </trkpt>
      <trkpt lat="48.70267" lon="1.74674">
        <ele>169</ele>
        <time>2014-06-21T10:06:02.000Z</time>
      </trkpt>
      <trkpt lat="48.70274" lon="1.74669">
        <ele>168.39999389648</ele>
        <time>2014-06-21T10:06:07.000Z</time>
      </trkpt>
      <trkpt lat="48.70286" lon="1.74664">
        <ele>168</ele>
        <time>2014-06-21T10:06:15.000Z</time>
      </trkpt>
      <trkpt lat="48.70297" lon="1.74658">
        <ele>168.19999694824</ele>
        <time>2014-06-21T10:06:22.000Z</time>
      </trkpt>
      <trkpt lat="48.70307" lon="1.74651">
        <ele>168.39999389648</ele>
        <time>2014-06-21T10:06:29.000Z</time>
      </trkpt>
      <trkpt lat="48.70314" lon="1.74648">
        <ele>168.60000610352</ele>
        <time>2014-06-21T10:06:33.000Z</time>
      </trkpt>
      <trkpt lat="48.70325" lon="1.74647">
        <ele>168.80000305176</ele>
        <time>2014-06-21T10:06:40.000Z</time>
      </trkpt>
      <trkpt lat="48.70336" lon="1.74641">
        <ele>169</ele>
        <time>2014-06-21T10:06:47.000Z</time>
      </trkpt>
      <trkpt lat="48.70346" lon="1.74636">
        <ele>169.39999389648</ele>
        <time>2014-06-21T10:06:54.000Z</time>
      </trkpt>
      <trkpt lat="48.70357" lon="1.74631">
        <ele>170.19999694824</ele>
        <time>2014-06-21T10:07:01.000Z</time>
      </trkpt>
      <trkpt lat="48.70372" lon="1.74625">
        <ele>171.80000305176</ele>
        <time>2014-06-21T10:07:11.000Z</time>
      </trkpt>
      <trkpt lat="48.70382" lon="1.7462">
        <ele>173</ele>
        <time>2014-06-21T10:07:18.000Z</time>
      </trkpt>
      <trkpt lat="48.70391" lon="1.74615">
        <ele>174</ele>
        <time>2014-06-21T10:07:24.000Z</time>
      </trkpt>
      <trkpt lat="48.70398" lon="1.74612">
        <ele>174.80000305176</ele>
        <time>2014-06-21T10:07:30.000Z</time>
      </trkpt>
      <trkpt lat="48.704" lon="1.74611">
        <ele>174.80000305176</ele>
        <time>2014-06-21T10:07:33.000Z</time>
      </trkpt>
      <trkpt lat="48.70415" lon="1.74603">
        <ele>176</ele>
        <time>2014-06-21T10:07:52.000Z</time>
      </trkpt>
      <trkpt lat="48.70424" lon="1.74598">
        <ele>176.80000305176</ele>
        <time>2014-06-21T10:07:58.000Z</time>
      </trkpt>
      <trkpt lat="48.70435" lon="1.74593">
        <ele>177.60000610352</ele>
        <time>2014-06-21T10:08:06.000Z</time>
      </trkpt>
      <trkpt lat="48.70445" lon="1.74588">
        <ele>178.19999694824</ele>
        <time>2014-06-21T10:08:13.000Z</time>
      </trkpt>
      <trkpt lat="48.70454" lon="1.74583">
        <ele>178.60000610352</ele>
        <time>2014-06-21T10:08:20.000Z</time>
      </trkpt>
      <trkpt lat="48.70457" lon="1.74581">
        <ele>178.80000305176</ele>
        <time>2014-06-21T10:08:22.000Z</time>
      </trkpt>
      <trkpt lat="48.70462" lon="1.74577">
        <ele>179.19999694824</ele>
        <time>2014-06-21T10:08:26.000Z</time>
      </trkpt>
      <trkpt lat="48.70467" lon="1.74576">
        <ele>179.39999389648</ele>
        <time>2014-06-21T10:08:31.000Z</time>
      </trkpt>
      <trkpt lat="48.70475" lon="1.74573">
        <ele>179.80000305176</ele>
        <time>2014-06-21T10:08:38.000Z</time>
      </trkpt>
      <trkpt lat="48.70484" lon="1.74562">
        <ele>180.19999694824</ele>
        <time>2014-06-21T10:08:47.000Z</time>
      </trkpt>
      <trkpt lat="48.70485" lon="1.74557">
        <ele>180.39999389648</ele>
        <time>2014-06-21T10:08:49.000Z</time>
      </trkpt>
      <trkpt lat="48.70488" lon="1.74546">
        <ele>180.39999389648</ele>
        <time>2014-06-21T10:08:53.000Z</time>
      </trkpt>
      <trkpt lat="48.70492" lon="1.74536">
        <ele>180.60000610352</ele>
        <time>2014-06-21T10:09:00.000Z</time>
      </trkpt>
      <trkpt lat="48.70492" lon="1.74533">
        <ele>180.60000610352</ele>
        <time>2014-06-21T10:09:02.000Z</time>
      </trkpt>
      <trkpt lat="48.70493" lon="1.74523">
        <ele>180.60000610352</ele>
        <time>2014-06-21T10:09:08.000Z</time>
      </trkpt>
      <trkpt lat="48.70492" lon="1.74508">
        <ele>180.60000610352</ele>
        <time>2014-06-21T10:09:14.000Z</time>
      </trkpt>
      <trkpt lat="48.7049" lon="1.74498">
        <ele>180.60000610352</ele>
        <time>2014-06-21T10:09:19.000Z</time>
      </trkpt>
      <trkpt lat="48.70491" lon="1.74494">
        <ele>180.60000610352</ele>
        <time>2014-06-21T10:09:22.000Z</time>
      </trkpt>
      <trkpt lat="48.70491" lon="1.74479">
        <ele>180.39999389648</ele>
        <time>2014-06-21T10:09:29.000Z</time>
      </trkpt>
      <trkpt lat="48.70492" lon="1.7447">
        <ele>180.19999694824</ele>
        <time>2014-06-21T10:09:33.000Z</time>
      </trkpt>
      <trkpt lat="48.70491" lon="1.74466">
        <ele>180</ele>
        <time>2014-06-21T10:09:34.000Z</time>
      </trkpt>
      <trkpt lat="48.70492" lon="1.7446">
        <ele>180</ele>
        <time>2014-06-21T10:09:37.000Z</time>
      </trkpt>
      <trkpt lat="48.70492" lon="1.74441">
        <ele>179.80000305176</ele>
        <time>2014-06-21T10:09:44.000Z</time>
      </trkpt>
      <trkpt lat="48.70491" lon="1.74424">
        <ele>179.60000610352</ele>
        <time>2014-06-21T10:09:50.000Z</time>
      </trkpt>
      <trkpt lat="48.7049" lon="1.74406">
        <ele>179.19999694824</ele>
        <time>2014-06-21T10:09:54.000Z</time>
      </trkpt>
      <trkpt lat="48.70487" lon="1.7438">
        <ele>179.60000610352</ele>
        <time>2014-06-21T10:09:59.000Z</time>
      </trkpt>
      <trkpt lat="48.70488" lon="1.74355">
        <ele>179.39999389648</ele>
        <time>2014-06-21T10:10:06.000Z</time>
      </trkpt>
      <trkpt lat="48.70488" lon="1.74339">
        <ele>179</ele>
        <time>2014-06-21T10:10:12.000Z</time>
      </trkpt>
      <trkpt lat="48.70489" lon="1.74333">
        <ele>179</ele>
        <time>2014-06-21T10:10:16.000Z</time>
      </trkpt>
      <trkpt lat="48.70488" lon="1.74313">
        <ele>178.80000305176</ele>
        <time>2014-06-21T10:10:24.000Z</time>
      </trkpt>
      <trkpt lat="48.70488" lon="1.74296">
        <ele>179</ele>
        <time>2014-06-21T10:10:31.000Z</time>
      </trkpt>
      <trkpt lat="48.7049" lon="1.74278">
        <ele>178.80000305176</ele>
        <time>2014-06-21T10:10:38.000Z</time>
      </trkpt>
      <trkpt lat="48.70491" lon="1.74265">
        <ele>178.60000610352</ele>
        <time>2014-06-21T10:10:43.000Z</time>
      </trkpt>
      <trkpt lat="48.70492" lon="1.7425">
        <ele>178.39999389648</ele>
        <time>2014-06-21T10:10:48.000Z</time>
      </trkpt>
      <trkpt lat="48.70494" lon="1.74245">
        <ele>178.39999389648</ele>
        <time>2014-06-21T10:10:51.000Z</time>
      </trkpt>
      <trkpt lat="48.70495" lon="1.74233">
        <ele>178.19999694824</ele>
        <time>2014-06-21T10:10:56.000Z</time>
      </trkpt>
      <trkpt lat="48.70494" lon="1.74227">
        <ele>178.19999694824</ele>
        <time>2014-06-21T10:10:58.000Z</time>
      </trkpt>
      <trkpt lat="48.70492" lon="1.74221">
        <ele>178.19999694824</ele>
        <time>2014-06-21T10:11:04.000Z</time>
      </trkpt>
      <trkpt lat="48.70488" lon="1.74212">
        <ele>178</ele>
        <time>2014-06-21T10:11:10.000Z</time>
      </trkpt>
      <trkpt lat="48.70484" lon="1.742">
        <ele>178</ele>
        <time>2014-06-21T10:11:16.000Z</time>
      </trkpt>
      <trkpt lat="48.70478" lon="1.74189">
        <ele>178</ele>
        <time>2014-06-21T10:11:23.000Z</time>
      </trkpt>
      <trkpt lat="48.70474" lon="1.74177">
        <ele>178</ele>
        <time>2014-06-21T10:11:28.000Z</time>
      </trkpt>
      <trkpt lat="48.7047" lon="1.74173">
        <ele>178</ele>
        <time>2014-06-21T10:11:32.000Z</time>
      </trkpt>
      <trkpt lat="48.70464" lon="1.74167">
        <ele>178</ele>
        <time>2014-06-21T10:11:39.000Z</time>
      </trkpt>
      <trkpt lat="48.70461" lon="1.74163">
        <ele>178</ele>
        <time>2014-06-21T10:11:41.000Z</time>
      </trkpt>
      <trkpt lat="48.70454" lon="1.74149">
        <ele>178</ele>
        <time>2014-06-21T10:11:47.000Z</time>
      </trkpt>
      <trkpt lat="48.70448" lon="1.74141">
        <ele>178</ele>
        <time>2014-06-21T10:11:53.000Z</time>
      </trkpt>
      <trkpt lat="48.70445" lon="1.7414">
        <ele>178</ele>
        <time>2014-06-21T10:11:55.000Z</time>
      </trkpt>
      <trkpt lat="48.7044" lon="1.74136">
        <ele>178</ele>
        <time>2014-06-21T10:11:59.000Z</time>
      </trkpt>
      <trkpt lat="48.70436" lon="1.74133">
        <ele>178</ele>
        <time>2014-06-21T10:12:02.000Z</time>
      </trkpt>
      <trkpt lat="48.7043" lon="1.74128">
        <ele>178.19999694824</ele>
        <time>2014-06-21T10:12:08.000Z</time>
      </trkpt>
      <trkpt lat="48.70428" lon="1.74126">
        <ele>178.19999694824</ele>
        <time>2014-06-21T10:12:10.000Z</time>
      </trkpt>
      <trkpt lat="48.70417" lon="1.74117">
        <ele>178.39999389648</ele>
        <time>2014-06-21T10:12:17.000Z</time>
      </trkpt>
      <trkpt lat="48.70409" lon="1.74104">
        <ele>178.60000610352</ele>
        <time>2014-06-21T10:12:26.000Z</time>
      </trkpt>
      <trkpt lat="48.70401" lon="1.74098">
        <ele>178.80000305176</ele>
        <time>2014-06-21T10:12:32.000Z</time>
      </trkpt>
      <trkpt lat="48.70393" lon="1.7409">
        <ele>179</ele>
        <time>2014-06-21T10:12:40.000Z</time>
      </trkpt>
      <trkpt lat="48.70386" lon="1.74081">
        <ele>179.19999694824</ele>
        <time>2014-06-21T10:12:46.000Z</time>
      </trkpt>
      <trkpt lat="48.70379" lon="1.74075">
        <ele>179.39999389648</ele>
        <time>2014-06-21T10:12:51.000Z</time>
      </trkpt>
      <trkpt lat="48.70378" lon="1.74074">
        <ele>179.39999389648</ele>
        <time>2014-06-21T10:12:52.000Z</time>
      </trkpt>
      <trkpt lat="48.70374" lon="1.74069">
        <ele>179.60000610352</ele>
        <time>2014-06-21T10:12:57.000Z</time>
      </trkpt>
      <trkpt lat="48.70366" lon="1.74058">
        <ele>179.80000305176</ele>
        <time>2014-06-21T10:13:04.000Z</time>
      </trkpt>
      <trkpt lat="48.70358" lon="1.74046">
        <ele>179.80000305176</ele>
        <time>2014-06-21T10:13:12.000Z</time>
      </trkpt>
      <trkpt lat="48.70353" lon="1.74042">
        <ele>180</ele>
        <time>2014-06-21T10:13:16.000Z</time>
      </trkpt>
      <trkpt lat="48.70346" lon="1.74039">
        <ele>180</ele>
        <time>2014-06-21T10:13:22.000Z</time>
      </trkpt>
      <trkpt lat="48.70338" lon="1.7403">
        <ele>180.19999694824</ele>
        <time>2014-06-21T10:13:28.000Z</time>
      </trkpt>
      <trkpt lat="48.70336" lon="1.74028">
        <ele>180.19999694824</ele>
        <time>2014-06-21T10:13:29.000Z</time>
      </trkpt>
      <trkpt lat="48.70329" lon="1.74018">
        <ele>180.19999694824</ele>
        <time>2014-06-21T10:13:35.000Z</time>
      </trkpt>
      <trkpt lat="48.70323" lon="1.74013">
        <ele>180.39999389648</ele>
        <time>2014-06-21T10:13:41.000Z</time>
      </trkpt>
      <trkpt lat="48.70314" lon="1.74006">
        <ele>180.39999389648</ele>
        <time>2014-06-21T10:13:48.000Z</time>
      </trkpt>
      <trkpt lat="48.70311" lon="1.74002">
        <ele>180.60000610352</ele>
        <time>2014-06-21T10:13:51.000Z</time>
      </trkpt>
      <trkpt lat="48.70308" lon="1.74">
        <ele>180.60000610352</ele>
        <time>2014-06-21T10:13:53.000Z</time>
      </trkpt>
      <trkpt lat="48.703" lon="1.73991">
        <ele>180.60000610352</ele>
        <time>2014-06-21T10:14:00.000Z</time>
      </trkpt>
      <trkpt lat="48.70296" lon="1.73984">
        <ele>180.60000610352</ele>
        <time>2014-06-21T10:14:03.000Z</time>
      </trkpt>
      <trkpt lat="48.70289" lon="1.73971">
        <ele>180.19999694824</ele>
        <time>2014-06-21T10:14:11.000Z</time>
      </trkpt>
      <trkpt lat="48.70284" lon="1.73961">
        <ele>180</ele>
        <time>2014-06-21T10:14:19.000Z</time>
      </trkpt>
      <trkpt lat="48.70279" lon="1.73952">
        <ele>179.60000610352</ele>
        <time>2014-06-21T10:14:25.000Z</time>
      </trkpt>
      <trkpt lat="48.70274" lon="1.73945">
        <ele>179.39999389648</ele>
        <time>2014-06-21T10:14:29.000Z</time>
      </trkpt>
      <trkpt lat="48.70268" lon="1.73937">
        <ele>179.19999694824</ele>
        <time>2014-06-21T10:14:36.000Z</time>
      </trkpt>
      <trkpt lat="48.70267" lon="1.73935">
        <ele>179.19999694824</ele>
        <time>2014-06-21T10:14:37.000Z</time>
      </trkpt>
      <trkpt lat="48.7026" lon="1.73921">
        <ele>178.60000610352</ele>
        <time>2014-06-21T10:14:45.000Z</time>
      </trkpt>
      <trkpt lat="48.70253" lon="1.73913">
        <ele>178.39999389648</ele>
        <time>2014-06-21T10:14:52.000Z</time>
      </trkpt>
      <trkpt lat="48.70245" lon="1.73904">
        <ele>178</ele>
        <time>2014-06-21T10:15:00.000Z</time>
      </trkpt>
      <trkpt lat="48.70239" lon="1.73898">
        <ele>178</ele>
        <time>2014-06-21T10:15:06.000Z</time>
      </trkpt>
      <trkpt lat="48.70236" lon="1.73894">
        <ele>178</ele>
        <time>2014-06-21T10:15:10.000Z</time>
      </trkpt>
      <trkpt lat="48.70225" lon="1.73886">
        <ele>178</ele>
        <time>2014-06-21T10:15:19.000Z</time>
      </trkpt>
      <trkpt lat="48.70215" lon="1.73878">
        <ele>178</ele>
        <time>2014-06-21T10:15:26.000Z</time>
      </trkpt>
      <trkpt lat="48.70207" lon="1.73869">
        <ele>178</ele>
        <time>2014-06-21T10:15:32.000Z</time>
      </trkpt>
      <trkpt lat="48.70196" lon="1.73861">
        <ele>178</ele>
        <time>2014-06-21T10:15:41.000Z</time>
      </trkpt>
      <trkpt lat="48.70188" lon="1.73853">
        <ele>178</ele>
        <time>2014-06-21T10:15:48.000Z</time>
      </trkpt>
      <trkpt lat="48.70175" lon="1.73836">
        <ele>178</ele>
        <time>2014-06-21T10:15:59.000Z</time>
      </trkpt>
      <trkpt lat="48.70171" lon="1.73829">
        <ele>178</ele>
        <time>2014-06-21T10:16:04.000Z</time>
      </trkpt>
      <trkpt lat="48.70163" lon="1.73818">
        <ele>178</ele>
        <time>2014-06-21T10:16:12.000Z</time>
      </trkpt>
      <trkpt lat="48.70159" lon="1.73811">
        <ele>178</ele>
        <time>2014-06-21T10:16:16.000Z</time>
      </trkpt>
      <trkpt lat="48.70151" lon="1.73802">
        <ele>178</ele>
        <time>2014-06-21T10:16:23.000Z</time>
      </trkpt>
      <trkpt lat="48.70148" lon="1.738">
        <ele>178</ele>
        <time>2014-06-21T10:16:25.000Z</time>
      </trkpt>
      <trkpt lat="48.70141" lon="1.73796">
        <ele>178</ele>
        <time>2014-06-21T10:16:30.000Z</time>
      </trkpt>
      <trkpt lat="48.70137" lon="1.73794">
        <ele>178</ele>
        <time>2014-06-21T10:16:33.000Z</time>
      </trkpt>
      <trkpt lat="48.70129" lon="1.73786">
        <ele>178</ele>
        <time>2014-06-21T10:16:40.000Z</time>
      </trkpt>
      <trkpt lat="48.70127" lon="1.73783">
        <ele>178</ele>
        <time>2014-06-21T10:16:42.000Z</time>
      </trkpt>
      <trkpt lat="48.70115" lon="1.73769">
        <ele>178</ele>
        <time>2014-06-21T10:16:52.000Z</time>
      </trkpt>
      <trkpt lat="48.70106" lon="1.73758">
        <ele>178</ele>
        <time>2014-06-21T10:17:00.000Z</time>
      </trkpt>
      <trkpt lat="48.70096" lon="1.73747">
        <ele>178</ele>
        <time>2014-06-21T10:17:07.000Z</time>
      </trkpt>
      <trkpt lat="48.70085" lon="1.7374">
        <ele>178</ele>
        <time>2014-06-21T10:17:15.000Z</time>
      </trkpt>
      <trkpt lat="48.70077" lon="1.73735">
        <ele>178</ele>
        <time>2014-06-21T10:17:22.000Z</time>
      </trkpt>
      <trkpt lat="48.70067" lon="1.73731">
        <ele>178</ele>
        <time>2014-06-21T10:17:30.000Z</time>
      </trkpt>
      <trkpt lat="48.70054" lon="1.73728">
        <ele>178.19999694824</ele>
        <time>2014-06-21T10:17:37.000Z</time>
      </trkpt>
      <trkpt lat="48.70042" lon="1.73721">
        <ele>178.19999694824</ele>
        <time>2014-06-21T10:17:42.000Z</time>
      </trkpt>
      <trkpt lat="48.70035" lon="1.73715">
        <ele>178.19999694824</ele>
        <time>2014-06-21T10:17:47.000Z</time>
      </trkpt>
      <trkpt lat="48.70029" lon="1.73705">
        <ele>178.39999389648</ele>
        <time>2014-06-21T10:17:53.000Z</time>
      </trkpt>
      <trkpt lat="48.70025" lon="1.73701">
        <ele>178.39999389648</ele>
        <time>2014-06-21T10:17:56.000Z</time>
      </trkpt>
      <trkpt lat="48.70022" lon="1.73702">
        <ele>178.39999389648</ele>
        <time>2014-06-21T10:18:02.000Z</time>
      </trkpt>
      <trkpt lat="48.7001" lon="1.73701">
        <ele>178.19999694824</ele>
        <time>2014-06-21T10:18:24.000Z</time>
      </trkpt>
      <trkpt lat="48.69999" lon="1.73702">
        <ele>178</ele>
        <time>2014-06-21T10:18:30.000Z</time>
      </trkpt>
      <trkpt lat="48.69989" lon="1.73702">
        <ele>177.60000610352</ele>
        <time>2014-06-21T10:18:37.000Z</time>
      </trkpt>
      <trkpt lat="48.69978" lon="1.73703">
        <ele>177.39999389648</ele>
        <time>2014-06-21T10:18:44.000Z</time>
      </trkpt>
      <trkpt lat="48.69967" lon="1.73702">
        <ele>177.19999694824</ele>
        <time>2014-06-21T10:18:51.000Z</time>
      </trkpt>
      <trkpt lat="48.69955" lon="1.73703">
        <ele>176.80000305176</ele>
        <time>2014-06-21T10:18:58.000Z</time>
      </trkpt>
      <trkpt lat="48.69948" lon="1.73703">
        <ele>176.60000610352</ele>
        <time>2014-06-21T10:19:03.000Z</time>
      </trkpt>
      <trkpt lat="48.69938" lon="1.73698">
        <ele>176.39999389648</ele>
        <time>2014-06-21T10:19:11.000Z</time>
      </trkpt>
      <trkpt lat="48.69934" lon="1.73696">
        <ele>176.60000610352</ele>
        <time>2014-06-21T10:19:14.000Z</time>
      </trkpt>
      <trkpt lat="48.69925" lon="1.73696">
        <ele>176.80000305176</ele>
        <time>2014-06-21T10:19:21.000Z</time>
      </trkpt>
      <trkpt lat="48.69918" lon="1.73694">
        <ele>177</ele>
        <time>2014-06-21T10:19:26.000Z</time>
      </trkpt>
      <trkpt lat="48.69907" lon="1.73693">
        <ele>177.19999694824</ele>
        <time>2014-06-21T10:19:33.000Z</time>
      </trkpt>
      <trkpt lat="48.699" lon="1.73695">
        <ele>177.39999389648</ele>
        <time>2014-06-21T10:19:38.000Z</time>
      </trkpt>
      <trkpt lat="48.69887" lon="1.73695">
        <ele>177.80000305176</ele>
        <time>2014-06-21T10:19:46.000Z</time>
      </trkpt>
      <trkpt lat="48.69871" lon="1.73694">
        <ele>178</ele>
        <time>2014-06-21T10:19:56.000Z</time>
      </trkpt>
      <trkpt lat="48.69864" lon="1.73692">
        <ele>178.19999694824</ele>
        <time>2014-06-21T10:20:02.000Z</time>
      </trkpt>
      <trkpt lat="48.69853" lon="1.7369">
        <ele>178.60000610352</ele>
        <time>2014-06-21T10:20:09.000Z</time>
      </trkpt>
      <trkpt lat="48.69845" lon="1.73689">
        <ele>178.60000610352</ele>
        <time>2014-06-21T10:20:15.000Z</time>
      </trkpt>
      <trkpt lat="48.6984" lon="1.73687">
        <ele>178.80000305176</ele>
        <time>2014-06-21T10:20:19.000Z</time>
      </trkpt>
      <trkpt lat="48.69828" lon="1.73687">
        <ele>178.80000305176</ele>
        <time>2014-06-21T10:20:26.000Z</time>
      </trkpt>
      <trkpt lat="48.69818" lon="1.73686">
        <ele>179</ele>
        <time>2014-06-21T10:20:33.000Z</time>
      </trkpt>
      <trkpt lat="48.6981" lon="1.73684">
        <ele>179.19999694824</ele>
        <time>2014-06-21T10:20:39.000Z</time>
      </trkpt>
      <trkpt lat="48.69799" lon="1.73683">
        <ele>179.19999694824</ele>
        <time>2014-06-21T10:20:47.000Z</time>
      </trkpt>
      <trkpt lat="48.6979" lon="1.73686">
        <ele>179</ele>
        <time>2014-06-21T10:20:54.000Z</time>
      </trkpt>
      <trkpt lat="48.69788" lon="1.73686">
        <ele>179</ele>
        <time>2014-06-21T10:20:55.000Z</time>
      </trkpt>
      <trkpt lat="48.69776" lon="1.73687">
        <ele>178.80000305176</ele>
        <time>2014-06-21T10:21:03.000Z</time>
      </trkpt>
      <trkpt lat="48.69767" lon="1.73693">
        <ele>178.60000610352</ele>
        <time>2014-06-21T10:21:10.000Z</time>
      </trkpt>
      <trkpt lat="48.6976" lon="1.73701">
        <ele>178.39999389648</ele>
        <time>2014-06-21T10:21:16.000Z</time>
      </trkpt>
      <trkpt lat="48.69754" lon="1.7371">
        <ele>178</ele>
        <time>2014-06-21T10:21:21.000Z</time>
      </trkpt>
      <trkpt lat="48.69749" lon="1.7372">
        <ele>177.80000305176</ele>
        <time>2014-06-21T10:21:27.000Z</time>
      </trkpt>
      <trkpt lat="48.69741" lon="1.73733">
        <ele>177.80000305176</ele>
        <time>2014-06-21T10:21:35.000Z</time>
      </trkpt>
      <trkpt lat="48.69738" lon="1.73741">
        <ele>177.80000305176</ele>
        <time>2014-06-21T10:21:41.000Z</time>
      </trkpt>
      <trkpt lat="48.69732" lon="1.73751">
        <ele>177.60000610352</ele>
        <time>2014-06-21T10:21:48.000Z</time>
      </trkpt>
      <trkpt lat="48.69725" lon="1.73764">
        <ele>177.39999389648</ele>
        <time>2014-06-21T10:21:55.000Z</time>
      </trkpt>
      <trkpt lat="48.6972" lon="1.73776">
        <ele>177.19999694824</ele>
        <time>2014-06-21T10:22:01.000Z</time>
      </trkpt>
      <trkpt lat="48.69719" lon="1.73779">
        <ele>177.19999694824</ele>
        <time>2014-06-21T10:22:02.000Z</time>
      </trkpt>
      <trkpt lat="48.69709" lon="1.73799">
        <ele>177</ele>
        <time>2014-06-21T10:22:13.000Z</time>
      </trkpt>
      <trkpt lat="48.69706" lon="1.73804">
        <ele>177</ele>
        <time>2014-06-21T10:22:16.000Z</time>
      </trkpt>
      <trkpt lat="48.69701" lon="1.73809">
        <ele>177</ele>
        <time>2014-06-21T10:22:22.000Z</time>
      </trkpt>
      <trkpt lat="48.69694" lon="1.73824">
        <ele>176.80000305176</ele>
        <time>2014-06-21T10:22:31.000Z</time>
      </trkpt>
      <trkpt lat="48.69689" lon="1.73832">
        <ele>176.80000305176</ele>
        <time>2014-06-21T10:22:36.000Z</time>
      </trkpt>
      <trkpt lat="48.69681" lon="1.73847">
        <ele>177</ele>
        <time>2014-06-21T10:22:43.000Z</time>
      </trkpt>
      <trkpt lat="48.69675" lon="1.73862">
        <ele>177</ele>
        <time>2014-06-21T10:22:51.000Z</time>
      </trkpt>
      <trkpt lat="48.6967" lon="1.73871">
        <ele>177.19999694824</ele>
        <time>2014-06-21T10:22:58.000Z</time>
      </trkpt>
      <trkpt lat="48.69664" lon="1.73883">
        <ele>177.39999389648</ele>
        <time>2014-06-21T10:23:05.000Z</time>
      </trkpt>
      <trkpt lat="48.69656" lon="1.739">
        <ele>178.19999694824</ele>
        <time>2014-06-21T10:23:13.000Z</time>
      </trkpt>
      <trkpt lat="48.69648" lon="1.73919">
        <ele>178.39999389648</ele>
        <time>2014-06-21T10:23:21.000Z</time>
      </trkpt>
      <trkpt lat="48.69645" lon="1.73928">
        <ele>178.39999389648</ele>
        <time>2014-06-21T10:23:27.000Z</time>
      </trkpt>
      <trkpt lat="48.69639" lon="1.73938">
        <ele>178.60000610352</ele>
        <time>2014-06-21T10:23:34.000Z</time>
      </trkpt>
      <trkpt lat="48.69635" lon="1.73945">
        <ele>178.80000305176</ele>
        <time>2014-06-21T10:23:39.000Z</time>
      </trkpt>
      <trkpt lat="48.6963" lon="1.73955">
        <ele>178.80000305176</ele>
        <time>2014-06-21T10:23:45.000Z</time>
      </trkpt>
      <trkpt lat="48.69626" lon="1.73961">
        <ele>179</ele>
        <time>2014-06-21T10:23:49.000Z</time>
      </trkpt>
      <trkpt lat="48.6962" lon="1.73973">
        <ele>179.19999694824</ele>
        <time>2014-06-21T10:23:56.000Z</time>
      </trkpt>
      <trkpt lat="48.69619" lon="1.73975">
        <ele>179.19999694824</ele>
        <time>2014-06-21T10:23:57.000Z</time>
      </trkpt>
      <trkpt lat="48.69614" lon="1.73985">
        <ele>179.19999694824</ele>
        <time>2014-06-21T10:24:04.000Z</time>
      </trkpt>
      <trkpt lat="48.69606" lon="1.73997">
        <ele>179.60000610352</ele>
        <time>2014-06-21T10:24:12.000Z</time>
      </trkpt>
      <trkpt lat="48.696" lon="1.74011">
        <ele>179.60000610352</ele>
        <time>2014-06-21T10:24:18.000Z</time>
      </trkpt>
      <trkpt lat="48.69598" lon="1.74019">
        <ele>179.39999389648</ele>
        <time>2014-06-21T10:24:23.000Z</time>
      </trkpt>
      <trkpt lat="48.6959" lon="1.74031">
        <ele>179.19999694824</ele>
        <time>2014-06-21T10:24:29.000Z</time>
      </trkpt>
      <trkpt lat="48.69581" lon="1.74046">
        <ele>179.19999694824</ele>
        <time>2014-06-21T10:24:37.000Z</time>
      </trkpt>
      <trkpt lat="48.69577" lon="1.74058">
        <ele>179</ele>
        <time>2014-06-21T10:24:43.000Z</time>
      </trkpt>
      <trkpt lat="48.6957" lon="1.74075">
        <ele>178.80000305176</ele>
        <time>2014-06-21T10:24:51.000Z</time>
      </trkpt>
      <trkpt lat="48.69561" lon="1.74095">
        <ele>178.80000305176</ele>
        <time>2014-06-21T10:25:01.000Z</time>
      </trkpt>
      <trkpt lat="48.69555" lon="1.74107">
        <ele>178.80000305176</ele>
        <time>2014-06-21T10:25:07.000Z</time>
      </trkpt>
      <trkpt lat="48.69549" lon="1.74119">
        <ele>178.39999389648</ele>
        <time>2014-06-21T10:25:14.000Z</time>
      </trkpt>
      <trkpt lat="48.69541" lon="1.74135">
        <ele>178.19999694824</ele>
        <time>2014-06-21T10:25:23.000Z</time>
      </trkpt>
      <trkpt lat="48.69536" lon="1.74146">
        <ele>178</ele>
        <time>2014-06-21T10:25:31.000Z</time>
      </trkpt>
      <trkpt lat="48.69527" lon="1.74158">
        <ele>177.80000305176</ele>
        <time>2014-06-21T10:25:39.000Z</time>
      </trkpt>
      <trkpt lat="48.69521" lon="1.7417">
        <ele>177</ele>
        <time>2014-06-21T10:25:46.000Z</time>
      </trkpt>
      <trkpt lat="48.69512" lon="1.74187">
        <ele>174.80000305176</ele>
        <time>2014-06-21T10:25:52.000Z</time>
      </trkpt>
      <trkpt lat="48.69497" lon="1.74217">
        <ele>170.60000610352</ele>
        <time>2014-06-21T10:25:59.000Z</time>
      </trkpt>
      <trkpt lat="48.69488" lon="1.74232">
        <ele>169.60000610352</ele>
        <time>2014-06-21T10:26:05.000Z</time>
      </trkpt>
      <trkpt lat="48.69481" lon="1.74249">
        <ele>169</ele>
        <time>2014-06-21T10:26:12.000Z</time>
      </trkpt>
      <trkpt lat="48.69479" lon="1.74255">
        <ele>168.80000305176</ele>
        <time>2014-06-21T10:26:15.000Z</time>
      </trkpt>
      <trkpt lat="48.69472" lon="1.74265">
        <ele>168.19999694824</ele>
        <time>2014-06-21T10:26:21.000Z</time>
      </trkpt>
      <trkpt lat="48.6947" lon="1.74269">
        <ele>168</ele>
        <time>2014-06-21T10:26:23.000Z</time>
      </trkpt>
      <trkpt lat="48.69462" lon="1.74283">
        <ele>167.60000610352</ele>
        <time>2014-06-21T10:26:32.000Z</time>
      </trkpt>
      <trkpt lat="48.69457" lon="1.74293">
        <ele>167.19999694824</ele>
        <time>2014-06-21T10:26:38.000Z</time>
      </trkpt>
      <trkpt lat="48.69449" lon="1.74308">
        <ele>167</ele>
        <time>2014-06-21T10:26:46.000Z</time>
      </trkpt>
      <trkpt lat="48.69442" lon="1.74322">
        <ele>166.60000610352</ele>
        <time>2014-06-21T10:26:54.000Z</time>
      </trkpt>
      <trkpt lat="48.69441" lon="1.74327">
        <ele>166.39999389648</ele>
        <time>2014-06-21T10:26:56.000Z</time>
      </trkpt>
      <trkpt lat="48.69435" lon="1.74341">
        <ele>166.80000305176</ele>
        <time>2014-06-21T10:27:02.000Z</time>
      </trkpt>
      <trkpt lat="48.69434" lon="1.74345">
        <ele>167</ele>
        <time>2014-06-21T10:27:06.000Z</time>
      </trkpt>
      <trkpt lat="48.69432" lon="1.74356">
        <ele>167.39999389648</ele>
        <time>2014-06-21T10:27:10.000Z</time>
      </trkpt>
      <trkpt lat="48.69434" lon="1.74368">
        <ele>168</ele>
        <time>2014-06-21T10:27:15.000Z</time>
      </trkpt>
      <trkpt lat="48.69437" lon="1.74379">
        <ele>168.80000305176</ele>
        <time>2014-06-21T10:27:21.000Z</time>
      </trkpt>
      <trkpt lat="48.6944" lon="1.74395">
        <ele>169.60000610352</ele>
        <time>2014-06-21T10:27:28.000Z</time>
      </trkpt>
      <trkpt lat="48.69442" lon="1.74406">
        <ele>170</ele>
        <time>2014-06-21T10:27:35.000Z</time>
      </trkpt>
      <trkpt lat="48.69443" lon="1.74408">
        <ele>170</ele>
        <time>2014-06-21T10:27:36.000Z</time>
      </trkpt>
      <trkpt lat="48.69445" lon="1.74419">
        <ele>170</ele>
        <time>2014-06-21T10:27:41.000Z</time>
      </trkpt>
      <trkpt lat="48.69447" lon="1.74431">
        <ele>170.19999694824</ele>
        <time>2014-06-21T10:27:45.000Z</time>
      </trkpt>
      <trkpt lat="48.69451" lon="1.74447">
        <ele>170.39999389648</ele>
        <time>2014-06-21T10:27:51.000Z</time>
      </trkpt>
      <trkpt lat="48.69453" lon="1.74454">
        <ele>170.39999389648</ele>
        <time>2014-06-21T10:27:54.000Z</time>
      </trkpt>
      <trkpt lat="48.69456" lon="1.74467">
        <ele>170.60000610352</ele>
        <time>2014-06-21T10:28:00.000Z</time>
      </trkpt>
      <trkpt lat="48.69456" lon="1.74469">
        <ele>170.60000610352</ele>
        <time>2014-06-21T10:28:01.000Z</time>
      </trkpt>
      <trkpt lat="48.69462" lon="1.74491">
        <ele>170.80000305176</ele>
        <time>2014-06-21T10:28:09.000Z</time>
      </trkpt>
      <trkpt lat="48.69463" lon="1.74499">
        <ele>170.39999389648</ele>
        <time>2014-06-21T10:28:12.000Z</time>
      </trkpt>
      <trkpt lat="48.69466" lon="1.74516">
        <ele>169.80000305176</ele>
        <time>2014-06-21T10:28:19.000Z</time>
      </trkpt>
      <trkpt lat="48.69472" lon="1.74529">
        <ele>169.39999389648</ele>
        <time>2014-06-21T10:28:26.000Z</time>
      </trkpt>
      <trkpt lat="48.69476" lon="1.74544">
        <ele>168.80000305176</ele>
        <time>2014-06-21T10:28:32.000Z</time>
      </trkpt>
      <trkpt lat="48.69479" lon="1.74566">
        <ele>168</ele>
        <time>2014-06-21T10:28:41.000Z</time>
      </trkpt>
      <trkpt lat="48.69483" lon="1.74581">
        <ele>167.60000610352</ele>
        <time>2014-06-21T10:28:47.000Z</time>
      </trkpt>
      <trkpt lat="48.69489" lon="1.74595">
        <ele>167</ele>
        <time>2014-06-21T10:28:53.000Z</time>
      </trkpt>
      <trkpt lat="48.6949" lon="1.74604">
        <ele>166.60000610352</ele>
        <time>2014-06-21T10:28:57.000Z</time>
      </trkpt>
      <trkpt lat="48.69493" lon="1.74617">
        <ele>166.19999694824</ele>
        <time>2014-06-21T10:29:02.000Z</time>
      </trkpt>
      <trkpt lat="48.69496" lon="1.74628">
        <ele>165.80000305176</ele>
        <time>2014-06-21T10:29:06.000Z</time>
      </trkpt>
      <trkpt lat="48.695" lon="1.74646">
        <ele>165.39999389648</ele>
        <time>2014-06-21T10:29:13.000Z</time>
      </trkpt>
      <trkpt lat="48.69503" lon="1.74662">
        <ele>164.80000305176</ele>
        <time>2014-06-21T10:29:17.000Z</time>
      </trkpt>
      <trkpt lat="48.69505" lon="1.74668">
        <ele>164.39999389648</ele>
        <time>2014-06-21T10:29:19.000Z</time>
      </trkpt>
      <trkpt lat="48.69507" lon="1.74682">
        <ele>163.60000610352</ele>
        <time>2014-06-21T10:29:23.000Z</time>
      </trkpt>
      <trkpt lat="48.69509" lon="1.74689">
        <ele>163.19999694824</ele>
        <time>2014-06-21T10:29:25.000Z</time>
      </trkpt>
      <trkpt lat="48.69512" lon="1.74707">
        <ele>162</ele>
        <time>2014-06-21T10:29:31.000Z</time>
      </trkpt>
      <trkpt lat="48.69514" lon="1.74716">
        <ele>161.39999389648</ele>
        <time>2014-06-21T10:29:33.000Z</time>
      </trkpt>
      <trkpt lat="48.69516" lon="1.74724">
        <ele>161</ele>
        <time>2014-06-21T10:29:35.000Z</time>
      </trkpt>
      <trkpt lat="48.69518" lon="1.74744">
        <ele>160.19999694824</ele>
        <time>2014-06-21T10:29:40.000Z</time>
      </trkpt>
      <trkpt lat="48.69521" lon="1.74758">
        <ele>160.19999694824</ele>
        <time>2014-06-21T10:29:44.000Z</time>
      </trkpt>
      <trkpt lat="48.69523" lon="1.74766">
        <ele>160.19999694824</ele>
        <time>2014-06-21T10:29:47.000Z</time>
      </trkpt>
      <trkpt lat="48.69525" lon="1.74771">
        <ele>160.19999694824</ele>
        <time>2014-06-21T10:29:51.000Z</time>
      </trkpt>
      <trkpt lat="48.69529" lon="1.74787">
        <ele>160</ele>
        <time>2014-06-21T10:29:58.000Z</time>
      </trkpt>
      <trkpt lat="48.69534" lon="1.74799">
        <ele>160</ele>
        <time>2014-06-21T10:30:04.000Z</time>
      </trkpt>
      <trkpt lat="48.69536" lon="1.74807">
        <ele>159.80000305176</ele>
        <time>2014-06-21T10:30:08.000Z</time>
      </trkpt>
      <trkpt lat="48.69539" lon="1.74824">
        <ele>160</ele>
        <time>2014-06-21T10:30:16.000Z</time>
      </trkpt>
      <trkpt lat="48.69541" lon="1.74839">
        <ele>160.19999694824</ele>
        <time>2014-06-21T10:30:21.000Z</time>
      </trkpt>
      <trkpt lat="48.69544" lon="1.74852">
        <ele>160.60000610352</ele>
        <time>2014-06-21T10:30:26.000Z</time>
      </trkpt>
      <trkpt lat="48.69548" lon="1.74865">
        <ele>161</ele>
        <time>2014-06-21T10:30:31.000Z</time>
      </trkpt>
      <trkpt lat="48.69548" lon="1.74867">
        <ele>161</ele>
        <time>2014-06-21T10:30:33.000Z</time>
      </trkpt>
      <trkpt lat="48.69548" lon="1.74872">
        <ele>161.39999389648</ele>
        <time>2014-06-21T10:30:35.000Z</time>
      </trkpt>
      <trkpt lat="48.69549" lon="1.74876">
        <ele>161.60000610352</ele>
        <time>2014-06-21T10:30:40.000Z</time>
      </trkpt>
      <trkpt lat="48.69549" lon="1.74883">
        <ele>162</ele>
        <time>2014-06-21T10:31:05.000Z</time>
      </trkpt>
      <trkpt lat="48.69553" lon="1.74897">
        <ele>162.39999389648</ele>
        <time>2014-06-21T10:31:10.000Z</time>
      </trkpt>
      <trkpt lat="48.69558" lon="1.74907">
        <ele>162.39999389648</ele>
        <time>2014-06-21T10:31:15.000Z</time>
      </trkpt>
      <trkpt lat="48.69559" lon="1.74913">
        <ele>162.39999389648</ele>
        <time>2014-06-21T10:31:18.000Z</time>
      </trkpt>
      <trkpt lat="48.6956" lon="1.74919">
        <ele>162.19999694824</ele>
        <time>2014-06-21T10:31:21.000Z</time>
      </trkpt>
      <trkpt lat="48.69563" lon="1.74924">
        <ele>162</ele>
        <time>2014-06-21T10:31:25.000Z</time>
      </trkpt>
      <trkpt lat="48.69564" lon="1.74926">
        <ele>162</ele>
        <time>2014-06-21T10:31:27.000Z</time>
      </trkpt>
      <trkpt lat="48.69567" lon="1.74938">
        <ele>162</ele>
        <time>2014-06-21T10:31:32.000Z</time>
      </trkpt>
      <trkpt lat="48.69568" lon="1.74942">
        <ele>161.80000305176</ele>
        <time>2014-06-21T10:31:34.000Z</time>
      </trkpt>
      <trkpt lat="48.69571" lon="1.7496">
        <ele>161.80000305176</ele>
        <time>2014-06-21T10:31:40.000Z</time>
      </trkpt>
      <trkpt lat="48.69573" lon="1.74968">
        <ele>161.80000305176</ele>
        <time>2014-06-21T10:31:43.000Z</time>
      </trkpt>
      <trkpt lat="48.69576" lon="1.7499">
        <ele>162</ele>
        <time>2014-06-21T10:31:51.000Z</time>
      </trkpt>
      <trkpt lat="48.69569" lon="1.74997">
        <ele>162.60000610352</ele>
        <time>2014-06-21T10:31:57.000Z</time>
      </trkpt>
      <trkpt lat="48.69556" lon="1.75004">
        <ele>164.19999694824</ele>
        <time>2014-06-21T10:32:06.000Z</time>
      </trkpt>
      <trkpt lat="48.69546" lon="1.75011">
        <ele>165.19999694824</ele>
        <time>2014-06-21T10:32:13.000Z</time>
      </trkpt>
      <trkpt lat="48.69532" lon="1.75019">
        <ele>166.19999694824</ele>
        <time>2014-06-21T10:32:22.000Z</time>
      </trkpt>
      <trkpt lat="48.69522" lon="1.75023">
        <ele>167</ele>
        <time>2014-06-21T10:32:29.000Z</time>
      </trkpt>
      <trkpt lat="48.69509" lon="1.75029">
        <ele>167</ele>
        <time>2014-06-21T10:32:38.000Z</time>
      </trkpt>
      <trkpt lat="48.69499" lon="1.75034">
        <ele>166.80000305176</ele>
        <time>2014-06-21T10:32:46.000Z</time>
      </trkpt>
      <trkpt lat="48.69488" lon="1.75039">
        <ele>166.80000305176</ele>
        <time>2014-06-21T10:32:54.000Z</time>
      </trkpt>
      <trkpt lat="48.69477" lon="1.75046">
        <ele>167</ele>
        <time>2014-06-21T10:33:02.000Z</time>
      </trkpt>
      <trkpt lat="48.69467" lon="1.7505">
        <ele>167.19999694824</ele>
        <time>2014-06-21T10:33:09.000Z</time>
      </trkpt>
      <trkpt lat="48.69458" lon="1.75057">
        <ele>167.39999389648</ele>
        <time>2014-06-21T10:33:15.000Z</time>
      </trkpt>
      <trkpt lat="48.69446" lon="1.7506">
        <ele>167.80000305176</ele>
        <time>2014-06-21T10:33:22.000Z</time>
      </trkpt>
      <trkpt lat="48.69438" lon="1.75067">
        <ele>168</ele>
        <time>2014-06-21T10:33:29.000Z</time>
      </trkpt>
      <trkpt lat="48.69435" lon="1.75069">
        <ele>168</ele>
        <time>2014-06-21T10:33:34.000Z</time>
      </trkpt>
      <trkpt lat="48.69428" lon="1.75071">
        <ele>167.80000305176</ele>
        <time>2014-06-21T10:33:45.000Z</time>
      </trkpt>
      <trkpt lat="48.69416" lon="1.75076">
        <ele>167.39999389648</ele>
        <time>2014-06-21T10:33:53.000Z</time>
      </trkpt>
      <trkpt lat="48.69402" lon="1.7508">
        <ele>166.80000305176</ele>
        <time>2014-06-21T10:34:02.000Z</time>
      </trkpt>
      <trkpt lat="48.69389" lon="1.75085">
        <ele>166.39999389648</ele>
        <time>2014-06-21T10:34:11.000Z</time>
      </trkpt>
      <trkpt lat="48.69378" lon="1.75091">
        <ele>165.80000305176</ele>
        <time>2014-06-21T10:34:19.000Z</time>
      </trkpt>
      <trkpt lat="48.69366" lon="1.75099">
        <ele>165.60000610352</ele>
        <time>2014-06-21T10:34:27.000Z</time>
      </trkpt>
      <trkpt lat="48.69353" lon="1.75108">
        <ele>165.60000610352</ele>
        <time>2014-06-21T10:34:36.000Z</time>
      </trkpt>
      <trkpt lat="48.69343" lon="1.75112">
        <ele>166</ele>
        <time>2014-06-21T10:34:43.000Z</time>
      </trkpt>
      <trkpt lat="48.69336" lon="1.75115">
        <ele>166.39999389648</ele>
        <time>2014-06-21T10:34:48.000Z</time>
      </trkpt>
      <trkpt lat="48.69323" lon="1.7512">
        <ele>166.80000305176</ele>
        <time>2014-06-21T10:34:56.000Z</time>
      </trkpt>
      <trkpt lat="48.69311" lon="1.75125">
        <ele>168</ele>
        <time>2014-06-21T10:35:05.000Z</time>
      </trkpt>
      <trkpt lat="48.69301" lon="1.75131">
        <ele>168.80000305176</ele>
        <time>2014-06-21T10:35:12.000Z</time>
      </trkpt>
      <trkpt lat="48.6929" lon="1.75136">
        <ele>169.80000305176</ele>
        <time>2014-06-21T10:35:19.000Z</time>
      </trkpt>
      <trkpt lat="48.69289" lon="1.75137">
        <ele>170</ele>
        <time>2014-06-21T10:35:20.000Z</time>
      </trkpt>
      <trkpt lat="48.69282" lon="1.75139">
        <ele>170.60000610352</ele>
        <time>2014-06-21T10:35:25.000Z</time>
      </trkpt>
      <trkpt lat="48.69273" lon="1.75142">
        <ele>171.39999389648</ele>
        <time>2014-06-21T10:35:33.000Z</time>
      </trkpt>
      <trkpt lat="48.69264" lon="1.75147">
        <ele>171.60000610352</ele>
        <time>2014-06-21T10:35:41.000Z</time>
      </trkpt>
      <trkpt lat="48.69252" lon="1.75154">
        <ele>171.39999389648</ele>
        <time>2014-06-21T10:35:51.000Z</time>
      </trkpt>
      <trkpt lat="48.69251" lon="1.75154">
        <ele>171.39999389648</ele>
        <time>2014-06-21T10:35:52.000Z</time>
      </trkpt>
      <trkpt lat="48.69247" lon="1.75157">
        <ele>171</ele>
        <time>2014-06-21T10:35:56.000Z</time>
      </trkpt>
      <trkpt lat="48.69237" lon="1.75165">
        <ele>170.60000610352</ele>
        <time>2014-06-21T10:36:03.000Z</time>
      </trkpt>
      <trkpt lat="48.6923" lon="1.75171">
        <ele>170.19999694824</ele>
        <time>2014-06-21T10:36:08.000Z</time>
      </trkpt>
      <trkpt lat="48.6922" lon="1.75174">
        <ele>169.80000305176</ele>
        <time>2014-06-21T10:36:16.000Z</time>
      </trkpt>
      <trkpt lat="48.69211" lon="1.75177">
        <ele>169.39999389648</ele>
        <time>2014-06-21T10:36:22.000Z</time>
      </trkpt>
      <trkpt lat="48.692" lon="1.7518">
        <ele>169</ele>
        <time>2014-06-21T10:36:30.000Z</time>
      </trkpt>
      <trkpt lat="48.69193" lon="1.75184">
        <ele>168.80000305176</ele>
        <time>2014-06-21T10:36:35.000Z</time>
      </trkpt>
      <trkpt lat="48.69184" lon="1.75188">
        <ele>168.19999694824</ele>
        <time>2014-06-21T10:36:41.000Z</time>
      </trkpt>
      <trkpt lat="48.69172" lon="1.7519">
        <ele>166.80000305176</ele>
        <time>2014-06-21T10:36:49.000Z</time>
      </trkpt>
      <trkpt lat="48.6916" lon="1.75199">
        <ele>165.19999694824</ele>
        <time>2014-06-21T10:36:58.000Z</time>
      </trkpt>
      <trkpt lat="48.6915" lon="1.75204">
        <ele>164</ele>
        <time>2014-06-21T10:37:06.000Z</time>
      </trkpt>
      <trkpt lat="48.69138" lon="1.75209">
        <ele>162.80000305176</ele>
        <time>2014-06-21T10:37:15.000Z</time>
      </trkpt>
      <trkpt lat="48.69127" lon="1.7521">
        <ele>161.60000610352</ele>
        <time>2014-06-21T10:37:22.000Z</time>
      </trkpt>
      <trkpt lat="48.69125" lon="1.75212">
        <ele>161.39999389648</ele>
        <time>2014-06-21T10:37:24.000Z</time>
      </trkpt>
      <trkpt lat="48.69117" lon="1.75217">
        <ele>160.60000610352</ele>
        <time>2014-06-21T10:37:30.000Z</time>
      </trkpt>
      <trkpt lat="48.69103" lon="1.75225">
        <ele>159</ele>
        <time>2014-06-21T10:37:41.000Z</time>
      </trkpt>
      <trkpt lat="48.69087" lon="1.75232">
        <ele>158.19999694824</ele>
        <time>2014-06-21T10:37:52.000Z</time>
      </trkpt>
      <trkpt lat="48.69076" lon="1.75239">
        <ele>157.60000610352</ele>
        <time>2014-06-21T10:38:01.000Z</time>
      </trkpt>
      <trkpt lat="48.69063" lon="1.75245">
        <ele>157</ele>
        <time>2014-06-21T10:38:10.000Z</time>
      </trkpt>
      <trkpt lat="48.69052" lon="1.75248">
        <ele>156.39999389648</ele>
        <time>2014-06-21T10:38:17.000Z</time>
      </trkpt>
      <trkpt lat="48.69041" lon="1.75256">
        <ele>155.80000305176</ele>
        <time>2014-06-21T10:38:25.000Z</time>
      </trkpt>
      <trkpt lat="48.69028" lon="1.75262">
        <ele>155.60000610352</ele>
        <time>2014-06-21T10:38:34.000Z</time>
      </trkpt>
      <trkpt lat="48.69021" lon="1.75262">
        <ele>155.60000610352</ele>
        <time>2014-06-21T10:38:39.000Z</time>
      </trkpt>
      <trkpt lat="48.69018" lon="1.75261">
        <ele>155.60000610352</ele>
        <time>2014-06-21T10:38:42.000Z</time>
      </trkpt>
      <trkpt lat="48.69013" lon="1.75264">
        <ele>155.39999389648</ele>
        <time>2014-06-21T10:38:47.000Z</time>
      </trkpt>
      <trkpt lat="48.69008" lon="1.75263">
        <ele>155.39999389648</ele>
        <time>2014-06-21T10:38:54.000Z</time>
      </trkpt>
      <trkpt lat="48.69001" lon="1.75269">
        <ele>155.19999694824</ele>
        <time>2014-06-21T10:39:01.000Z</time>
      </trkpt>
      <trkpt lat="48.68992" lon="1.75275">
        <ele>155.19999694824</ele>
        <time>2014-06-21T10:39:07.000Z</time>
      </trkpt>
      <trkpt lat="48.68981" lon="1.75276">
        <ele>155</ele>
        <time>2014-06-21T10:39:14.000Z</time>
      </trkpt>
      <trkpt lat="48.68969" lon="1.75278">
        <ele>154.60000610352</ele>
        <time>2014-06-21T10:39:22.000Z</time>
      </trkpt>
      <trkpt lat="48.68957" lon="1.75275">
        <ele>154.19999694824</ele>
        <time>2014-06-21T10:39:31.000Z</time>
      </trkpt>
      <trkpt lat="48.68946" lon="1.75263">
        <ele>153.60000610352</ele>
        <time>2014-06-21T10:39:39.000Z</time>
      </trkpt>
      <trkpt lat="48.68939" lon="1.75249">
        <ele>153.19999694824</ele>
        <time>2014-06-21T10:39:47.000Z</time>
      </trkpt>
      <trkpt lat="48.68933" lon="1.75236">
        <ele>153</ele>
        <time>2014-06-21T10:39:54.000Z</time>
      </trkpt>
      <trkpt lat="48.68928" lon="1.75221">
        <ele>153.19999694824</ele>
        <time>2014-06-21T10:40:01.000Z</time>
      </trkpt>
      <trkpt lat="48.68922" lon="1.75202">
        <ele>153.39999389648</ele>
        <time>2014-06-21T10:40:10.000Z</time>
      </trkpt>
      <trkpt lat="48.68922" lon="1.75187">
        <ele>153.39999389648</ele>
        <time>2014-06-21T10:40:18.000Z</time>
      </trkpt>
      <trkpt lat="48.6892" lon="1.75175">
        <ele>153.39999389648</ele>
        <time>2014-06-21T10:40:24.000Z</time>
      </trkpt>
      <trkpt lat="48.68919" lon="1.75159">
        <ele>153.39999389648</ele>
        <time>2014-06-21T10:40:31.000Z</time>
      </trkpt>
      <trkpt lat="48.68919" lon="1.75143">
        <ele>153.39999389648</ele>
        <time>2014-06-21T10:40:40.000Z</time>
      </trkpt>
      <trkpt lat="48.6892" lon="1.75138">
        <ele>153.39999389648</ele>
        <time>2014-06-21T10:40:43.000Z</time>
      </trkpt>
      <trkpt lat="48.68912" lon="1.75117">
        <ele>153.80000305176</ele>
        <time>2014-06-21T10:40:52.000Z</time>
      </trkpt>
      <trkpt lat="48.68911" lon="1.75105">
        <ele>153.80000305176</ele>
        <time>2014-06-21T10:40:58.000Z</time>
      </trkpt>
      <trkpt lat="48.68907" lon="1.75089">
        <ele>154.19999694824</ele>
        <time>2014-06-21T10:41:05.000Z</time>
      </trkpt>
      <trkpt lat="48.68904" lon="1.75074">
        <ele>154.39999389648</ele>
        <time>2014-06-21T10:41:13.000Z</time>
      </trkpt>
      <trkpt lat="48.68902" lon="1.7506">
        <ele>154.39999389648</ele>
        <time>2014-06-21T10:41:20.000Z</time>
      </trkpt>
      <trkpt lat="48.68901" lon="1.75047">
        <ele>154.39999389648</ele>
        <time>2014-06-21T10:41:27.000Z</time>
      </trkpt>
      <trkpt lat="48.68899" lon="1.75029">
        <ele>154.39999389648</ele>
        <time>2014-06-21T10:41:35.000Z</time>
      </trkpt>
      <trkpt lat="48.68896" lon="1.75015">
        <ele>154.39999389648</ele>
        <time>2014-06-21T10:41:42.000Z</time>
      </trkpt>
      <trkpt lat="48.68893" lon="1.74998">
        <ele>154.60000610352</ele>
        <time>2014-06-21T10:41:50.000Z</time>
      </trkpt>
      <trkpt lat="48.68892" lon="1.74983">
        <ele>154.60000610352</ele>
        <time>2014-06-21T10:41:58.000Z</time>
      </trkpt>
      <trkpt lat="48.6889" lon="1.74967">
        <ele>154.80000305176</ele>
        <time>2014-06-21T10:42:06.000Z</time>
      </trkpt>
      <trkpt lat="48.68886" lon="1.74951">
        <ele>155</ele>
        <time>2014-06-21T10:42:13.000Z</time>
      </trkpt>
      <trkpt lat="48.68884" lon="1.74936">
        <ele>155.19999694824</ele>
        <time>2014-06-21T10:42:20.000Z</time>
      </trkpt>
      <trkpt lat="48.68883" lon="1.74932">
        <ele>155.39999389648</ele>
        <time>2014-06-21T10:42:22.000Z</time>
      </trkpt>
      <trkpt lat="48.68878" lon="1.74914">
        <ele>156</ele>
        <time>2014-06-21T10:42:30.000Z</time>
      </trkpt>
      <trkpt lat="48.68876" lon="1.74896">
        <ele>156.19999694824</ele>
        <time>2014-06-21T10:42:39.000Z</time>
      </trkpt>
      <trkpt lat="48.68874" lon="1.7488">
        <ele>156.19999694824</ele>
        <time>2014-06-21T10:42:47.000Z</time>
      </trkpt>
      <trkpt lat="48.68873" lon="1.74872">
        <ele>156.19999694824</ele>
        <time>2014-06-21T10:42:52.000Z</time>
      </trkpt>
      <trkpt lat="48.68872" lon="1.74862">
        <ele>156.19999694824</ele>
        <time>2014-06-21T10:42:59.000Z</time>
      </trkpt>
      <trkpt lat="48.68868" lon="1.7485">
        <ele>156.19999694824</ele>
        <time>2014-06-21T10:43:05.000Z</time>
      </trkpt>
      <trkpt lat="48.68865" lon="1.74832">
        <ele>156.19999694824</ele>
        <time>2014-06-21T10:43:13.000Z</time>
      </trkpt>
      <trkpt lat="48.68864" lon="1.74816">
        <ele>156.39999389648</ele>
        <time>2014-06-21T10:43:22.000Z</time>
      </trkpt>
      <trkpt lat="48.68861" lon="1.74806">
        <ele>156.19999694824</ele>
        <time>2014-06-21T10:43:26.000Z</time>
      </trkpt>
      <trkpt lat="48.68859" lon="1.74796">
        <ele>156.19999694824</ele>
        <time>2014-06-21T10:43:31.000Z</time>
      </trkpt>
      <trkpt lat="48.68856" lon="1.74788">
        <ele>156.19999694824</ele>
        <time>2014-06-21T10:43:35.000Z</time>
      </trkpt>
      <trkpt lat="48.68853" lon="1.74768">
        <ele>156</ele>
        <time>2014-06-21T10:43:45.000Z</time>
      </trkpt>
      <trkpt lat="48.6885" lon="1.74754">
        <ele>156.19999694824</ele>
        <time>2014-06-21T10:43:52.000Z</time>
      </trkpt>
      <trkpt lat="48.68849" lon="1.74737">
        <ele>156.39999389648</ele>
        <time>2014-06-21T10:44:00.000Z</time>
      </trkpt>
      <trkpt lat="48.68848" lon="1.74719">
        <ele>156.80000305176</ele>
        <time>2014-06-21T10:44:09.000Z</time>
      </trkpt>
      <trkpt lat="48.68846" lon="1.74706">
        <ele>157.19999694824</ele>
        <time>2014-06-21T10:44:16.000Z</time>
      </trkpt>
      <trkpt lat="48.68845" lon="1.74691">
        <ele>157.39999389648</ele>
        <time>2014-06-21T10:44:24.000Z</time>
      </trkpt>
      <trkpt lat="48.68842" lon="1.74671">
        <ele>158</ele>
        <time>2014-06-21T10:44:33.000Z</time>
      </trkpt>
      <trkpt lat="48.6884" lon="1.74652">
        <ele>158.60000610352</ele>
        <time>2014-06-21T10:44:42.000Z</time>
      </trkpt>
      <trkpt lat="48.68841" lon="1.74643">
        <ele>158.39999389648</ele>
        <time>2014-06-21T10:44:47.000Z</time>
      </trkpt>
      <trkpt lat="48.68839" lon="1.74634">
        <ele>158.60000610352</ele>
        <time>2014-06-21T10:44:52.000Z</time>
      </trkpt>
      <trkpt lat="48.68837" lon="1.74618">
        <ele>158.80000305176</ele>
        <time>2014-06-21T10:45:00.000Z</time>
      </trkpt>
      <trkpt lat="48.68837" lon="1.74602">
        <ele>158.39999389648</ele>
        <time>2014-06-21T10:45:08.000Z</time>
      </trkpt>
      <trkpt lat="48.68837" lon="1.74588">
        <ele>158.39999389648</ele>
        <time>2014-06-21T10:45:15.000Z</time>
      </trkpt>
      <trkpt lat="48.68834" lon="1.74567">
        <ele>158.60000610352</ele>
        <time>2014-06-21T10:45:23.000Z</time>
      </trkpt>
      <trkpt lat="48.6883" lon="1.74544">
        <ele>159.60000610352</ele>
        <time>2014-06-21T10:45:32.000Z</time>
      </trkpt>
      <trkpt lat="48.6883" lon="1.7452">
        <ele>159.60000610352</ele>
        <time>2014-06-21T10:45:42.000Z</time>
      </trkpt>
      <trkpt lat="48.6883" lon="1.74499">
        <ele>159.60000610352</ele>
        <time>2014-06-21T10:45:51.000Z</time>
      </trkpt>
      <trkpt lat="48.6883" lon="1.74483">
        <ele>159.60000610352</ele>
        <time>2014-06-21T10:46:00.000Z</time>
      </trkpt>
      <trkpt lat="48.6883" lon="1.74471">
        <ele>159.80000305176</ele>
        <time>2014-06-21T10:46:08.000Z</time>
      </trkpt>
      <trkpt lat="48.6883" lon="1.74466">
        <ele>159.80000305176</ele>
        <time>2014-06-21T10:46:11.000Z</time>
      </trkpt>
      <trkpt lat="48.68829" lon="1.74458">
        <ele>160.19999694824</ele>
        <time>2014-06-21T10:46:15.000Z</time>
      </trkpt>
      <trkpt lat="48.68828" lon="1.74449">
        <ele>160.60000610352</ele>
        <time>2014-06-21T10:46:20.000Z</time>
      </trkpt>
      <trkpt lat="48.68826" lon="1.7443">
        <ele>161.39999389648</ele>
        <time>2014-06-21T10:46:29.000Z</time>
      </trkpt>
      <trkpt lat="48.68826" lon="1.74429">
        <ele>161.39999389648</ele>
        <time>2014-06-21T10:46:30.000Z</time>
      </trkpt>
      <trkpt lat="48.68829" lon="1.74413">
        <ele>161.19999694824</ele>
        <time>2014-06-21T10:46:38.000Z</time>
      </trkpt>
      <trkpt lat="48.68831" lon="1.74404">
        <ele>161.19999694824</ele>
        <time>2014-06-21T10:46:43.000Z</time>
      </trkpt>
      <trkpt lat="48.68832" lon="1.74385">
        <ele>160.39999389648</ele>
        <time>2014-06-21T10:46:52.000Z</time>
      </trkpt>
      <trkpt lat="48.6883" lon="1.74371">
        <ele>160.19999694824</ele>
        <time>2014-06-21T10:46:58.000Z</time>
      </trkpt>
      <trkpt lat="48.68833" lon="1.74362">
        <ele>159.39999389648</ele>
        <time>2014-06-21T10:47:03.000Z</time>
      </trkpt>
      <trkpt lat="48.6883" lon="1.74344">
        <ele>159.19999694824</ele>
        <time>2014-06-21T10:47:11.000Z</time>
      </trkpt>
      <trkpt lat="48.68827" lon="1.7433">
        <ele>159.19999694824</ele>
        <time>2014-06-21T10:47:18.000Z</time>
      </trkpt>
      <trkpt lat="48.68825" lon="1.74322">
        <ele>159.19999694824</ele>
        <time>2014-06-21T10:47:22.000Z</time>
      </trkpt>
      <trkpt lat="48.68824" lon="1.74308">
        <ele>157.80000305176</ele>
        <time>2014-06-21T10:47:28.000Z</time>
      </trkpt>
      <trkpt lat="48.68824" lon="1.74297">
        <ele>156.39999389648</ele>
        <time>2014-06-21T10:47:33.000Z</time>
      </trkpt>
      <trkpt lat="48.68824" lon="1.74278">
        <ele>155.60000610352</ele>
        <time>2014-06-21T10:47:41.000Z</time>
      </trkpt>
      <trkpt lat="48.68824" lon="1.74273">
        <ele>155.39999389648</ele>
        <time>2014-06-21T10:47:43.000Z</time>
      </trkpt>
      <trkpt lat="48.68822" lon="1.74263">
        <ele>155.39999389648</ele>
        <time>2014-06-21T10:47:48.000Z</time>
      </trkpt>
      <trkpt lat="48.68817" lon="1.7425">
        <ele>155.39999389648</ele>
        <time>2014-06-21T10:47:57.000Z</time>
      </trkpt>
      <trkpt lat="48.68815" lon="1.74247">
        <ele>155.39999389648</ele>
        <time>2014-06-21T10:47:59.000Z</time>
      </trkpt>
      <trkpt lat="48.68811" lon="1.74242">
        <ele>155.60000610352</ele>
        <time>2014-06-21T10:48:03.000Z</time>
      </trkpt>
      <trkpt lat="48.68799" lon="1.74235">
        <ele>155.80000305176</ele>
        <time>2014-06-21T10:48:12.000Z</time>
      </trkpt>
      <trkpt lat="48.68794" lon="1.74233">
        <ele>156</ele>
        <time>2014-06-21T10:48:17.000Z</time>
      </trkpt>
      <trkpt lat="48.68789" lon="1.74233">
        <ele>156.19999694824</ele>
        <time>2014-06-21T10:48:21.000Z</time>
      </trkpt>
      <trkpt lat="48.68779" lon="1.74234">
        <ele>156.60000610352</ele>
        <time>2014-06-21T10:48:28.000Z</time>
      </trkpt>
      <trkpt lat="48.68769" lon="1.74233">
        <ele>156.80000305176</ele>
        <time>2014-06-21T10:48:35.000Z</time>
      </trkpt>
      <trkpt lat="48.68758" lon="1.74234">
        <ele>157</ele>
        <time>2014-06-21T10:48:42.000Z</time>
      </trkpt>
      <trkpt lat="48.68743" lon="1.74233">
        <ele>157</ele>
        <time>2014-06-21T10:48:51.000Z</time>
      </trkpt>
      <trkpt lat="48.68732" lon="1.74235">
        <ele>157</ele>
        <time>2014-06-21T10:48:58.000Z</time>
      </trkpt>
      <trkpt lat="48.68718" lon="1.74236">
        <ele>157</ele>
        <time>2014-06-21T10:49:07.000Z</time>
      </trkpt>
      <trkpt lat="48.68708" lon="1.74237">
        <ele>157</ele>
        <time>2014-06-21T10:49:15.000Z</time>
      </trkpt>
      <trkpt lat="48.68698" lon="1.74237">
        <ele>157</ele>
        <time>2014-06-21T10:49:22.000Z</time>
      </trkpt>
      <trkpt lat="48.68688" lon="1.74239">
        <ele>157.19999694824</ele>
        <time>2014-06-21T10:49:29.000Z</time>
      </trkpt>
      <trkpt lat="48.6868" lon="1.74243">
        <ele>157.19999694824</ele>
        <time>2014-06-21T10:49:37.000Z</time>
      </trkpt>
      <trkpt lat="48.68667" lon="1.74246">
        <ele>157.39999389648</ele>
        <time>2014-06-21T10:49:47.000Z</time>
      </trkpt>
      <trkpt lat="48.68657" lon="1.74251">
        <ele>157.60000610352</ele>
        <time>2014-06-21T10:49:55.000Z</time>
      </trkpt>
      <trkpt lat="48.68644" lon="1.74258">
        <ele>158</ele>
        <time>2014-06-21T10:50:04.000Z</time>
      </trkpt>
      <trkpt lat="48.68632" lon="1.74265">
        <ele>158.39999389648</ele>
        <time>2014-06-21T10:50:13.000Z</time>
      </trkpt>
      <trkpt lat="48.68619" lon="1.74273">
        <ele>157.39999389648</ele>
        <time>2014-06-21T10:50:22.000Z</time>
      </trkpt>
      <trkpt lat="48.68612" lon="1.74276">
        <ele>157</ele>
        <time>2014-06-21T10:50:27.000Z</time>
      </trkpt>
      <trkpt lat="48.68601" lon="1.74284">
        <ele>156.19999694824</ele>
        <time>2014-06-21T10:50:36.000Z</time>
      </trkpt>
      <trkpt lat="48.68595" lon="1.7429">
        <ele>156</ele>
        <time>2014-06-21T10:50:41.000Z</time>
      </trkpt>
      <trkpt lat="48.68587" lon="1.74301">
        <ele>155.39999389648</ele>
        <time>2014-06-21T10:50:48.000Z</time>
      </trkpt>
      <trkpt lat="48.68582" lon="1.74311">
        <ele>155</ele>
        <time>2014-06-21T10:50:53.000Z</time>
      </trkpt>
      <trkpt lat="48.68577" lon="1.74328">
        <ele>154.80000305176</ele>
        <time>2014-06-21T10:51:01.000Z</time>
      </trkpt>
      <trkpt lat="48.68574" lon="1.74337">
        <ele>154.80000305176</ele>
        <time>2014-06-21T10:51:06.000Z</time>
      </trkpt>
      <trkpt lat="48.68574" lon="1.74347">
        <ele>155</ele>
        <time>2014-06-21T10:51:12.000Z</time>
      </trkpt>
      <trkpt lat="48.68575" lon="1.74357">
        <ele>155.19999694824</ele>
        <time>2014-06-21T10:51:18.000Z</time>
      </trkpt>
      <trkpt lat="48.68576" lon="1.74366">
        <ele>155.19999694824</ele>
        <time>2014-06-21T10:51:23.000Z</time>
      </trkpt>
      <trkpt lat="48.68576" lon="1.74377">
        <ele>155.39999389648</ele>
        <time>2014-06-21T10:51:28.000Z</time>
      </trkpt>
      <trkpt lat="48.68576" lon="1.74386">
        <ele>154.80000305176</ele>
        <time>2014-06-21T10:51:32.000Z</time>
      </trkpt>
      <trkpt lat="48.68573" lon="1.74396">
        <ele>154</ele>
        <time>2014-06-21T10:51:37.000Z</time>
      </trkpt>
      <trkpt lat="48.68568" lon="1.74412">
        <ele>153.60000610352</ele>
        <time>2014-06-21T10:51:46.000Z</time>
      </trkpt>
      <trkpt lat="48.68567" lon="1.74415">
        <ele>153.80000305176</ele>
        <time>2014-06-21T10:51:48.000Z</time>
      </trkpt>
      <trkpt lat="48.68565" lon="1.74418">
        <ele>153.80000305176</ele>
        <time>2014-06-21T10:51:50.000Z</time>
      </trkpt>
      <trkpt lat="48.68558" lon="1.74428">
        <ele>154</ele>
        <time>2014-06-21T10:51:58.000Z</time>
      </trkpt>
      <trkpt lat="48.68548" lon="1.74439">
        <ele>154</ele>
        <time>2014-06-21T10:52:05.000Z</time>
      </trkpt>
      <trkpt lat="48.68542" lon="1.74445">
        <ele>153.80000305176</ele>
        <time>2014-06-21T10:52:11.000Z</time>
      </trkpt>
      <trkpt lat="48.68541" lon="1.74445">
        <ele>153.80000305176</ele>
        <time>2014-06-21T10:52:12.000Z</time>
      </trkpt>
      <trkpt lat="48.68532" lon="1.74451">
        <ele>153.39999389648</ele>
        <time>2014-06-21T10:52:19.000Z</time>
      </trkpt>
      <trkpt lat="48.68523" lon="1.74458">
        <ele>153.19999694824</ele>
        <time>2014-06-21T10:52:26.000Z</time>
      </trkpt>
      <trkpt lat="48.68513" lon="1.74465">
        <ele>153.60000610352</ele>
        <time>2014-06-21T10:52:33.000Z</time>
      </trkpt>
      <trkpt lat="48.68503" lon="1.74471">
        <ele>154.60000610352</ele>
        <time>2014-06-21T10:52:41.000Z</time>
      </trkpt>
      <trkpt lat="48.68497" lon="1.74475">
        <ele>154.19999694824</ele>
        <time>2014-06-21T10:52:47.000Z</time>
      </trkpt>
      <trkpt lat="48.68486" lon="1.74482">
        <ele>153.60000610352</ele>
        <time>2014-06-21T10:52:55.000Z</time>
      </trkpt>
      <trkpt lat="48.68477" lon="1.74488">
        <ele>153</ele>
        <time>2014-06-21T10:53:03.000Z</time>
      </trkpt>
      <trkpt lat="48.6847" lon="1.74494">
        <ele>153.19999694824</ele>
        <time>2014-06-21T10:53:09.000Z</time>
      </trkpt>
      <trkpt lat="48.68461" lon="1.74502">
        <ele>153.60000610352</ele>
        <time>2014-06-21T10:53:17.000Z</time>
      </trkpt>
      <trkpt lat="48.68451" lon="1.74506">
        <ele>153.19999694824</ele>
        <time>2014-06-21T10:53:24.000Z</time>
      </trkpt>
      <trkpt lat="48.68445" lon="1.74509">
        <ele>152.60000610352</ele>
        <time>2014-06-21T10:53:28.000Z</time>
      </trkpt>
      <trkpt lat="48.68429" lon="1.74516">
        <ele>152.60000610352</ele>
        <time>2014-06-21T10:53:38.000Z</time>
      </trkpt>
      <trkpt lat="48.68421" lon="1.74522">
        <ele>153.39999389648</ele>
        <time>2014-06-21T10:53:44.000Z</time>
      </trkpt>
      <trkpt lat="48.68413" lon="1.74529">
        <ele>154.39999389648</ele>
        <time>2014-06-21T10:53:51.000Z</time>
      </trkpt>
      <trkpt lat="48.68407" lon="1.74533">
        <ele>155.19999694824</ele>
        <time>2014-06-21T10:53:56.000Z</time>
      </trkpt>
      <trkpt lat="48.68406" lon="1.74534">
        <ele>155.19999694824</ele>
        <time>2014-06-21T10:53:57.000Z</time>
      </trkpt>
      <trkpt lat="48.68401" lon="1.7454">
        <ele>155.39999389648</ele>
        <time>2014-06-21T10:54:03.000Z</time>
      </trkpt>
      <trkpt lat="48.68397" lon="1.74547">
        <ele>155.19999694824</ele>
        <time>2014-06-21T10:54:08.000Z</time>
      </trkpt>
      <trkpt lat="48.68397" lon="1.74549">
        <ele>155</ele>
        <time>2014-06-21T10:54:11.000Z</time>
      </trkpt>
      <trkpt lat="48.68392" lon="1.74555">
        <ele>154.80000305176</ele>
        <time>2014-06-21T10:54:17.000Z</time>
      </trkpt>
      <trkpt lat="48.68389" lon="1.74552">
        <ele>154.80000305176</ele>
        <time>2014-06-21T10:54:31.000Z</time>
      </trkpt>
      <trkpt lat="48.68395" lon="1.74547">
        <ele>155.19999694824</ele>
        <time>2014-06-21T10:54:35.000Z</time>
      </trkpt>
      <trkpt lat="48.684" lon="1.74543">
        <ele>155.39999389648</ele>
        <time>2014-06-21T10:54:41.000Z</time>
      </trkpt>
      <trkpt lat="48.68398" lon="1.74546">
        <ele>155.19999694824</ele>
        <time>2014-06-21T10:54:45.000Z</time>
      </trkpt>
      <trkpt lat="48.68394" lon="1.74551">
        <ele>155</ele>
        <time>2014-06-21T10:54:51.000Z</time>
      </trkpt>
      <trkpt lat="48.68389" lon="1.74558">
        <ele>154.60000610352</ele>
        <time>2014-06-21T10:54:57.000Z</time>
      </trkpt>
      <trkpt lat="48.68388" lon="1.74561">
        <ele>154.39999389648</ele>
        <time>2014-06-21T10:54:59.000Z</time>
      </trkpt>
      <trkpt lat="48.68385" lon="1.74568">
        <ele>154.19999694824</ele>
        <time>2014-06-21T10:55:03.000Z</time>
      </trkpt>
      <trkpt lat="48.68379" lon="1.7458">
        <ele>154.60000610352</ele>
        <time>2014-06-21T10:55:09.000Z</time>
      </trkpt>
      <trkpt lat="48.68374" lon="1.74587">
        <ele>155</ele>
        <time>2014-06-21T10:55:13.000Z</time>
      </trkpt>
      <trkpt lat="48.68372" lon="1.7459">
        <ele>155.19999694824</ele>
        <time>2014-06-21T10:55:15.000Z</time>
      </trkpt>
      <trkpt lat="48.68369" lon="1.74598">
        <ele>154.80000305176</ele>
        <time>2014-06-21T10:55:21.000Z</time>
      </trkpt>
      <trkpt lat="48.68368" lon="1.74604">
        <ele>154.60000610352</ele>
        <time>2014-06-21T10:55:25.000Z</time>
      </trkpt>
      <trkpt lat="48.68365" lon="1.74612">
        <ele>154.39999389648</ele>
        <time>2014-06-21T10:55:30.000Z</time>
      </trkpt>
      <trkpt lat="48.68367" lon="1.74618">
        <ele>154.39999389648</ele>
        <time>2014-06-21T10:55:34.000Z</time>
      </trkpt>
      <trkpt lat="48.68369" lon="1.74626">
        <ele>154.39999389648</ele>
        <time>2014-06-21T10:55:40.000Z</time>
      </trkpt>
      <trkpt lat="48.68359" lon="1.74643">
        <ele>153.60000610352</ele>
        <time>2014-06-21T10:55:48.000Z</time>
      </trkpt>
      <trkpt lat="48.68353" lon="1.74656">
        <ele>153</ele>
        <time>2014-06-21T10:55:54.000Z</time>
      </trkpt>
      <trkpt lat="48.68351" lon="1.7466">
        <ele>153.39999389648</ele>
        <time>2014-06-21T10:55:56.000Z</time>
      </trkpt>
      <trkpt lat="48.68346" lon="1.74674">
        <ele>154.19999694824</ele>
        <time>2014-06-21T10:56:02.000Z</time>
      </trkpt>
      <trkpt lat="48.68343" lon="1.7468">
        <ele>154.60000610352</ele>
        <time>2014-06-21T10:56:05.000Z</time>
      </trkpt>
      <trkpt lat="48.68339" lon="1.74688">
        <ele>155.19999694824</ele>
        <time>2014-06-21T10:56:09.000Z</time>
      </trkpt>
      <trkpt lat="48.68334" lon="1.74699">
        <ele>156</ele>
        <time>2014-06-21T10:56:14.000Z</time>
      </trkpt>
      <trkpt lat="48.68327" lon="1.74709">
        <ele>156.80000305176</ele>
        <time>2014-06-21T10:56:20.000Z</time>
      </trkpt>
      <trkpt lat="48.6832" lon="1.74716">
        <ele>156.60000610352</ele>
        <time>2014-06-21T10:56:26.000Z</time>
      </trkpt>
      <trkpt lat="48.68316" lon="1.74726">
        <ele>155.80000305176</ele>
        <time>2014-06-21T10:56:32.000Z</time>
      </trkpt>
      <trkpt lat="48.68313" lon="1.74733">
        <ele>155.39999389648</ele>
        <time>2014-06-21T10:56:37.000Z</time>
      </trkpt>
      <trkpt lat="48.68311" lon="1.74739">
        <ele>155</ele>
        <time>2014-06-21T10:56:41.000Z</time>
      </trkpt>
      <trkpt lat="48.68308" lon="1.74745">
        <ele>155.19999694824</ele>
        <time>2014-06-21T10:56:46.000Z</time>
      </trkpt>
      <trkpt lat="48.68301" lon="1.74754">
        <ele>155.60000610352</ele>
        <time>2014-06-21T10:56:52.000Z</time>
      </trkpt>
      <trkpt lat="48.68299" lon="1.74756">
        <ele>155.60000610352</ele>
        <time>2014-06-21T10:56:54.000Z</time>
      </trkpt>
      <trkpt lat="48.68297" lon="1.7476">
        <ele>155.80000305176</ele>
        <time>2014-06-21T10:56:56.000Z</time>
      </trkpt>
      <trkpt lat="48.68291" lon="1.74766">
        <ele>155.39999389648</ele>
        <time>2014-06-21T10:57:01.000Z</time>
      </trkpt>
      <trkpt lat="48.6829" lon="1.74771">
        <ele>155.19999694824</ele>
        <time>2014-06-21T10:57:04.000Z</time>
      </trkpt>
      <trkpt lat="48.68284" lon="1.74783">
        <ele>154.19999694824</ele>
        <time>2014-06-21T10:57:11.000Z</time>
      </trkpt>
      <trkpt lat="48.6828" lon="1.74793">
        <ele>153.60000610352</ele>
        <time>2014-06-21T10:57:17.000Z</time>
      </trkpt>
      <trkpt lat="48.68275" lon="1.74808">
        <ele>152.80000305176</ele>
        <time>2014-06-21T10:57:25.000Z</time>
      </trkpt>
      <trkpt lat="48.68273" lon="1.74815">
        <ele>152.39999389648</ele>
        <time>2014-06-21T10:57:30.000Z</time>
      </trkpt>
      <trkpt lat="48.68269" lon="1.74822">
        <ele>152</ele>
        <time>2014-06-21T10:57:35.000Z</time>
      </trkpt>
      <trkpt lat="48.68267" lon="1.74826">
        <ele>152.19999694824</ele>
        <time>2014-06-21T10:57:37.000Z</time>
      </trkpt>
      <trkpt lat="48.68265" lon="1.74831">
        <ele>152.39999389648</ele>
        <time>2014-06-21T10:57:39.000Z</time>
      </trkpt>
      <trkpt lat="48.68261" lon="1.74838">
        <ele>152.60000610352</ele>
        <time>2014-06-21T10:57:48.000Z</time>
      </trkpt>
      <trkpt lat="48.68261" lon="1.74838">
        <ele>152.60000610352</ele>
        <time>2014-06-21T10:57:50.000Z</time>
      </trkpt>
      <trkpt lat="48.68251" lon="1.74841">
        <ele>153.19999694824</ele>
        <time>2014-06-21T10:58:09.000Z</time>
      </trkpt>
      <trkpt lat="48.68245" lon="1.74851">
        <ele>153.39999389648</ele>
        <time>2014-06-21T10:58:15.000Z</time>
      </trkpt>
      <trkpt lat="48.68243" lon="1.74856">
        <ele>153.60000610352</ele>
        <time>2014-06-21T10:58:18.000Z</time>
      </trkpt>
      <trkpt lat="48.68245" lon="1.74866">
        <ele>153.39999389648</ele>
        <time>2014-06-21T10:58:25.000Z</time>
      </trkpt>
      <trkpt lat="48.68245" lon="1.74868">
        <ele>153.39999389648</ele>
        <time>2014-06-21T10:58:26.000Z</time>
      </trkpt>
      <trkpt lat="48.68245" lon="1.74875">
        <ele>153.39999389648</ele>
        <time>2014-06-21T10:58:30.000Z</time>
      </trkpt>
      <trkpt lat="48.68241" lon="1.74888">
        <ele>152.80000305176</ele>
        <time>2014-06-21T10:58:38.000Z</time>
      </trkpt>
      <trkpt lat="48.68239" lon="1.74891">
        <ele>152.60000610352</ele>
        <time>2014-06-21T10:58:40.000Z</time>
      </trkpt>
      <trkpt lat="48.68235" lon="1.74903">
        <ele>151.60000610352</ele>
        <time>2014-06-21T10:58:46.000Z</time>
      </trkpt>
      <trkpt lat="48.68235" lon="1.74907">
        <ele>151.80000305176</ele>
        <time>2014-06-21T10:58:48.000Z</time>
      </trkpt>
      <trkpt lat="48.68231" lon="1.74918">
        <ele>152.39999389648</ele>
        <time>2014-06-21T10:58:54.000Z</time>
      </trkpt>
      <trkpt lat="48.68226" lon="1.74928">
        <ele>153</ele>
        <time>2014-06-21T10:59:00.000Z</time>
      </trkpt>
      <trkpt lat="48.68223" lon="1.74943">
        <ele>153.60000610352</ele>
        <time>2014-06-21T10:59:07.000Z</time>
      </trkpt>
      <trkpt lat="48.6822" lon="1.74958">
        <ele>153.19999694824</ele>
        <time>2014-06-21T10:59:13.000Z</time>
      </trkpt>
      <trkpt lat="48.68218" lon="1.74966">
        <ele>152.80000305176</ele>
        <time>2014-06-21T10:59:18.000Z</time>
      </trkpt>
      <trkpt lat="48.68214" lon="1.74981">
        <ele>152.39999389648</ele>
        <time>2014-06-21T10:59:26.000Z</time>
      </trkpt>
      <trkpt lat="48.68211" lon="1.74985">
        <ele>152.19999694824</ele>
        <time>2014-06-21T10:59:30.000Z</time>
      </trkpt>
      <trkpt lat="48.68208" lon="1.74997">
        <ele>152.39999389648</ele>
        <time>2014-06-21T10:59:36.000Z</time>
      </trkpt>
      <trkpt lat="48.68204" lon="1.7501">
        <ele>152.60000610352</ele>
        <time>2014-06-21T10:59:41.000Z</time>
      </trkpt>
      <trkpt lat="48.68199" lon="1.75025">
        <ele>152</ele>
        <time>2014-06-21T10:59:48.000Z</time>
      </trkpt>
      <trkpt lat="48.68193" lon="1.75034">
        <ele>151.39999389648</ele>
        <time>2014-06-21T10:59:53.000Z</time>
      </trkpt>
      <trkpt lat="48.68188" lon="1.75044">
        <ele>151</ele>
        <time>2014-06-21T10:59:58.000Z</time>
      </trkpt>
      <trkpt lat="48.68188" lon="1.75048">
        <ele>151</ele>
        <time>2014-06-21T11:00:00.000Z</time>
      </trkpt>
      <trkpt lat="48.68188" lon="1.7505">
        <ele>151</ele>
        <time>2014-06-21T11:00:03.000Z</time>
      </trkpt>
      <trkpt lat="48.68189" lon="1.75055">
        <ele>151</ele>
        <time>2014-06-21T11:00:07.000Z</time>
      </trkpt>
      <trkpt lat="48.68188" lon="1.75059">
        <ele>151.19999694824</ele>
        <time>2014-06-21T11:00:09.000Z</time>
      </trkpt>
      <trkpt lat="48.68189" lon="1.75063">
        <ele>151.39999389648</ele>
        <time>2014-06-21T11:00:13.000Z</time>
      </trkpt>
      <trkpt lat="48.68188" lon="1.75067">
        <ele>151.19999694824</ele>
        <time>2014-06-21T11:00:15.000Z</time>
      </trkpt>
      <trkpt lat="48.68188" lon="1.75071">
        <ele>151.19999694824</ele>
        <time>2014-06-21T11:00:17.000Z</time>
      </trkpt>
      <trkpt lat="48.68182" lon="1.75082">
        <ele>151.39999389648</ele>
        <time>2014-06-21T11:00:22.000Z</time>
      </trkpt>
      <trkpt lat="48.68178" lon="1.7509">
        <ele>151.60000610352</ele>
        <time>2014-06-21T11:00:25.000Z</time>
      </trkpt>
      <trkpt lat="48.68174" lon="1.75097">
        <ele>151.80000305176</ele>
        <time>2014-06-21T11:00:28.000Z</time>
      </trkpt>
      <trkpt lat="48.68165" lon="1.75103">
        <ele>151.60000610352</ele>
        <time>2014-06-21T11:00:33.000Z</time>
      </trkpt>
      <trkpt lat="48.68158" lon="1.75113">
        <ele>151.80000305176</ele>
        <time>2014-06-21T11:00:39.000Z</time>
      </trkpt>
      <trkpt lat="48.68155" lon="1.75124">
        <ele>152.19999694824</ele>
        <time>2014-06-21T11:00:46.000Z</time>
      </trkpt>
      <trkpt lat="48.68145" lon="1.7514">
        <ele>151.80000305176</ele>
        <time>2014-06-21T11:00:56.000Z</time>
      </trkpt>
      <trkpt lat="48.6814" lon="1.75149">
        <ele>151.39999389648</ele>
        <time>2014-06-21T11:01:01.000Z</time>
      </trkpt>
      <trkpt lat="48.68129" lon="1.75167">
        <ele>150.39999389648</ele>
        <time>2014-06-21T11:01:11.000Z</time>
      </trkpt>
      <trkpt lat="48.68127" lon="1.75171">
        <ele>150.39999389648</ele>
        <time>2014-06-21T11:01:13.000Z</time>
      </trkpt>
      <trkpt lat="48.6812" lon="1.7518">
        <ele>150</ele>
        <time>2014-06-21T11:01:20.000Z</time>
      </trkpt>
      <trkpt lat="48.6811" lon="1.75194">
        <ele>149.80000305176</ele>
        <time>2014-06-21T11:01:29.000Z</time>
      </trkpt>
      <trkpt lat="48.68103" lon="1.75204">
        <ele>149.80000305176</ele>
        <time>2014-06-21T11:01:36.000Z</time>
      </trkpt>
      <trkpt lat="48.68095" lon="1.75219">
        <ele>150.19999694824</ele>
        <time>2014-06-21T11:01:46.000Z</time>
      </trkpt>
      <trkpt lat="48.68088" lon="1.75233">
        <ele>150.19999694824</ele>
        <time>2014-06-21T11:01:55.000Z</time>
      </trkpt>
      <trkpt lat="48.68082" lon="1.75245">
        <ele>150</ele>
        <time>2014-06-21T11:02:03.000Z</time>
      </trkpt>
      <trkpt lat="48.68077" lon="1.7526">
        <ele>149.80000305176</ele>
        <time>2014-06-21T11:02:11.000Z</time>
      </trkpt>
      <trkpt lat="48.68076" lon="1.75267">
        <ele>149.60000610352</ele>
        <time>2014-06-21T11:02:15.000Z</time>
      </trkpt>
      <trkpt lat="48.68074" lon="1.75282">
        <ele>149.60000610352</ele>
        <time>2014-06-21T11:02:23.000Z</time>
      </trkpt>
      <trkpt lat="48.68073" lon="1.75299">
        <ele>149.60000610352</ele>
        <time>2014-06-21T11:02:31.000Z</time>
      </trkpt>
      <trkpt lat="48.68069" lon="1.75327">
        <ele>149.80000305176</ele>
        <time>2014-06-21T11:02:41.000Z</time>
      </trkpt>
      <trkpt lat="48.68068" lon="1.75338">
        <ele>149.60000610352</ele>
        <time>2014-06-21T11:02:46.000Z</time>
      </trkpt>
      <trkpt lat="48.68068" lon="1.75355">
        <ele>149.39999389648</ele>
        <time>2014-06-21T11:02:55.000Z</time>
      </trkpt>
      <trkpt lat="48.68069" lon="1.75365">
        <ele>149.19999694824</ele>
        <time>2014-06-21T11:03:00.000Z</time>
      </trkpt>
      <trkpt lat="48.68067" lon="1.75379">
        <ele>149.19999694824</ele>
        <time>2014-06-21T11:03:07.000Z</time>
      </trkpt>
      <trkpt lat="48.68063" lon="1.75399">
        <ele>149</ele>
        <time>2014-06-21T11:03:16.000Z</time>
      </trkpt>
      <trkpt lat="48.6806" lon="1.75418">
        <ele>149</ele>
        <time>2014-06-21T11:03:26.000Z</time>
      </trkpt>
      <trkpt lat="48.68057" lon="1.75433">
        <ele>148.80000305176</ele>
        <time>2014-06-21T11:03:34.000Z</time>
      </trkpt>
      <trkpt lat="48.68054" lon="1.75449">
        <ele>148.60000610352</ele>
        <time>2014-06-21T11:03:41.000Z</time>
      </trkpt>
      <trkpt lat="48.68051" lon="1.75464">
        <ele>148</ele>
        <time>2014-06-21T11:03:49.000Z</time>
      </trkpt>
      <trkpt lat="48.68048" lon="1.75483">
        <ele>147.39999389648</ele>
        <time>2014-06-21T11:03:58.000Z</time>
      </trkpt>
      <trkpt lat="48.68044" lon="1.75498">
        <ele>147.19999694824</ele>
        <time>2014-06-21T11:04:05.000Z</time>
      </trkpt>
      <trkpt lat="48.68049" lon="1.75512">
        <ele>147.39999389648</ele>
        <time>2014-06-21T11:04:13.000Z</time>
      </trkpt>
      <trkpt lat="48.68058" lon="1.7552">
        <ele>147.80000305176</ele>
        <time>2014-06-21T11:04:20.000Z</time>
      </trkpt>
      <trkpt lat="48.68066" lon="1.75526">
        <ele>148.19999694824</ele>
        <time>2014-06-21T11:04:27.000Z</time>
      </trkpt>
      <trkpt lat="48.68068" lon="1.75529">
        <ele>148.39999389648</ele>
        <time>2014-06-21T11:04:29.000Z</time>
      </trkpt>
      <trkpt lat="48.68078" lon="1.75535">
        <ele>148.80000305176</ele>
        <time>2014-06-21T11:04:37.000Z</time>
      </trkpt>
      <trkpt lat="48.68083" lon="1.75538">
        <ele>149</ele>
        <time>2014-06-21T11:04:41.000Z</time>
      </trkpt>
      <trkpt lat="48.68086" lon="1.7554">
        <ele>149.19999694824</ele>
        <time>2014-06-21T11:04:44.000Z</time>
      </trkpt>
      <trkpt lat="48.68087" lon="1.75541">
        <ele>149.19999694824</ele>
        <time>2014-06-21T11:04:48.000Z</time>
      </trkpt>
      <trkpt lat="48.68092" lon="1.75547">
        <ele>149.39999389648</ele>
        <time>2014-06-21T11:04:59.000Z</time>
      </trkpt>
      <trkpt lat="48.68098" lon="1.75552">
        <ele>149.80000305176</ele>
        <time>2014-06-21T11:05:02.000Z</time>
      </trkpt>
      <trkpt lat="48.6811" lon="1.75563">
        <ele>150.19999694824</ele>
        <time>2014-06-21T11:05:11.000Z</time>
      </trkpt>
      <trkpt lat="48.6812" lon="1.7557">
        <ele>150.39999389648</ele>
        <time>2014-06-21T11:05:18.000Z</time>
      </trkpt>
      <trkpt lat="48.68132" lon="1.75579">
        <ele>150.60000610352</ele>
        <time>2014-06-21T11:05:27.000Z</time>
      </trkpt>
      <trkpt lat="48.68144" lon="1.75587">
        <ele>151</ele>
        <time>2014-06-21T11:05:36.000Z</time>
      </trkpt>
      <trkpt lat="48.68159" lon="1.75593">
        <ele>151.39999389648</ele>
        <time>2014-06-21T11:05:46.000Z</time>
      </trkpt>
      <trkpt lat="48.68174" lon="1.756">
        <ele>151.60000610352</ele>
        <time>2014-06-21T11:05:56.000Z</time>
      </trkpt>
      <trkpt lat="48.68187" lon="1.75607">
        <ele>152</ele>
        <time>2014-06-21T11:06:06.000Z</time>
      </trkpt>
      <trkpt lat="48.68196" lon="1.75609">
        <ele>152.19999694824</ele>
        <time>2014-06-21T11:06:12.000Z</time>
      </trkpt>
      <trkpt lat="48.68208" lon="1.75613">
        <ele>152.19999694824</ele>
        <time>2014-06-21T11:06:20.000Z</time>
      </trkpt>
      <trkpt lat="48.68222" lon="1.75614">
        <ele>152.39999389648</ele>
        <time>2014-06-21T11:06:29.000Z</time>
      </trkpt>
      <trkpt lat="48.68232" lon="1.75621">
        <ele>152.60000610352</ele>
        <time>2014-06-21T11:06:37.000Z</time>
      </trkpt>
      <trkpt lat="48.68243" lon="1.75625">
        <ele>152.60000610352</ele>
        <time>2014-06-21T11:06:45.000Z</time>
      </trkpt>
      <trkpt lat="48.68246" lon="1.75627">
        <ele>152.80000305176</ele>
        <time>2014-06-21T11:06:48.000Z</time>
      </trkpt>
      <trkpt lat="48.68258" lon="1.75626">
        <ele>152.80000305176</ele>
        <time>2014-06-21T11:06:54.000Z</time>
      </trkpt>
      <trkpt lat="48.68259" lon="1.75629">
        <ele>152.80000305176</ele>
        <time>2014-06-21T11:06:56.000Z</time>
      </trkpt>
      <trkpt lat="48.68268" lon="1.75632">
        <ele>153</ele>
        <time>2014-06-21T11:07:04.000Z</time>
      </trkpt>
      <trkpt lat="48.68277" lon="1.75634">
        <ele>153</ele>
        <time>2014-06-21T11:07:10.000Z</time>
      </trkpt>
      <trkpt lat="48.68285" lon="1.75639">
        <ele>152.80000305176</ele>
        <time>2014-06-21T11:07:16.000Z</time>
      </trkpt>
      <trkpt lat="48.68289" lon="1.75639">
        <ele>152.80000305176</ele>
        <time>2014-06-21T11:07:18.000Z</time>
      </trkpt>
      <trkpt lat="48.68305" lon="1.75638">
        <ele>152.60000610352</ele>
        <time>2014-06-21T11:07:25.000Z</time>
      </trkpt>
      <trkpt lat="48.6832" lon="1.75636">
        <ele>152.39999389648</ele>
        <time>2014-06-21T11:07:33.000Z</time>
      </trkpt>
      <trkpt lat="48.68327" lon="1.75639">
        <ele>152.39999389648</ele>
        <time>2014-06-21T11:07:40.000Z</time>
      </trkpt>
      <trkpt lat="48.68335" lon="1.75637">
        <ele>152.19999694824</ele>
        <time>2014-06-21T11:07:49.000Z</time>
      </trkpt>
      <trkpt lat="48.68341" lon="1.75632">
        <ele>152.19999694824</ele>
        <time>2014-06-21T11:07:56.000Z</time>
      </trkpt>
      <trkpt lat="48.68349" lon="1.75628">
        <ele>152.39999389648</ele>
        <time>2014-06-21T11:08:03.000Z</time>
      </trkpt>
      <trkpt lat="48.6836" lon="1.75619">
        <ele>152.60000610352</ele>
        <time>2014-06-21T11:08:12.000Z</time>
      </trkpt>
      <trkpt lat="48.68367" lon="1.75615">
        <ele>152.80000305176</ele>
        <time>2014-06-21T11:08:18.000Z</time>
      </trkpt>
      <trkpt lat="48.68375" lon="1.75611">
        <ele>153</ele>
        <time>2014-06-21T11:08:25.000Z</time>
      </trkpt>
      <trkpt lat="48.68381" lon="1.75607">
        <ele>153.19999694824</ele>
        <time>2014-06-21T11:08:29.000Z</time>
      </trkpt>
      <trkpt lat="48.68387" lon="1.75601">
        <ele>153.39999389648</ele>
        <time>2014-06-21T11:08:35.000Z</time>
      </trkpt>
      <trkpt lat="48.68394" lon="1.75596">
        <ele>153.60000610352</ele>
        <time>2014-06-21T11:08:41.000Z</time>
      </trkpt>
      <trkpt lat="48.68405" lon="1.75591">
        <ele>154</ele>
        <time>2014-06-21T11:08:48.000Z</time>
      </trkpt>
      <trkpt lat="48.68414" lon="1.75586">
        <ele>154.19999694824</ele>
        <time>2014-06-21T11:08:55.000Z</time>
      </trkpt>
      <trkpt lat="48.68424" lon="1.75578">
        <ele>154.60000610352</ele>
        <time>2014-06-21T11:09:04.000Z</time>
      </trkpt>
      <trkpt lat="48.68437" lon="1.75569">
        <ele>155.19999694824</ele>
        <time>2014-06-21T11:09:10.000Z</time>
      </trkpt>
      <trkpt lat="48.68453" lon="1.7556">
        <ele>155.80000305176</ele>
        <time>2014-06-21T11:09:17.000Z</time>
      </trkpt>
      <trkpt lat="48.6846" lon="1.75555">
        <ele>156.19999694824</ele>
        <time>2014-06-21T11:09:23.000Z</time>
      </trkpt>
      <trkpt lat="48.68472" lon="1.75548">
        <ele>156.60000610352</ele>
        <time>2014-06-21T11:09:31.000Z</time>
      </trkpt>
      <trkpt lat="48.68479" lon="1.75544">
        <ele>157</ele>
        <time>2014-06-21T11:09:37.000Z</time>
      </trkpt>
      <trkpt lat="48.6849" lon="1.75541">
        <ele>157.19999694824</ele>
        <time>2014-06-21T11:09:44.000Z</time>
      </trkpt>
      <trkpt lat="48.68498" lon="1.75536">
        <ele>157.19999694824</ele>
        <time>2014-06-21T11:09:49.000Z</time>
      </trkpt>
      <trkpt lat="48.68508" lon="1.75533">
        <ele>157</ele>
        <time>2014-06-21T11:09:56.000Z</time>
      </trkpt>
      <trkpt lat="48.68514" lon="1.75529">
        <ele>157.19999694824</ele>
        <time>2014-06-21T11:10:01.000Z</time>
      </trkpt>
      <trkpt lat="48.68516" lon="1.75536">
        <ele>156.80000305176</ele>
        <time>2014-06-21T11:10:06.000Z</time>
      </trkpt>
      <trkpt lat="48.68516" lon="1.7555">
        <ele>156.19999694824</ele>
        <time>2014-06-21T11:10:12.000Z</time>
      </trkpt>
      <trkpt lat="48.68516" lon="1.75566">
        <ele>155.39999389648</ele>
        <time>2014-06-21T11:10:17.000Z</time>
      </trkpt>
      <trkpt lat="48.68517" lon="1.75586">
        <ele>155</ele>
        <time>2014-06-21T11:10:25.000Z</time>
      </trkpt>
      <trkpt lat="48.68517" lon="1.75593">
        <ele>155</ele>
        <time>2014-06-21T11:10:28.000Z</time>
      </trkpt>
      <trkpt lat="48.6852" lon="1.75605">
        <ele>155</ele>
        <time>2014-06-21T11:10:34.000Z</time>
      </trkpt>
      <trkpt lat="48.68522" lon="1.75619">
        <ele>155</ele>
        <time>2014-06-21T11:10:41.000Z</time>
      </trkpt>
      <trkpt lat="48.68523" lon="1.75621">
        <ele>155.19999694824</ele>
        <time>2014-06-21T11:10:44.000Z</time>
      </trkpt>
      <trkpt lat="48.68525" lon="1.75629">
        <ele>155.19999694824</ele>
        <time>2014-06-21T11:10:51.000Z</time>
      </trkpt>
      <trkpt lat="48.68526" lon="1.75637">
        <ele>155.19999694824</ele>
        <time>2014-06-21T11:10:54.000Z</time>
      </trkpt>
      <trkpt lat="48.68527" lon="1.75653">
        <ele>155.19999694824</ele>
        <time>2014-06-21T11:11:00.000Z</time>
      </trkpt>
      <trkpt lat="48.68528" lon="1.75669">
        <ele>155</ele>
        <time>2014-06-21T11:11:06.000Z</time>
      </trkpt>
      <trkpt lat="48.68529" lon="1.7568">
        <ele>154.80000305176</ele>
        <time>2014-06-21T11:11:11.000Z</time>
      </trkpt>
      <trkpt lat="48.6853" lon="1.75699">
        <ele>154.19999694824</ele>
        <time>2014-06-21T11:11:18.000Z</time>
      </trkpt>
      <trkpt lat="48.68534" lon="1.75718">
        <ele>154</ele>
        <time>2014-06-21T11:11:26.000Z</time>
      </trkpt>
      <trkpt lat="48.68537" lon="1.75728">
        <ele>153.80000305176</ele>
        <time>2014-06-21T11:11:33.000Z</time>
      </trkpt>
      <trkpt lat="48.68537" lon="1.75732">
        <ele>153.80000305176</ele>
        <time>2014-06-21T11:11:35.000Z</time>
      </trkpt>
      <trkpt lat="48.68539" lon="1.75742">
        <ele>153.60000610352</ele>
        <time>2014-06-21T11:11:40.000Z</time>
      </trkpt>
      <trkpt lat="48.68541" lon="1.75763">
        <ele>153.19999694824</ele>
        <time>2014-06-21T11:11:49.000Z</time>
      </trkpt>
      <trkpt lat="48.68544" lon="1.75779">
        <ele>153</ele>
        <time>2014-06-21T11:11:56.000Z</time>
      </trkpt>
      <trkpt lat="48.68546" lon="1.75795">
        <ele>153</ele>
        <time>2014-06-21T11:12:04.000Z</time>
      </trkpt>
      <trkpt lat="48.68553" lon="1.75809">
        <ele>153</ele>
        <time>2014-06-21T11:12:12.000Z</time>
      </trkpt>
      <trkpt lat="48.68562" lon="1.75811">
        <ele>153.19999694824</ele>
        <time>2014-06-21T11:12:19.000Z</time>
      </trkpt>
      <trkpt lat="48.68573" lon="1.75806">
        <ele>153.39999389648</ele>
        <time>2014-06-21T11:12:28.000Z</time>
      </trkpt>
      <trkpt lat="48.68579" lon="1.75803">
        <ele>153.60000610352</ele>
        <time>2014-06-21T11:12:33.000Z</time>
      </trkpt>
      <trkpt lat="48.68588" lon="1.75795">
        <ele>154</ele>
        <time>2014-06-21T11:12:40.000Z</time>
      </trkpt>
      <trkpt lat="48.68595" lon="1.75788">
        <ele>154.60000610352</ele>
        <time>2014-06-21T11:12:46.000Z</time>
      </trkpt>
      <trkpt lat="48.68605" lon="1.75785">
        <ele>155</ele>
        <time>2014-06-21T11:12:53.000Z</time>
      </trkpt>
      <trkpt lat="48.68615" lon="1.75786">
        <ele>155.39999389648</ele>
        <time>2014-06-21T11:13:01.000Z</time>
      </trkpt>
      <trkpt lat="48.68623" lon="1.75787">
        <ele>155.80000305176</ele>
        <time>2014-06-21T11:13:06.000Z</time>
      </trkpt>
      <trkpt lat="48.68639" lon="1.75786">
        <ele>156.60000610352</ele>
        <time>2014-06-21T11:13:15.000Z</time>
      </trkpt>
      <trkpt lat="48.68653" lon="1.75787">
        <ele>157.19999694824</ele>
        <time>2014-06-21T11:13:22.000Z</time>
      </trkpt>
      <trkpt lat="48.68666" lon="1.75788">
        <ele>157.60000610352</ele>
        <time>2014-06-21T11:13:31.000Z</time>
      </trkpt>
      <trkpt lat="48.68675" lon="1.75787">
        <ele>158</ele>
        <time>2014-06-21T11:13:38.000Z</time>
      </trkpt>
      <trkpt lat="48.68682" lon="1.75788">
        <ele>158.19999694824</ele>
        <time>2014-06-21T11:13:43.000Z</time>
      </trkpt>
      <trkpt lat="48.68688" lon="1.75788">
        <ele>158.39999389648</ele>
        <time>2014-06-21T11:13:48.000Z</time>
      </trkpt>
      <trkpt lat="48.68699" lon="1.75786">
        <ele>158.80000305176</ele>
        <time>2014-06-21T11:13:55.000Z</time>
      </trkpt>
      <trkpt lat="48.68709" lon="1.75783">
        <ele>159.19999694824</ele>
        <time>2014-06-21T11:14:02.000Z</time>
      </trkpt>
      <trkpt lat="48.6872" lon="1.75779">
        <ele>159.80000305176</ele>
        <time>2014-06-21T11:14:10.000Z</time>
      </trkpt>
      <trkpt lat="48.68732" lon="1.75774">
        <ele>160</ele>
        <time>2014-06-21T11:14:19.000Z</time>
      </trkpt>
      <trkpt lat="48.68744" lon="1.7577">
        <ele>160</ele>
        <time>2014-06-21T11:14:27.000Z</time>
      </trkpt>
      <trkpt lat="48.68754" lon="1.75768">
        <ele>160.19999694824</ele>
        <time>2014-06-21T11:14:34.000Z</time>
      </trkpt>
      <trkpt lat="48.68755" lon="1.75768">
        <ele>160.19999694824</ele>
        <time>2014-06-21T11:14:35.000Z</time>
      </trkpt>
      <trkpt lat="48.68762" lon="1.75767">
        <ele>160.19999694824</ele>
        <time>2014-06-21T11:14:40.000Z</time>
      </trkpt>
      <trkpt lat="48.68776" lon="1.75767">
        <ele>160.60000610352</ele>
        <time>2014-06-21T11:14:48.000Z</time>
      </trkpt>
      <trkpt lat="48.68787" lon="1.75769">
        <ele>161</ele>
        <time>2014-06-21T11:14:56.000Z</time>
      </trkpt>
      <trkpt lat="48.68799" lon="1.75774">
        <ele>161.39999389648</ele>
        <time>2014-06-21T11:15:05.000Z</time>
      </trkpt>
      <trkpt lat="48.68809" lon="1.75775">
        <ele>161.80000305176</ele>
        <time>2014-06-21T11:15:12.000Z</time>
      </trkpt>
      <trkpt lat="48.6882" lon="1.75778">
        <ele>162.19999694824</ele>
        <time>2014-06-21T11:15:20.000Z</time>
      </trkpt>
      <trkpt lat="48.68822" lon="1.75779">
        <ele>162.39999389648</ele>
        <time>2014-06-21T11:15:21.000Z</time>
      </trkpt>
      <trkpt lat="48.68829" lon="1.75785">
        <ele>162.60000610352</ele>
        <time>2014-06-21T11:15:27.000Z</time>
      </trkpt>
      <trkpt lat="48.68832" lon="1.7579">
        <ele>162.80000305176</ele>
        <time>2014-06-21T11:15:30.000Z</time>
      </trkpt>
      <trkpt lat="48.68831" lon="1.7581">
        <ele>163</ele>
        <time>2014-06-21T11:15:39.000Z</time>
      </trkpt>
      <trkpt lat="48.68829" lon="1.75823">
        <ele>163.19999694824</ele>
        <time>2014-06-21T11:15:45.000Z</time>
      </trkpt>
      <trkpt lat="48.68825" lon="1.75843">
        <ele>163</ele>
        <time>2014-06-21T11:15:54.000Z</time>
      </trkpt>
      <trkpt lat="48.68824" lon="1.75854">
        <ele>163</ele>
        <time>2014-06-21T11:15:59.000Z</time>
      </trkpt>
      <trkpt lat="48.68823" lon="1.75862">
        <ele>163</ele>
        <time>2014-06-21T11:16:05.000Z</time>
      </trkpt>
      <trkpt lat="48.68822" lon="1.75864">
        <ele>162.80000305176</ele>
        <time>2014-06-21T11:16:06.000Z</time>
      </trkpt>
      <trkpt lat="48.68817" lon="1.75884">
        <ele>163</ele>
        <time>2014-06-21T11:16:14.000Z</time>
      </trkpt>
      <trkpt lat="48.68812" lon="1.75902">
        <ele>163.39999389648</ele>
        <time>2014-06-21T11:16:22.000Z</time>
      </trkpt>
      <trkpt lat="48.68809" lon="1.75918">
        <ele>163.80000305176</ele>
        <time>2014-06-21T11:16:30.000Z</time>
      </trkpt>
      <trkpt lat="48.68806" lon="1.75934">
        <ele>164.19999694824</ele>
        <time>2014-06-21T11:16:38.000Z</time>
      </trkpt>
      <trkpt lat="48.68803" lon="1.75949">
        <ele>164.19999694824</ele>
        <time>2014-06-21T11:16:45.000Z</time>
      </trkpt>
      <trkpt lat="48.68801" lon="1.75964">
        <ele>164.19999694824</ele>
        <time>2014-06-21T11:16:52.000Z</time>
      </trkpt>
      <trkpt lat="48.68799" lon="1.75979">
        <ele>164</ele>
        <time>2014-06-21T11:17:00.000Z</time>
      </trkpt>
      <trkpt lat="48.68797" lon="1.75986">
        <ele>164</ele>
        <time>2014-06-21T11:17:04.000Z</time>
      </trkpt>
      <trkpt lat="48.68791" lon="1.75998">
        <ele>163.80000305176</ele>
        <time>2014-06-21T11:17:12.000Z</time>
      </trkpt>
      <trkpt lat="48.68791" lon="1.76002">
        <ele>164</ele>
        <time>2014-06-21T11:17:14.000Z</time>
      </trkpt>
      <trkpt lat="48.6879" lon="1.76011">
        <ele>164</ele>
        <time>2014-06-21T11:17:20.000Z</time>
      </trkpt>
      <trkpt lat="48.68789" lon="1.76015">
        <ele>164</ele>
        <time>2014-06-21T11:17:22.000Z</time>
      </trkpt>
      <trkpt lat="48.68786" lon="1.7603">
        <ele>164</ele>
        <time>2014-06-21T11:17:30.000Z</time>
      </trkpt>
      <trkpt lat="48.68784" lon="1.76045">
        <ele>164.19999694824</ele>
        <time>2014-06-21T11:17:38.000Z</time>
      </trkpt>
      <trkpt lat="48.68782" lon="1.7606">
        <ele>164.19999694824</ele>
        <time>2014-06-21T11:17:46.000Z</time>
      </trkpt>
      <trkpt lat="48.68783" lon="1.76068">
        <ele>164.39999389648</ele>
        <time>2014-06-21T11:17:50.000Z</time>
      </trkpt>
      <trkpt lat="48.6879" lon="1.76074">
        <ele>164.80000305176</ele>
        <time>2014-06-21T11:17:56.000Z</time>
      </trkpt>
      <trkpt lat="48.68792" lon="1.76075">
        <ele>165</ele>
        <time>2014-06-21T11:17:57.000Z</time>
      </trkpt>
      <trkpt lat="48.688" lon="1.76079">
        <ele>165.39999389648</ele>
        <time>2014-06-21T11:18:04.000Z</time>
      </trkpt>
      <trkpt lat="48.68806" lon="1.76083">
        <ele>165.80000305176</ele>
        <time>2014-06-21T11:18:10.000Z</time>
      </trkpt>
      <trkpt lat="48.68809" lon="1.76084">
        <ele>166</ele>
        <time>2014-06-21T11:18:13.000Z</time>
      </trkpt>
      <trkpt lat="48.68817" lon="1.76087">
        <ele>166.19999694824</ele>
        <time>2014-06-21T11:18:20.000Z</time>
      </trkpt>
      <trkpt lat="48.68826" lon="1.76092">
        <ele>166.80000305176</ele>
        <time>2014-06-21T11:18:28.000Z</time>
      </trkpt>
      <trkpt lat="48.68837" lon="1.76094">
        <ele>167.19999694824</ele>
        <time>2014-06-21T11:18:36.000Z</time>
      </trkpt>
      <trkpt lat="48.68849" lon="1.76094">
        <ele>167.60000610352</ele>
        <time>2014-06-21T11:18:42.000Z</time>
      </trkpt>
      <trkpt lat="48.6886" lon="1.76096">
        <ele>168.39999389648</ele>
        <time>2014-06-21T11:18:51.000Z</time>
      </trkpt>
      <trkpt lat="48.68861" lon="1.76097">
        <ele>168.39999389648</ele>
        <time>2014-06-21T11:18:52.000Z</time>
      </trkpt>
      <trkpt lat="48.68874" lon="1.76102">
        <ele>169.60000610352</ele>
        <time>2014-06-21T11:18:59.000Z</time>
      </trkpt>
      <trkpt lat="48.68881" lon="1.76101">
        <ele>170</ele>
        <time>2014-06-21T11:19:05.000Z</time>
      </trkpt>
      <trkpt lat="48.68882" lon="1.76101">
        <ele>170.19999694824</ele>
        <time>2014-06-21T11:19:06.000Z</time>
      </trkpt>
      <trkpt lat="48.68891" lon="1.761">
        <ele>170.60000610352</ele>
        <time>2014-06-21T11:19:13.000Z</time>
      </trkpt>
      <trkpt lat="48.689" lon="1.76103">
        <ele>171.39999389648</ele>
        <time>2014-06-21T11:19:20.000Z</time>
      </trkpt>
      <trkpt lat="48.68908" lon="1.76106">
        <ele>172</ele>
        <time>2014-06-21T11:19:27.000Z</time>
      </trkpt>
      <trkpt lat="48.6891" lon="1.76106">
        <ele>172.19999694824</ele>
        <time>2014-06-21T11:19:31.000Z</time>
      </trkpt>
      <trkpt lat="48.68911" lon="1.76107">
        <ele>172.19999694824</ele>
        <time>2014-06-21T11:19:34.000Z</time>
      </trkpt>
      <trkpt lat="48.68916" lon="1.76107">
        <ele>172.60000610352</ele>
        <time>2014-06-21T11:19:36.000Z</time>
      </trkpt>
      <trkpt lat="48.68922" lon="1.76108">
        <ele>173</ele>
        <time>2014-06-21T11:19:41.000Z</time>
      </trkpt>
      <trkpt lat="48.68931" lon="1.76112">
        <ele>173.60000610352</ele>
        <time>2014-06-21T11:19:46.000Z</time>
      </trkpt>
      <trkpt lat="48.68943" lon="1.76112">
        <ele>174.39999389648</ele>
        <time>2014-06-21T11:19:52.000Z</time>
      </trkpt>
      <trkpt lat="48.68952" lon="1.76116">
        <ele>175.39999389648</ele>
        <time>2014-06-21T11:20:00.000Z</time>
      </trkpt>
      <trkpt lat="48.68961" lon="1.76117">
        <ele>176.19999694824</ele>
        <time>2014-06-21T11:20:05.000Z</time>
      </trkpt>
      <trkpt lat="48.68965" lon="1.76121">
        <ele>176.80000305176</ele>
        <time>2014-06-21T11:20:08.000Z</time>
      </trkpt>
      <trkpt lat="48.68972" lon="1.76129">
        <ele>177.80000305176</ele>
        <time>2014-06-21T11:20:15.000Z</time>
      </trkpt>
      <trkpt lat="48.68976" lon="1.76131">
        <ele>178.19999694824</ele>
        <time>2014-06-21T11:20:19.000Z</time>
      </trkpt>
      <trkpt lat="48.68983" lon="1.76133">
        <ele>178.80000305176</ele>
        <time>2014-06-21T11:20:25.000Z</time>
      </trkpt>
      <trkpt lat="48.68989" lon="1.76134">
        <ele>179.39999389648</ele>
        <time>2014-06-21T11:20:29.000Z</time>
      </trkpt>
      <trkpt lat="48.68991" lon="1.76135">
        <ele>179.80000305176</ele>
        <time>2014-06-21T11:20:31.000Z</time>
      </trkpt>
      <trkpt lat="48.69002" lon="1.76146">
        <ele>181.19999694824</ele>
        <time>2014-06-21T11:20:39.000Z</time>
      </trkpt>
      <trkpt lat="48.69003" lon="1.76147">
        <ele>181.19999694824</ele>
        <time>2014-06-21T11:20:40.000Z</time>
      </trkpt>
      <trkpt lat="48.69007" lon="1.76152">
        <ele>181.80000305176</ele>
        <time>2014-06-21T11:20:44.000Z</time>
      </trkpt>
      <trkpt lat="48.69011" lon="1.76155">
        <ele>182.19999694824</ele>
        <time>2014-06-21T11:20:48.000Z</time>
      </trkpt>
      <trkpt lat="48.69016" lon="1.76158">
        <ele>182.60000610352</ele>
        <time>2014-06-21T11:20:52.000Z</time>
      </trkpt>
      <trkpt lat="48.69022" lon="1.7616">
        <ele>183</ele>
        <time>2014-06-21T11:20:58.000Z</time>
      </trkpt>
      <trkpt lat="48.69026" lon="1.7616">
        <ele>183</ele>
        <time>2014-06-21T11:21:00.000Z</time>
      </trkpt>
      <trkpt lat="48.69031" lon="1.76164">
        <ele>183.19999694824</ele>
        <time>2014-06-21T11:21:06.000Z</time>
      </trkpt>
      <trkpt lat="48.69034" lon="1.76167">
        <ele>183.19999694824</ele>
        <time>2014-06-21T11:21:08.000Z</time>
      </trkpt>
      <trkpt lat="48.69041" lon="1.76172">
        <ele>183.19999694824</ele>
        <time>2014-06-21T11:21:12.000Z</time>
      </trkpt>
      <trkpt lat="48.69047" lon="1.76177">
        <ele>183.19999694824</ele>
        <time>2014-06-21T11:21:17.000Z</time>
      </trkpt>
      <trkpt lat="48.6905" lon="1.7618">
        <ele>183.19999694824</ele>
        <time>2014-06-21T11:21:20.000Z</time>
      </trkpt>
      <trkpt lat="48.69055" lon="1.76185">
        <ele>183.39999389648</ele>
        <time>2014-06-21T11:21:25.000Z</time>
      </trkpt>
      <trkpt lat="48.69061" lon="1.7619">
        <ele>183.39999389648</ele>
        <time>2014-06-21T11:21:31.000Z</time>
      </trkpt>
      <trkpt lat="48.69071" lon="1.76198">
        <ele>183.39999389648</ele>
        <time>2014-06-21T11:21:39.000Z</time>
      </trkpt>
      <trkpt lat="48.69076" lon="1.762">
        <ele>183.39999389648</ele>
        <time>2014-06-21T11:21:43.000Z</time>
      </trkpt>
      <trkpt lat="48.69085" lon="1.76208">
        <ele>183.60000610352</ele>
        <time>2014-06-21T11:21:49.000Z</time>
      </trkpt>
      <trkpt lat="48.69089" lon="1.76211">
        <ele>183.60000610352</ele>
        <time>2014-06-21T11:21:51.000Z</time>
      </trkpt>
      <trkpt lat="48.69109" lon="1.76218">
        <ele>183.39999389648</ele>
        <time>2014-06-21T11:21:57.000Z</time>
      </trkpt>
      <trkpt lat="48.69124" lon="1.76227">
        <ele>183.39999389648</ele>
        <time>2014-06-21T11:22:02.000Z</time>
      </trkpt>
      <trkpt lat="48.69144" lon="1.76237">
        <ele>183.39999389648</ele>
        <time>2014-06-21T11:22:08.000Z</time>
      </trkpt>
      <trkpt lat="48.69163" lon="1.76249">
        <ele>183.19999694824</ele>
        <time>2014-06-21T11:22:14.000Z</time>
      </trkpt>
      <trkpt lat="48.69179" lon="1.76258">
        <ele>183</ele>
        <time>2014-06-21T11:22:20.000Z</time>
      </trkpt>
      <trkpt lat="48.69194" lon="1.76267">
        <ele>182.80000305176</ele>
        <time>2014-06-21T11:22:26.000Z</time>
      </trkpt>
      <trkpt lat="48.69203" lon="1.76274">
        <ele>182.60000610352</ele>
        <time>2014-06-21T11:22:30.000Z</time>
      </trkpt>
      <trkpt lat="48.69211" lon="1.76276">
        <ele>182.39999389648</ele>
        <time>2014-06-21T11:22:35.000Z</time>
      </trkpt>
      <trkpt lat="48.69223" lon="1.76284">
        <ele>182.19999694824</ele>
        <time>2014-06-21T11:22:42.000Z</time>
      </trkpt>
      <trkpt lat="48.69234" lon="1.76291">
        <ele>181.80000305176</ele>
        <time>2014-06-21T11:22:46.000Z</time>
      </trkpt>
      <trkpt lat="48.69255" lon="1.76307">
        <ele>181.39999389648</ele>
        <time>2014-06-21T11:22:53.000Z</time>
      </trkpt>
      <trkpt lat="48.69272" lon="1.76317">
        <ele>181</ele>
        <time>2014-06-21T11:22:59.000Z</time>
      </trkpt>
      <trkpt lat="48.69281" lon="1.76321">
        <ele>181.19999694824</ele>
        <time>2014-06-21T11:23:03.000Z</time>
      </trkpt>
      <trkpt lat="48.6929" lon="1.76317">
        <ele>181.19999694824</ele>
        <time>2014-06-21T11:23:07.000Z</time>
      </trkpt>
      <trkpt lat="48.69308" lon="1.76299">
        <ele>181.80000305176</ele>
        <time>2014-06-21T11:23:14.000Z</time>
      </trkpt>
      <trkpt lat="48.69309" lon="1.76293">
        <ele>181.80000305176</ele>
        <time>2014-06-21T11:23:20.000Z</time>
      </trkpt>
      <trkpt lat="48.6931" lon="1.76292">
        <ele>181.80000305176</ele>
        <time>2014-06-21T11:23:22.000Z</time>
      </trkpt>
      <trkpt lat="48.69315" lon="1.76299">
        <ele>181.80000305176</ele>
        <time>2014-06-21T11:24:05.000Z</time>
      </trkpt>
      <trkpt lat="48.69321" lon="1.76292">
        <ele>182</ele>
        <time>2014-06-21T11:24:09.000Z</time>
      </trkpt>
      <trkpt lat="48.69322" lon="1.7629">
        <ele>182</ele>
        <time>2014-06-21T11:24:14.000Z</time>
      </trkpt>
      <trkpt lat="48.69328" lon="1.76273">
        <ele>182.19999694824</ele>
        <time>2014-06-21T11:24:43.000Z</time>
      </trkpt>
      <trkpt lat="48.69336" lon="1.76262">
        <ele>182.60000610352</ele>
        <time>2014-06-21T11:24:49.000Z</time>
      </trkpt>
      <trkpt lat="48.69339" lon="1.76258">
        <ele>182.60000610352</ele>
        <time>2014-06-21T11:24:52.000Z</time>
      </trkpt>
      <trkpt lat="48.69345" lon="1.7624">
        <ele>182.80000305176</ele>
        <time>2014-06-21T11:25:00.000Z</time>
      </trkpt>
      <trkpt lat="48.69346" lon="1.76239">
        <ele>183</ele>
        <time>2014-06-21T11:25:01.000Z</time>
      </trkpt>
      <trkpt lat="48.69354" lon="1.76227">
        <ele>182.80000305176</ele>
        <time>2014-06-21T11:25:07.000Z</time>
      </trkpt>
      <trkpt lat="48.69359" lon="1.76215">
        <ele>182.60000610352</ele>
        <time>2014-06-21T11:25:12.000Z</time>
      </trkpt>
      <trkpt lat="48.69362" lon="1.7621">
        <ele>182.60000610352</ele>
        <time>2014-06-21T11:25:15.000Z</time>
      </trkpt>
      <trkpt lat="48.69371" lon="1.76193">
        <ele>182.19999694824</ele>
        <time>2014-06-21T11:25:24.000Z</time>
      </trkpt>
      <trkpt lat="48.69379" lon="1.76177">
        <ele>182</ele>
        <time>2014-06-21T11:25:32.000Z</time>
      </trkpt>
      <trkpt lat="48.69381" lon="1.76174">
        <ele>182</ele>
        <time>2014-06-21T11:25:34.000Z</time>
      </trkpt>
      <trkpt lat="48.69382" lon="1.7617">
        <ele>182</ele>
        <time>2014-06-21T11:25:36.000Z</time>
      </trkpt>
      <trkpt lat="48.6939" lon="1.76151">
        <ele>181.80000305176</ele>
        <time>2014-06-21T11:25:45.000Z</time>
      </trkpt>
      <trkpt lat="48.69397" lon="1.76144">
        <ele>181.60000610352</ele>
        <time>2014-06-21T11:25:49.000Z</time>
      </trkpt>
      <trkpt lat="48.69407" lon="1.76143">
        <ele>181.39999389648</ele>
        <time>2014-06-21T11:25:55.000Z</time>
      </trkpt>
      <trkpt lat="48.6941" lon="1.76142">
        <ele>181.39999389648</ele>
        <time>2014-06-21T11:26:01.000Z</time>
      </trkpt>
      <trkpt lat="48.6941" lon="1.76142">
        <ele>181.39999389648</ele>
        <time>2014-06-21T11:26:02.000Z</time>
      </trkpt>
      <trkpt lat="48.69441" lon="1.76154">
        <ele>182</ele>
        <time>2014-06-21T11:26:57.000Z</time>
      </trkpt>
      <trkpt lat="48.69463" lon="1.76161">
        <ele>182.39999389648</ele>
        <time>2014-06-21T11:27:04.000Z</time>
      </trkpt>
      <trkpt lat="48.69477" lon="1.76169">
        <ele>182.60000610352</ele>
        <time>2014-06-21T11:27:10.000Z</time>
      </trkpt>
      <trkpt lat="48.6948" lon="1.76172">
        <ele>182.80000305176</ele>
        <time>2014-06-21T11:27:12.000Z</time>
      </trkpt>
      <trkpt lat="48.69489" lon="1.76184">
        <ele>183</ele>
        <time>2014-06-21T11:27:20.000Z</time>
      </trkpt>
      <trkpt lat="48.69496" lon="1.76194">
        <ele>183.19999694824</ele>
        <time>2014-06-21T11:27:27.000Z</time>
      </trkpt>
      <trkpt lat="48.69496" lon="1.76195">
        <ele>183.19999694824</ele>
        <time>2014-06-21T11:27:28.000Z</time>
      </trkpt>
      <trkpt lat="48.69499" lon="1.762">
        <ele>183.39999389648</ele>
        <time>2014-06-21T11:27:31.000Z</time>
      </trkpt>
      <trkpt lat="48.69505" lon="1.76212">
        <ele>183.60000610352</ele>
        <time>2014-06-21T11:27:37.000Z</time>
      </trkpt>
      <trkpt lat="48.69514" lon="1.76224">
        <ele>183.80000305176</ele>
        <time>2014-06-21T11:27:43.000Z</time>
      </trkpt>
      <trkpt lat="48.69519" lon="1.76233">
        <ele>184</ele>
        <time>2014-06-21T11:27:48.000Z</time>
      </trkpt>
      <trkpt lat="48.69524" lon="1.7624">
        <ele>184</ele>
        <time>2014-06-21T11:27:52.000Z</time>
      </trkpt>
      <trkpt lat="48.6953" lon="1.76252">
        <ele>183.80000305176</ele>
        <time>2014-06-21T11:27:59.000Z</time>
      </trkpt>
      <trkpt lat="48.69534" lon="1.76255">
        <ele>183.80000305176</ele>
        <time>2014-06-21T11:28:01.000Z</time>
      </trkpt>
      <trkpt lat="48.69538" lon="1.76263">
        <ele>183.60000610352</ele>
        <time>2014-06-21T11:28:05.000Z</time>
      </trkpt>
      <trkpt lat="48.69541" lon="1.76267">
        <ele>183.60000610352</ele>
        <time>2014-06-21T11:28:07.000Z</time>
      </trkpt>
      <trkpt lat="48.69546" lon="1.76276">
        <ele>183.60000610352</ele>
        <time>2014-06-21T11:28:12.000Z</time>
      </trkpt>
      <trkpt lat="48.69554" lon="1.76286">
        <ele>183.39999389648</ele>
        <time>2014-06-21T11:28:18.000Z</time>
      </trkpt>
      <trkpt lat="48.6956" lon="1.76296">
        <ele>183.19999694824</ele>
        <time>2014-06-21T11:28:24.000Z</time>
      </trkpt>
      <trkpt lat="48.69569" lon="1.76305">
        <ele>183.19999694824</ele>
        <time>2014-06-21T11:28:30.000Z</time>
      </trkpt>
      <trkpt lat="48.69569" lon="1.76307">
        <ele>183.19999694824</ele>
        <time>2014-06-21T11:28:31.000Z</time>
      </trkpt>
      <trkpt lat="48.69577" lon="1.76322">
        <ele>183</ele>
        <time>2014-06-21T11:28:39.000Z</time>
      </trkpt>
      <trkpt lat="48.69582" lon="1.76332">
        <ele>182.80000305176</ele>
        <time>2014-06-21T11:28:44.000Z</time>
      </trkpt>
      <trkpt lat="48.69594" lon="1.76349">
        <ele>182.60000610352</ele>
        <time>2014-06-21T11:28:52.000Z</time>
      </trkpt>
      <trkpt lat="48.69595" lon="1.76351">
        <ele>182.60000610352</ele>
        <time>2014-06-21T11:28:53.000Z</time>
      </trkpt>
      <trkpt lat="48.696" lon="1.76361">
        <ele>182.60000610352</ele>
        <time>2014-06-21T11:28:58.000Z</time>
      </trkpt>
      <trkpt lat="48.69606" lon="1.76371">
        <ele>182.39999389648</ele>
        <time>2014-06-21T11:29:05.000Z</time>
      </trkpt>
      <trkpt lat="48.69614" lon="1.76384">
        <ele>182.19999694824</ele>
        <time>2014-06-21T11:29:12.000Z</time>
      </trkpt>
      <trkpt lat="48.6962" lon="1.76397">
        <ele>182</ele>
        <time>2014-06-21T11:29:19.000Z</time>
      </trkpt>
      <trkpt lat="48.69622" lon="1.764">
        <ele>182</ele>
        <time>2014-06-21T11:29:21.000Z</time>
      </trkpt>
      <trkpt lat="48.69625" lon="1.76403">
        <ele>182</ele>
        <time>2014-06-21T11:29:24.000Z</time>
      </trkpt>
      <trkpt lat="48.69628" lon="1.76409">
        <ele>182</ele>
        <time>2014-06-21T11:29:27.000Z</time>
      </trkpt>
      <trkpt lat="48.69633" lon="1.7642">
        <ele>182</ele>
        <time>2014-06-21T11:29:32.000Z</time>
      </trkpt>
      <trkpt lat="48.69637" lon="1.76427">
        <ele>182</ele>
        <time>2014-06-21T11:29:36.000Z</time>
      </trkpt>
      <trkpt lat="48.69639" lon="1.76435">
        <ele>182</ele>
        <time>2014-06-21T11:29:40.000Z</time>
      </trkpt>
      <trkpt lat="48.69641" lon="1.76439">
        <ele>182</ele>
        <time>2014-06-21T11:29:42.000Z</time>
      </trkpt>
      <trkpt lat="48.69651" lon="1.76449">
        <ele>182</ele>
        <time>2014-06-21T11:29:49.000Z</time>
      </trkpt>
      <trkpt lat="48.69655" lon="1.76456">
        <ele>182</ele>
        <time>2014-06-21T11:29:53.000Z</time>
      </trkpt>
      <trkpt lat="48.69667" lon="1.76476">
        <ele>181.80000305176</ele>
        <time>2014-06-21T11:30:02.000Z</time>
      </trkpt>
      <trkpt lat="48.69671" lon="1.76482">
        <ele>181.60000610352</ele>
        <time>2014-06-21T11:30:05.000Z</time>
      </trkpt>
      <trkpt lat="48.69678" lon="1.76494">
        <ele>181.39999389648</ele>
        <time>2014-06-21T11:30:12.000Z</time>
      </trkpt>
      <trkpt lat="48.69684" lon="1.76507">
        <ele>181.19999694824</ele>
        <time>2014-06-21T11:30:18.000Z</time>
      </trkpt>
      <trkpt lat="48.69688" lon="1.76516">
        <ele>181</ele>
        <time>2014-06-21T11:30:23.000Z</time>
      </trkpt>
      <trkpt lat="48.69693" lon="1.76524">
        <ele>181</ele>
        <time>2014-06-21T11:30:27.000Z</time>
      </trkpt>
      <trkpt lat="48.69696" lon="1.76532">
        <ele>181</ele>
        <time>2014-06-21T11:30:32.000Z</time>
      </trkpt>
      <trkpt lat="48.69699" lon="1.76539">
        <ele>180.80000305176</ele>
        <time>2014-06-21T11:30:36.000Z</time>
      </trkpt>
      <trkpt lat="48.69703" lon="1.76546">
        <ele>180.80000305176</ele>
        <time>2014-06-21T11:30:41.000Z</time>
      </trkpt>
      <trkpt lat="48.69709" lon="1.76553">
        <ele>181</ele>
        <time>2014-06-21T11:30:47.000Z</time>
      </trkpt>
      <trkpt lat="48.69712" lon="1.76559">
        <ele>181</ele>
        <time>2014-06-21T11:30:50.000Z</time>
      </trkpt>
      <trkpt lat="48.69722" lon="1.76572">
        <ele>181.19999694824</ele>
        <time>2014-06-21T11:30:57.000Z</time>
      </trkpt>
      <trkpt lat="48.6973" lon="1.7658">
        <ele>181.60000610352</ele>
        <time>2014-06-21T11:31:03.000Z</time>
      </trkpt>
      <trkpt lat="48.69731" lon="1.76581">
        <ele>181.60000610352</ele>
        <time>2014-06-21T11:31:04.000Z</time>
      </trkpt>
      <trkpt lat="48.69739" lon="1.76595">
        <ele>182.19999694824</ele>
        <time>2014-06-21T11:31:12.000Z</time>
      </trkpt>
      <trkpt lat="48.69743" lon="1.76604">
        <ele>182.39999389648</ele>
        <time>2014-06-21T11:31:17.000Z</time>
      </trkpt>
      <trkpt lat="48.69752" lon="1.76612">
        <ele>183</ele>
        <time>2014-06-21T11:31:23.000Z</time>
      </trkpt>
      <trkpt lat="48.6976" lon="1.76621">
        <ele>183.39999389648</ele>
        <time>2014-06-21T11:31:29.000Z</time>
      </trkpt>
      <trkpt lat="48.69761" lon="1.76622">
        <ele>183.39999389648</ele>
        <time>2014-06-21T11:31:30.000Z</time>
      </trkpt>
      <trkpt lat="48.69765" lon="1.76626">
        <ele>183.60000610352</ele>
        <time>2014-06-21T11:31:33.000Z</time>
      </trkpt>
      <trkpt lat="48.69775" lon="1.76637">
        <ele>184</ele>
        <time>2014-06-21T11:31:40.000Z</time>
      </trkpt>
      <trkpt lat="48.69781" lon="1.76644">
        <ele>184</ele>
        <time>2014-06-21T11:31:45.000Z</time>
      </trkpt>
      <trkpt lat="48.69785" lon="1.7665">
        <ele>184</ele>
        <time>2014-06-21T11:31:49.000Z</time>
      </trkpt>
      <trkpt lat="48.69795" lon="1.76654">
        <ele>184</ele>
        <time>2014-06-21T11:31:55.000Z</time>
      </trkpt>
      <trkpt lat="48.698" lon="1.76661">
        <ele>184.19999694824</ele>
        <time>2014-06-21T11:32:00.000Z</time>
      </trkpt>
      <trkpt lat="48.69805" lon="1.76663">
        <ele>184.19999694824</ele>
        <time>2014-06-21T11:32:04.000Z</time>
      </trkpt>
      <trkpt lat="48.69812" lon="1.76675">
        <ele>184.39999389648</ele>
        <time>2014-06-21T11:32:10.000Z</time>
      </trkpt>
      <trkpt lat="48.69813" lon="1.76676">
        <ele>184.60000610352</ele>
        <time>2014-06-21T11:32:11.000Z</time>
      </trkpt>
      <trkpt lat="48.69818" lon="1.7668">
        <ele>184.60000610352</ele>
        <time>2014-06-21T11:32:14.000Z</time>
      </trkpt>
      <trkpt lat="48.69822" lon="1.76687">
        <ele>184.80000305176</ele>
        <time>2014-06-21T11:32:18.000Z</time>
      </trkpt>
      <trkpt lat="48.69832" lon="1.767">
        <ele>185</ele>
        <time>2014-06-21T11:32:26.000Z</time>
      </trkpt>
      <trkpt lat="48.69834" lon="1.76702">
        <ele>185.19999694824</ele>
        <time>2014-06-21T11:32:28.000Z</time>
      </trkpt>
      <trkpt lat="48.69842" lon="1.76711">
        <ele>185.39999389648</ele>
        <time>2014-06-21T11:32:35.000Z</time>
      </trkpt>
      <trkpt lat="48.69844" lon="1.76715">
        <ele>185.39999389648</ele>
        <time>2014-06-21T11:32:37.000Z</time>
      </trkpt>
      <trkpt lat="48.69852" lon="1.76727">
        <ele>185.80000305176</ele>
        <time>2014-06-21T11:32:44.000Z</time>
      </trkpt>
      <trkpt lat="48.6986" lon="1.76735">
        <ele>185.80000305176</ele>
        <time>2014-06-21T11:32:49.000Z</time>
      </trkpt>
      <trkpt lat="48.69869" lon="1.76744">
        <ele>185.39999389648</ele>
        <time>2014-06-21T11:32:56.000Z</time>
      </trkpt>
      <trkpt lat="48.69877" lon="1.76752">
        <ele>185</ele>
        <time>2014-06-21T11:33:03.000Z</time>
      </trkpt>
      <trkpt lat="48.69885" lon="1.76763">
        <ele>184.39999389648</ele>
        <time>2014-06-21T11:33:11.000Z</time>
      </trkpt>
      <trkpt lat="48.69891" lon="1.76771">
        <ele>183.80000305176</ele>
        <time>2014-06-21T11:33:16.000Z</time>
      </trkpt>
      <trkpt lat="48.69898" lon="1.76779">
        <ele>183.39999389648</ele>
        <time>2014-06-21T11:33:22.000Z</time>
      </trkpt>
      <trkpt lat="48.69906" lon="1.76782">
        <ele>183.19999694824</ele>
        <time>2014-06-21T11:33:28.000Z</time>
      </trkpt>
      <trkpt lat="48.69915" lon="1.7678">
        <ele>183</ele>
        <time>2014-06-21T11:33:34.000Z</time>
      </trkpt>
      <trkpt lat="48.69918" lon="1.7678">
        <ele>183</ele>
        <time>2014-06-21T11:33:36.000Z</time>
      </trkpt>
      <trkpt lat="48.69931" lon="1.76778">
        <ele>182.60000610352</ele>
        <time>2014-06-21T11:33:44.000Z</time>
      </trkpt>
      <trkpt lat="48.69932" lon="1.76777">
        <ele>182.60000610352</ele>
        <time>2014-06-21T11:33:45.000Z</time>
      </trkpt>
      <trkpt lat="48.69939" lon="1.76776">
        <ele>182.60000610352</ele>
        <time>2014-06-21T11:33:50.000Z</time>
      </trkpt>
      <trkpt lat="48.69948" lon="1.76774">
        <ele>183.19999694824</ele>
        <time>2014-06-21T11:33:56.000Z</time>
      </trkpt>
      <trkpt lat="48.69951" lon="1.76774">
        <ele>183.19999694824</ele>
        <time>2014-06-21T11:33:58.000Z</time>
      </trkpt>
      <trkpt lat="48.69966" lon="1.76774">
        <ele>183.80000305176</ele>
        <time>2014-06-21T11:34:07.000Z</time>
      </trkpt>
      <trkpt lat="48.69979" lon="1.76773">
        <ele>184.19999694824</ele>
        <time>2014-06-21T11:34:14.000Z</time>
      </trkpt>
      <trkpt lat="48.69991" lon="1.76772">
        <ele>184.39999389648</ele>
        <time>2014-06-21T11:34:22.000Z</time>
      </trkpt>
      <trkpt lat="48.69999" lon="1.76772">
        <ele>184.60000610352</ele>
        <time>2014-06-21T11:34:28.000Z</time>
      </trkpt>
      <trkpt lat="48.70003" lon="1.76769">
        <ele>184.80000305176</ele>
        <time>2014-06-21T11:34:32.000Z</time>
      </trkpt>
      <trkpt lat="48.7001" lon="1.7677">
        <ele>185</ele>
        <time>2014-06-21T11:34:37.000Z</time>
      </trkpt>
      <trkpt lat="48.70016" lon="1.76768">
        <ele>185.19999694824</ele>
        <time>2014-06-21T11:34:41.000Z</time>
      </trkpt>
      <trkpt lat="48.70018" lon="1.76766">
        <ele>185.19999694824</ele>
        <time>2014-06-21T11:34:43.000Z</time>
      </trkpt>
      <trkpt lat="48.70028" lon="1.76767">
        <ele>185.39999389648</ele>
        <time>2014-06-21T11:34:49.000Z</time>
      </trkpt>
      <trkpt lat="48.70036" lon="1.76769">
        <ele>185.39999389648</ele>
        <time>2014-06-21T11:34:54.000Z</time>
      </trkpt>
      <trkpt lat="48.70039" lon="1.76771">
        <ele>185.39999389648</ele>
        <time>2014-06-21T11:34:56.000Z</time>
      </trkpt>
      <trkpt lat="48.70046" lon="1.7677">
        <ele>185.60000610352</ele>
        <time>2014-06-21T11:35:00.000Z</time>
      </trkpt>
      <trkpt lat="48.70049" lon="1.7677">
        <ele>185.60000610352</ele>
        <time>2014-06-21T11:35:02.000Z</time>
      </trkpt>
      <trkpt lat="48.7006" lon="1.7677">
        <ele>185.60000610352</ele>
        <time>2014-06-21T11:35:09.000Z</time>
      </trkpt>
      <trkpt lat="48.70069" lon="1.76772">
        <ele>185.60000610352</ele>
        <time>2014-06-21T11:35:15.000Z</time>
      </trkpt>
      <trkpt lat="48.7008" lon="1.76775">
        <ele>185.60000610352</ele>
        <time>2014-06-21T11:35:22.000Z</time>
      </trkpt>
      <trkpt lat="48.70081" lon="1.76775">
        <ele>185.60000610352</ele>
        <time>2014-06-21T11:35:23.000Z</time>
      </trkpt>
      <trkpt lat="48.7009" lon="1.76775">
        <ele>185.60000610352</ele>
        <time>2014-06-21T11:35:29.000Z</time>
      </trkpt>
      <trkpt lat="48.70097" lon="1.76775">
        <ele>185.60000610352</ele>
        <time>2014-06-21T11:35:34.000Z</time>
      </trkpt>
      <trkpt lat="48.70108" lon="1.76776">
        <ele>185.19999694824</ele>
        <time>2014-06-21T11:35:41.000Z</time>
      </trkpt>
      <trkpt lat="48.70116" lon="1.76777">
        <ele>184.80000305176</ele>
        <time>2014-06-21T11:35:47.000Z</time>
      </trkpt>
      <trkpt lat="48.70121" lon="1.76778">
        <ele>184.39999389648</ele>
        <time>2014-06-21T11:35:51.000Z</time>
      </trkpt>
      <trkpt lat="48.70129" lon="1.76778">
        <ele>184</ele>
        <time>2014-06-21T11:35:57.000Z</time>
      </trkpt>
      <trkpt lat="48.70137" lon="1.76779">
        <ele>183.60000610352</ele>
        <time>2014-06-21T11:36:03.000Z</time>
      </trkpt>
      <trkpt lat="48.70145" lon="1.76774">
        <ele>183.19999694824</ele>
        <time>2014-06-21T11:36:09.000Z</time>
      </trkpt>
      <trkpt lat="48.70149" lon="1.76771">
        <ele>183</ele>
        <time>2014-06-21T11:36:12.000Z</time>
      </trkpt>
      <trkpt lat="48.70159" lon="1.76765">
        <ele>182.60000610352</ele>
        <time>2014-06-21T11:36:19.000Z</time>
      </trkpt>
      <trkpt lat="48.70168" lon="1.76757">
        <ele>182.39999389648</ele>
        <time>2014-06-21T11:36:25.000Z</time>
      </trkpt>
      <trkpt lat="48.70172" lon="1.76751">
        <ele>182.39999389648</ele>
        <time>2014-06-21T11:36:29.000Z</time>
      </trkpt>
      <trkpt lat="48.70181" lon="1.76741">
        <ele>182.19999694824</ele>
        <time>2014-06-21T11:36:36.000Z</time>
      </trkpt>
      <trkpt lat="48.70185" lon="1.76735">
        <ele>182</ele>
        <time>2014-06-21T11:36:42.000Z</time>
      </trkpt>
      <trkpt lat="48.70195" lon="1.76725">
        <ele>182.19999694824</ele>
        <time>2014-06-21T11:36:48.000Z</time>
      </trkpt>
      <trkpt lat="48.702" lon="1.76719">
        <ele>182.19999694824</ele>
        <time>2014-06-21T11:36:52.000Z</time>
      </trkpt>
      <trkpt lat="48.7021" lon="1.7671">
        <ele>182.19999694824</ele>
        <time>2014-06-21T11:37:00.000Z</time>
      </trkpt>
      <trkpt lat="48.70219" lon="1.76704">
        <ele>182</ele>
        <time>2014-06-21T11:37:07.000Z</time>
      </trkpt>
      <trkpt lat="48.70222" lon="1.76703">
        <ele>182</ele>
        <time>2014-06-21T11:37:09.000Z</time>
      </trkpt>
      <trkpt lat="48.70227" lon="1.76698">
        <ele>182</ele>
        <time>2014-06-21T11:37:14.000Z</time>
      </trkpt>
      <trkpt lat="48.70232" lon="1.76694">
        <ele>181.80000305176</ele>
        <time>2014-06-21T11:37:18.000Z</time>
      </trkpt>
      <trkpt lat="48.70235" lon="1.76694">
        <ele>181.60000610352</ele>
        <time>2014-06-21T11:37:20.000Z</time>
      </trkpt>
      <trkpt lat="48.70239" lon="1.76693">
        <ele>181.39999389648</ele>
        <time>2014-06-21T11:37:23.000Z</time>
      </trkpt>
      <trkpt lat="48.70246" lon="1.76686">
        <ele>181.19999694824</ele>
        <time>2014-06-21T11:37:31.000Z</time>
      </trkpt>
      <trkpt lat="48.70249" lon="1.76683">
        <ele>181</ele>
        <time>2014-06-21T11:37:35.000Z</time>
      </trkpt>
      <trkpt lat="48.70262" lon="1.7668">
        <ele>180.39999389648</ele>
        <time>2014-06-21T11:37:41.000Z</time>
      </trkpt>
      <trkpt lat="48.70268" lon="1.76677">
        <ele>180</ele>
        <time>2014-06-21T11:37:45.000Z</time>
      </trkpt>
      <trkpt lat="48.70279" lon="1.7667">
        <ele>179.80000305176</ele>
        <time>2014-06-21T11:37:52.000Z</time>
      </trkpt>
      <trkpt lat="48.7028" lon="1.76669">
        <ele>179.80000305176</ele>
        <time>2014-06-21T11:37:53.000Z</time>
      </trkpt>
      <trkpt lat="48.70293" lon="1.76662">
        <ele>179.39999389648</ele>
        <time>2014-06-21T11:38:02.000Z</time>
      </trkpt>
      <trkpt lat="48.70304" lon="1.76654">
        <ele>179.19999694824</ele>
        <time>2014-06-21T11:38:10.000Z</time>
      </trkpt>
      <trkpt lat="48.70307" lon="1.76652">
        <ele>179.19999694824</ele>
        <time>2014-06-21T11:38:12.000Z</time>
      </trkpt>
      <trkpt lat="48.70313" lon="1.76651">
        <ele>179</ele>
        <time>2014-06-21T11:38:17.000Z</time>
      </trkpt>
      <trkpt lat="48.70314" lon="1.76649">
        <ele>179</ele>
        <time>2014-06-21T11:38:22.000Z</time>
      </trkpt>
      <trkpt lat="48.70321" lon="1.76645">
        <ele>178.80000305176</ele>
        <time>2014-06-21T11:38:46.000Z</time>
      </trkpt>
      <trkpt lat="48.70325" lon="1.7664">
        <ele>178.60000610352</ele>
        <time>2014-06-21T11:38:50.000Z</time>
      </trkpt>
      <trkpt lat="48.7033" lon="1.76632">
        <ele>178.60000610352</ele>
        <time>2014-06-21T11:38:56.000Z</time>
      </trkpt>
      <trkpt lat="48.70338" lon="1.76625">
        <ele>178.39999389648</ele>
        <time>2014-06-21T11:39:03.000Z</time>
      </trkpt>
      <trkpt lat="48.7034" lon="1.76624">
        <ele>178.39999389648</ele>
        <time>2014-06-21T11:39:05.000Z</time>
      </trkpt>
      <trkpt lat="48.70349" lon="1.76618">
        <ele>178.19999694824</ele>
        <time>2014-06-21T11:39:11.000Z</time>
      </trkpt>
      <trkpt lat="48.70353" lon="1.76616">
        <ele>178</ele>
        <time>2014-06-21T11:39:15.000Z</time>
      </trkpt>
      <trkpt lat="48.70359" lon="1.76612">
        <ele>178.19999694824</ele>
        <time>2014-06-21T11:39:19.000Z</time>
      </trkpt>
      <trkpt lat="48.70367" lon="1.76607">
        <ele>178.39999389648</ele>
        <time>2014-06-21T11:39:25.000Z</time>
      </trkpt>
      <trkpt lat="48.70375" lon="1.766">
        <ele>178.60000610352</ele>
        <time>2014-06-21T11:39:31.000Z</time>
      </trkpt>
      <trkpt lat="48.70384" lon="1.76593">
        <ele>178.80000305176</ele>
        <time>2014-06-21T11:39:38.000Z</time>
      </trkpt>
      <trkpt lat="48.70389" lon="1.76588">
        <ele>179.19999694824</ele>
        <time>2014-06-21T11:39:44.000Z</time>
      </trkpt>
      <trkpt lat="48.70396" lon="1.76582">
        <ele>179.39999389648</ele>
        <time>2014-06-21T11:39:49.000Z</time>
      </trkpt>
      <trkpt lat="48.70406" lon="1.76581">
        <ele>179.80000305176</ele>
        <time>2014-06-21T11:39:55.000Z</time>
      </trkpt>
      <trkpt lat="48.70417" lon="1.76575">
        <ele>180.19999694824</ele>
        <time>2014-06-21T11:40:02.000Z</time>
      </trkpt>
      <trkpt lat="48.70421" lon="1.76573">
        <ele>180.39999389648</ele>
        <time>2014-06-21T11:40:04.000Z</time>
      </trkpt>
      <trkpt lat="48.70429" lon="1.76568">
        <ele>180.80000305176</ele>
        <time>2014-06-21T11:40:09.000Z</time>
      </trkpt>
      <trkpt lat="48.70434" lon="1.76555">
        <ele>181</ele>
        <time>2014-06-21T11:40:16.000Z</time>
      </trkpt>
      <trkpt lat="48.70441" lon="1.76543">
        <ele>181.19999694824</ele>
        <time>2014-06-21T11:40:22.000Z</time>
      </trkpt>
      <trkpt lat="48.70443" lon="1.76523">
        <ele>181.19999694824</ele>
        <time>2014-06-21T11:40:30.000Z</time>
      </trkpt>
      <trkpt lat="48.70443" lon="1.76505">
        <ele>181.39999389648</ele>
        <time>2014-06-21T11:40:37.000Z</time>
      </trkpt>
      <trkpt lat="48.70447" lon="1.76497">
        <ele>181.39999389648</ele>
        <time>2014-06-21T11:40:41.000Z</time>
      </trkpt>
      <trkpt lat="48.70451" lon="1.76487">
        <ele>181</ele>
        <time>2014-06-21T11:40:46.000Z</time>
      </trkpt>
      <trkpt lat="48.70453" lon="1.76474">
        <ele>180.19999694824</ele>
        <time>2014-06-21T11:40:50.000Z</time>
      </trkpt>
      <trkpt lat="48.70456" lon="1.76453">
        <ele>179</ele>
        <time>2014-06-21T11:40:55.000Z</time>
      </trkpt>
      <trkpt lat="48.70461" lon="1.7643">
        <ele>177.39999389648</ele>
        <time>2014-06-21T11:41:01.000Z</time>
      </trkpt>
      <trkpt lat="48.70463" lon="1.76414">
        <ele>177.19999694824</ele>
        <time>2014-06-21T11:41:07.000Z</time>
      </trkpt>
      <trkpt lat="48.70461" lon="1.764">
        <ele>176.80000305176</ele>
        <time>2014-06-21T11:41:13.000Z</time>
      </trkpt>
      <trkpt lat="48.70458" lon="1.76385">
        <ele>176.19999694824</ele>
        <time>2014-06-21T11:41:19.000Z</time>
      </trkpt>
      <trkpt lat="48.70457" lon="1.76375">
        <ele>175.80000305176</ele>
        <time>2014-06-21T11:41:23.000Z</time>
      </trkpt>
      <trkpt lat="48.70451" lon="1.76358">
        <ele>175.19999694824</ele>
        <time>2014-06-21T11:41:30.000Z</time>
      </trkpt>
      <trkpt lat="48.70451" lon="1.76352">
        <ele>175</ele>
        <time>2014-06-21T11:41:33.000Z</time>
      </trkpt>
      <trkpt lat="48.70451" lon="1.76341">
        <ele>174.39999389648</ele>
        <time>2014-06-21T11:41:40.000Z</time>
      </trkpt>
      <trkpt lat="48.70449" lon="1.7633">
        <ele>174</ele>
        <time>2014-06-21T11:41:45.000Z</time>
      </trkpt>
      <trkpt lat="48.70447" lon="1.76324">
        <ele>173.80000305176</ele>
        <time>2014-06-21T11:41:48.000Z</time>
      </trkpt>
      <trkpt lat="48.70447" lon="1.76317">
        <ele>173.60000610352</ele>
        <time>2014-06-21T11:41:51.000Z</time>
      </trkpt>
      <trkpt lat="48.70447" lon="1.76301">
        <ele>173.60000610352</ele>
        <time>2014-06-21T11:41:58.000Z</time>
      </trkpt>
      <trkpt lat="48.70447" lon="1.76295">
        <ele>173.60000610352</ele>
        <time>2014-06-21T11:42:01.000Z</time>
      </trkpt>
      <trkpt lat="48.70448" lon="1.76286">
        <ele>173.60000610352</ele>
        <time>2014-06-21T11:42:05.000Z</time>
      </trkpt>
      <trkpt lat="48.70449" lon="1.76274">
        <ele>173.60000610352</ele>
        <time>2014-06-21T11:42:11.000Z</time>
      </trkpt>
      <trkpt lat="48.70452" lon="1.76266">
        <ele>173.39999389648</ele>
        <time>2014-06-21T11:42:16.000Z</time>
      </trkpt>
      <trkpt lat="48.70455" lon="1.76261">
        <ele>173.39999389648</ele>
        <time>2014-06-21T11:42:22.000Z</time>
      </trkpt>
      <trkpt lat="48.7046" lon="1.76249">
        <ele>172.80000305176</ele>
        <time>2014-06-21T11:43:05.000Z</time>
      </trkpt>
      <trkpt lat="48.7046" lon="1.7624">
        <ele>172.60000610352</ele>
        <time>2014-06-21T11:43:08.000Z</time>
      </trkpt>
      <trkpt lat="48.70461" lon="1.76232">
        <ele>172.60000610352</ele>
        <time>2014-06-21T11:43:12.000Z</time>
      </trkpt>
      <trkpt lat="48.70462" lon="1.76215">
        <ele>173</ele>
        <time>2014-06-21T11:43:20.000Z</time>
      </trkpt>
      <trkpt lat="48.7046" lon="1.76205">
        <ele>173.39999389648</ele>
        <time>2014-06-21T11:43:25.000Z</time>
      </trkpt>
      <trkpt lat="48.70455" lon="1.76189">
        <ele>174</ele>
        <time>2014-06-21T11:43:32.000Z</time>
      </trkpt>
      <trkpt lat="48.70454" lon="1.76178">
        <ele>174.39999389648</ele>
        <time>2014-06-21T11:43:37.000Z</time>
      </trkpt>
      <trkpt lat="48.70448" lon="1.76158">
        <ele>175.39999389648</ele>
        <time>2014-06-21T11:43:46.000Z</time>
      </trkpt>
      <trkpt lat="48.70448" lon="1.76151">
        <ele>175.39999389648</ele>
        <time>2014-06-21T11:43:49.000Z</time>
      </trkpt>
      <trkpt lat="48.70447" lon="1.76135">
        <ele>175.80000305176</ele>
        <time>2014-06-21T11:43:57.000Z</time>
      </trkpt>
      <trkpt lat="48.70457" lon="1.76113">
        <ele>175.60000610352</ele>
        <time>2014-06-21T11:44:07.000Z</time>
      </trkpt>
      <trkpt lat="48.70458" lon="1.76111">
        <ele>175.39999389648</ele>
        <time>2014-06-21T11:44:08.000Z</time>
      </trkpt>
      <trkpt lat="48.70462" lon="1.76094">
        <ele>175.60000610352</ele>
        <time>2014-06-21T11:44:15.000Z</time>
      </trkpt>
      <trkpt lat="48.70467" lon="1.76076">
        <ele>175.39999389648</ele>
        <time>2014-06-21T11:44:23.000Z</time>
      </trkpt>
      <trkpt lat="48.70468" lon="1.76072">
        <ele>175.39999389648</ele>
        <time>2014-06-21T11:44:25.000Z</time>
      </trkpt>
      <trkpt lat="48.70469" lon="1.7606">
        <ele>176</ele>
        <time>2014-06-21T11:44:31.000Z</time>
      </trkpt>
      <trkpt lat="48.70474" lon="1.76046">
        <ele>176.39999389648</ele>
        <time>2014-06-21T11:44:39.000Z</time>
      </trkpt>
      <trkpt lat="48.70475" lon="1.76033">
        <ele>177</ele>
        <time>2014-06-21T11:44:46.000Z</time>
      </trkpt>
      <trkpt lat="48.70478" lon="1.76017">
        <ele>177.80000305176</ele>
        <time>2014-06-21T11:44:54.000Z</time>
      </trkpt>
      <trkpt lat="48.70479" lon="1.76013">
        <ele>178</ele>
        <time>2014-06-21T11:44:56.000Z</time>
      </trkpt>
      <trkpt lat="48.70481" lon="1.76006">
        <ele>178.39999389648</ele>
        <time>2014-06-21T11:45:00.000Z</time>
      </trkpt>
      <trkpt lat="48.70489" lon="1.7599">
        <ele>179</ele>
        <time>2014-06-21T11:45:08.000Z</time>
      </trkpt>
      <trkpt lat="48.70489" lon="1.75988">
        <ele>179.19999694824</ele>
        <time>2014-06-21T11:45:09.000Z</time>
      </trkpt>
      <trkpt lat="48.70495" lon="1.75975">
        <ele>179</ele>
        <time>2014-06-21T11:45:16.000Z</time>
      </trkpt>
      <trkpt lat="48.705" lon="1.75965">
        <ele>179.19999694824</ele>
        <time>2014-06-21T11:45:22.000Z</time>
      </trkpt>
      <trkpt lat="48.70501" lon="1.75963">
        <ele>179.19999694824</ele>
        <time>2014-06-21T11:45:23.000Z</time>
      </trkpt>
      <trkpt lat="48.70503" lon="1.75956">
        <ele>179.60000610352</ele>
        <time>2014-06-21T11:45:26.000Z</time>
      </trkpt>
      <trkpt lat="48.7051" lon="1.75948">
        <ele>179.80000305176</ele>
        <time>2014-06-21T11:45:31.000Z</time>
      </trkpt>
      <trkpt lat="48.70517" lon="1.75938">
        <ele>180.39999389648</ele>
        <time>2014-06-21T11:45:37.000Z</time>
      </trkpt>
      <trkpt lat="48.7052" lon="1.75931">
        <ele>180.80000305176</ele>
        <time>2014-06-21T11:45:41.000Z</time>
      </trkpt>
      <trkpt lat="48.70524" lon="1.75921">
        <ele>181</ele>
        <time>2014-06-21T11:45:47.000Z</time>
      </trkpt>
      <trkpt lat="48.70528" lon="1.7591">
        <ele>181.19999694824</ele>
        <time>2014-06-21T11:45:52.000Z</time>
      </trkpt>
      <trkpt lat="48.70532" lon="1.75894">
        <ele>181.39999389648</ele>
        <time>2014-06-21T11:45:58.000Z</time>
      </trkpt>
      <trkpt lat="48.70535" lon="1.75885">
        <ele>181.39999389648</ele>
        <time>2014-06-21T11:46:02.000Z</time>
      </trkpt>
      <trkpt lat="48.70538" lon="1.75876">
        <ele>181.39999389648</ele>
        <time>2014-06-21T11:46:07.000Z</time>
      </trkpt>
      <trkpt lat="48.70541" lon="1.75873">
        <ele>181.19999694824</ele>
        <time>2014-06-21T11:46:10.000Z</time>
      </trkpt>
      <trkpt lat="48.70546" lon="1.75865">
        <ele>181</ele>
        <time>2014-06-21T11:46:15.000Z</time>
      </trkpt>
      <trkpt lat="48.70553" lon="1.75854">
        <ele>180.80000305176</ele>
        <time>2014-06-21T11:46:21.000Z</time>
      </trkpt>
      <trkpt lat="48.70559" lon="1.75847">
        <ele>180.19999694824</ele>
        <time>2014-06-21T11:46:26.000Z</time>
      </trkpt>
      <trkpt lat="48.70567" lon="1.7583">
        <ele>179</ele>
        <time>2014-06-21T11:46:35.000Z</time>
      </trkpt>
      <trkpt lat="48.70572" lon="1.75819">
        <ele>178.39999389648</ele>
        <time>2014-06-21T11:46:41.000Z</time>
      </trkpt>
      <trkpt lat="48.70577" lon="1.75808">
        <ele>178</ele>
        <time>2014-06-21T11:46:47.000Z</time>
      </trkpt>
      <trkpt lat="48.70584" lon="1.75798">
        <ele>177.60000610352</ele>
        <time>2014-06-21T11:46:54.000Z</time>
      </trkpt>
      <trkpt lat="48.70588" lon="1.75785">
        <ele>177.80000305176</ele>
        <time>2014-06-21T11:47:00.000Z</time>
      </trkpt>
      <trkpt lat="48.70594" lon="1.75771">
        <ele>178</ele>
        <time>2014-06-21T11:47:08.000Z</time>
      </trkpt>
      <trkpt lat="48.70599" lon="1.75763">
        <ele>178</ele>
        <time>2014-06-21T11:47:14.000Z</time>
      </trkpt>
      <trkpt lat="48.70604" lon="1.75754">
        <ele>178.19999694824</ele>
        <time>2014-06-21T11:47:20.000Z</time>
      </trkpt>
      <trkpt lat="48.70605" lon="1.75752">
        <ele>178.19999694824</ele>
        <time>2014-06-21T11:47:21.000Z</time>
      </trkpt>
      <trkpt lat="48.70613" lon="1.75741">
        <ele>178.39999389648</ele>
        <time>2014-06-21T11:47:28.000Z</time>
      </trkpt>
      <trkpt lat="48.70622" lon="1.75728">
        <ele>178.60000610352</ele>
        <time>2014-06-21T11:47:36.000Z</time>
      </trkpt>
      <trkpt lat="48.70627" lon="1.7572">
        <ele>178.80000305176</ele>
        <time>2014-06-21T11:47:41.000Z</time>
      </trkpt>
      <trkpt lat="48.70628" lon="1.75715">
        <ele>179.19999694824</ele>
        <time>2014-06-21T11:47:46.000Z</time>
      </trkpt>
      <trkpt lat="48.70625" lon="1.7571">
        <ele>179.60000610352</ele>
        <time>2014-06-21T11:48:52.000Z</time>
      </trkpt>
      <trkpt lat="48.70618" lon="1.75709">
        <ele>180.19999694824</ele>
        <time>2014-06-21T11:48:59.000Z</time>
      </trkpt>
      <trkpt lat="48.70619" lon="1.75713">
        <ele>179.80000305176</ele>
        <time>2014-06-21T11:49:08.000Z</time>
      </trkpt>
      <trkpt lat="48.70619" lon="1.75713">
        <ele>179.80000305176</ele>
        <time>2014-06-21T11:49:10.000Z</time>
      </trkpt>
      <trkpt lat="48.70621" lon="1.75709">
        <ele>180</ele>
        <time>2014-06-21T11:49:22.000Z</time>
      </trkpt>
      <trkpt lat="48.70625" lon="1.75711">
        <ele>179.60000610352</ele>
        <time>2014-06-21T11:49:27.000Z</time>
      </trkpt>
      <trkpt lat="48.70629" lon="1.75712">
        <ele>179.19999694824</ele>
        <time>2014-06-21T11:49:35.000Z</time>
      </trkpt>
      <trkpt lat="48.70633" lon="1.75706">
        <ele>179.39999389648</ele>
        <time>2014-06-21T11:49:41.000Z</time>
      </trkpt>
      <trkpt lat="48.70635" lon="1.75698">
        <ele>180</ele>
        <time>2014-06-21T11:49:46.000Z</time>
      </trkpt>
      <trkpt lat="48.70636" lon="1.75696">
        <ele>180</ele>
        <time>2014-06-21T11:49:47.000Z</time>
      </trkpt>
      <trkpt lat="48.70637" lon="1.7569">
        <ele>180.39999389648</ele>
        <time>2014-06-21T11:49:51.000Z</time>
      </trkpt>
      <trkpt lat="48.70638" lon="1.75684">
        <ele>180.60000610352</ele>
        <time>2014-06-21T11:49:55.000Z</time>
      </trkpt>
      <trkpt lat="48.70638" lon="1.75682">
        <ele>180.60000610352</ele>
        <time>2014-06-21T11:49:56.000Z</time>
      </trkpt>
      <trkpt lat="48.7064" lon="1.75667">
        <ele>180.60000610352</ele>
        <time>2014-06-21T11:50:04.000Z</time>
      </trkpt>
      <trkpt lat="48.70639" lon="1.75664">
        <ele>180.60000610352</ele>
        <time>2014-06-21T11:50:06.000Z</time>
      </trkpt>
      <trkpt lat="48.70636" lon="1.75657">
        <ele>181</ele>
        <time>2014-06-21T11:50:10.000Z</time>
      </trkpt>
      <trkpt lat="48.70636" lon="1.75639">
        <ele>180.60000610352</ele>
        <time>2014-06-21T11:50:19.000Z</time>
      </trkpt>
      <trkpt lat="48.70642" lon="1.7562">
        <ele>179.60000610352</ele>
        <time>2014-06-21T11:50:29.000Z</time>
      </trkpt>
      <trkpt lat="48.70648" lon="1.75604">
        <ele>178.80000305176</ele>
        <time>2014-06-21T11:50:38.000Z</time>
      </trkpt>
      <trkpt lat="48.70656" lon="1.75586">
        <ele>178</ele>
        <time>2014-06-21T11:50:48.000Z</time>
      </trkpt>
      <trkpt lat="48.70662" lon="1.75573">
        <ele>177.39999389648</ele>
        <time>2014-06-21T11:50:55.000Z</time>
      </trkpt>
      <trkpt lat="48.70667" lon="1.75559">
        <ele>175.60000610352</ele>
        <time>2014-06-21T11:51:03.000Z</time>
      </trkpt>
      <trkpt lat="48.70677" lon="1.75542">
        <ele>174.39999389648</ele>
        <time>2014-06-21T11:51:13.000Z</time>
      </trkpt>
      <trkpt lat="48.70686" lon="1.75526">
        <ele>174</ele>
        <time>2014-06-21T11:51:23.000Z</time>
      </trkpt>
      <trkpt lat="48.70694" lon="1.75508">
        <ele>173.19999694824</ele>
        <time>2014-06-21T11:51:33.000Z</time>
      </trkpt>
      <trkpt lat="48.70701" lon="1.75489">
        <ele>172.60000610352</ele>
        <time>2014-06-21T11:51:44.000Z</time>
      </trkpt>
      <trkpt lat="48.70702" lon="1.75481">
        <ele>172.39999389648</ele>
        <time>2014-06-21T11:51:50.000Z</time>
      </trkpt>
      <trkpt lat="48.70702" lon="1.75481">
        <ele>172.39999389648</ele>
        <time>2014-06-21T11:51:51.000Z</time>
      </trkpt>
      <trkpt lat="48.70706" lon="1.75467">
        <ele>172</ele>
        <time>2014-06-21T11:52:25.000Z</time>
      </trkpt>
      <trkpt lat="48.7071" lon="1.7546">
        <ele>171.80000305176</ele>
        <time>2014-06-21T11:52:29.000Z</time>
      </trkpt>
      <trkpt lat="48.70713" lon="1.75453">
        <ele>171.60000610352</ele>
        <time>2014-06-21T11:52:33.000Z</time>
      </trkpt>
      <trkpt lat="48.70713" lon="1.75452">
        <ele>171.60000610352</ele>
        <time>2014-06-21T11:52:37.000Z</time>
      </trkpt>
    </trkseg>
  </trk>
</gpx>